Provisional Data: Baldwin Run near Wellsboro Junction, PA


Please select a monitoring station.
Please select start date.
Please select start date.

Toggle Unit: C/F Toggle Unit: C/F
Sample Time Temperature (C) Temperature (F) Specific Conductivity (mS/cm) pH   Turbidity (NTU+) DO (mg/L)
5/17/2022 12:00:00 AM 11.81 53.258 0.083 7.37 15.26 10.2
5/17/2022 12:15:00 AM 11.75 53.15 0.083 7.33 14.59 10.22
5/17/2022 12:30:00 AM 11.68 53.024 0.083 7.32 14.63 10.23
5/17/2022 12:45:00 AM 11.61 52.898 0.082 7.35 14.87 10.26
5/17/2022 1:00:00 AM 11.54 52.772 0.082 7.35 14.37 10.28
5/17/2022 1:15:00 AM 11.47 52.646 0.082 7.36 13.82 10.29
5/17/2022 1:30:00 AM 11.39 52.502 0.082 7.38 13.46 10.31
5/17/2022 1:45:00 AM 11.32 52.376 0.082 7.34 13.41 10.32
5/17/2022 2:00:00 AM 11.24 52.232 0.082 7.38 13.93 10.34
5/17/2022 2:15:00 AM 11.17 52.106 0.082 7.33 13.4 10.36
5/17/2022 2:30:00 AM 11.1 51.98 0.082 7.35 13.27 10.37
5/17/2022 2:45:00 AM 11.04 51.872 0.081 7.34 13.2 10.39
5/17/2022 3:00:00 AM 10.99 51.782 0.081 7.37 12.97 10.41
5/17/2022 3:15:00 AM 10.95 51.71 0.081 7.3 12.89 10.42
5/17/2022 3:30:00 AM 10.9 51.62 0.081 7.28 12.67 10.44
5/17/2022 3:45:00 AM 10.87 51.566 0.081 7.27 12.57 10.44
5/17/2022 4:00:00 AM 10.82 51.476 0.081 7.28 12.8 10.46
5/17/2022 4:15:00 AM 10.77 51.386 0.081 7.29 12.66 10.46
5/17/2022 4:30:00 AM 10.72 51.296 0.081 7.31 12.23 10.48
5/17/2022 4:45:00 AM 10.68 51.224 0.081 7.27 11.99 10.48
5/17/2022 5:00:00 AM 10.65 51.17 0.08 7.29 12.51 10.49
5/17/2022 5:15:00 AM 10.61 51.098 0.08 7.3 11.76 10.5
5/17/2022 5:30:00 AM 10.57 51.026 0.08 7.29 12.09 10.51
5/17/2022 5:45:00 AM 10.53 50.954 0.08 7.3 12.03 10.52
5/17/2022 6:00:00 AM 10.5 50.9 0.08 7.3 11.93 10.54
5/17/2022 6:15:00 AM 10.48 50.864 0.08 7.25 11.78 10.55
5/17/2022 6:30:00 AM 10.43 50.774 0.08 7.29 12.5 10.57
5/17/2022 6:45:00 AM 10.42 50.756 0.08 7.29 11.81 10.6
5/17/2022 7:00:00 AM 10.43 50.774 0.079 7.3 12.11 10.63
5/17/2022 7:15:00 AM 10.44 50.792 0.079 7.33 11.64 10.64
5/17/2022 7:30:00 AM 10.42 50.756 0.079 7.33 12.09 10.64
5/17/2022 7:45:00 AM 10.44 50.792 0.079 7.33 11.88 10.66
5/17/2022 8:00:00 AM 10.5 50.9 0.079 7.37 11.82 10.67
5/17/2022 8:15:00 AM 10.52 50.936 0.079 7.36 11.75 10.67
5/17/2022 8:30:00 AM 10.54 50.972 0.079 7.37 11.68 10.67
5/17/2022 8:45:00 AM 10.57 51.026 0.079 7.37 11.85 10.67
5/17/2022 9:00:00 AM 10.67 51.206 0.078 7.39 11.73 10.66
5/17/2022 9:15:00 AM 10.77 51.386 0.078 7.39 11.73 10.65
5/17/2022 9:30:00 AM 10.96 51.728 0.078 7.4 11.76 10.62
5/17/2022 9:45:00 AM 11.06 51.908 0.078 7.4 11.55 10.59
5/17/2022 10:00:00 AM 11.2 52.16 0.078 7.4 12.06 10.56
5/17/2022 10:15:00 AM 11.42 52.556 0.078 7.41 11.81 10.53
5/17/2022 10:30:00 AM 11.45 52.61 0.078 7.4 12.16 10.49
5/17/2022 10:45:00 AM 11.6 52.88 0.078 7.39 11.71 10.47
5/17/2022 11:00:00 AM 11.8 53.24 0.077 7.41 11.9 10.43
5/17/2022 11:15:00 AM 11.9 53.42 0.077 7.41 11.76 10.39
5/17/2022 11:30:00 AM 12.03 53.654 0.077 7.41 12.05 10.35
5/17/2022 11:45:00 AM 12.02 53.636 0.077 7.41 11.7 10.34
5/17/2022 12:00:00 PM 12.25 54.05 0.077 7.41 11.99 10.33
5/17/2022 12:15:00 PM 12.46 54.428 0.077 7.42 11.87 10.28
5/17/2022 12:30:00 PM 12.6 54.68 0.077 7.41 12.06 10.24
5/17/2022 12:45:00 PM 12.72 54.896 0.077 7.42 11.87 10.21
5/17/2022 1:00:00 PM 12.81 55.058 0.077 7.42 11.99 10.19
5/17/2022 1:15:00 PM 12.91 55.238 0.076 7.42 11.89 10.16
5/17/2022 1:30:00 PM 12.98 55.364 0.076 7.42 11.72 10.14
5/17/2022 1:45:00 PM 13 55.4 0.076 7.41 12.05 10.12
5/17/2022 2:00:00 PM 13 55.4 0.076 7.42 12.19 10.12
5/17/2022 2:15:00 PM 13.1 55.58 0.076 7.43 12.24 10.1
5/17/2022 2:30:00 PM 13.23 55.814 0.076 7.43 12.1 10.07
5/17/2022 2:45:00 PM 13.16 55.688 0.076 7.43 12.05 10.05
5/17/2022 3:00:00 PM 13.28 55.904 0.076 7.41 12.26 10.06
5/17/2022 3:15:00 PM 13.23 55.814 0.076 7.41 12.7 10.04
5/17/2022 3:30:00 PM 13.22 55.796 0.076 7.41 12.52 10.06
5/17/2022 3:45:00 PM 13.22 55.796 0.076 7.41 12.46 10.05
5/17/2022 4:00:00 PM 13.21 55.778 0.076 7.41 12.79 10.05
5/17/2022 4:15:00 PM 13.21 55.778 0.076 7.41 12.51 10.06
5/17/2022 4:30:00 PM 13.08 55.544 0.076 7.39 12.86 10.06
5/17/2022 4:45:00 PM 13.02 55.436 0.076 7.4 12.6 10.07
5/17/2022 5:00:00 PM 12.96 55.328 0.076 7.39 12.75 10.08
5/17/2022 5:15:00 PM 12.85 55.13 0.076 7.4 12.55 10.1
5/17/2022 5:30:00 PM 12.77 54.986 0.076 7.44 13.24 10.13
5/17/2022 5:45:00 PM 12.68 54.824 0.076 7.37 12.69 10.15
5/17/2022 6:00:00 PM 12.58 54.644 0.076 7.4 12.68 10.15
5/17/2022 6:15:00 PM 12.5 54.5 0.076 7.38 12.48 10.15
5/17/2022 6:30:00 PM 12.4 54.32 0.076 7.41 12.72 10.16
5/17/2022 6:45:00 PM 12.33 54.194 0.076 7.33 12.92 10.18
5/17/2022 7:00:00 PM 12.24 54.032 0.076 7.38 12.84 10.2
5/17/2022 7:15:00 PM 12.17 53.906 0.076 7.3 12.32 10.21
5/17/2022 7:30:00 PM 12.11 53.798 0.076 7.34 11.93 10.22
5/17/2022 7:45:00 PM 12.05 53.69 0.076 7.36 12.54 10.21
5/17/2022 8:00:00 PM 11.98 53.564 0.076 7.3 12.25 10.21
5/17/2022 8:15:00 PM 11.91 53.438 0.076 7.31 12.32 10.22
5/17/2022 8:30:00 PM 11.83 53.294 0.077 7.31 12.38 10.25
5/17/2022 8:45:00 PM 11.75 53.15 0.076 7.34 14.25 10.26
5/17/2022 9:00:00 PM 11.66 52.988 0.077 7.28 13.24 10.28
5/17/2022 9:15:00 PM 11.59 52.862 0.077 7.3 13.26 10.31
5/17/2022 9:30:00 PM 11.51 52.718 0.077 7.28 13.02 10.33
5/17/2022 9:45:00 PM 11.43 52.574 0.077 7.3 12.9 10.35
5/17/2022 10:00:00 PM 11.35 52.43 0.076 7.3 12.76 10.37
5/17/2022 10:15:00 PM 11.27 52.286 0.077 7.3 12.67 10.39
5/17/2022 10:30:00 PM 11.18 52.124 0.076 7.3 12.88 10.41
5/17/2022 10:45:00 PM 11.1 51.98 0.076 7.32 12.67 10.44
5/17/2022 11:00:00 PM 11.02 51.836 0.076 7.3 12.68 10.46
5/17/2022 11:15:00 PM 10.93 51.674 0.076 7.34 12.9 10.48
5/17/2022 11:30:00 PM 10.85 51.53 0.076 7.31 12.2 10.5
5/17/2022 11:45:00 PM 10.77 51.386 0.076 7.29 12.45 10.52
5/18/2022 12:00:00 AM 10.7 51.26 0.076 7.31 12.34 10.54
5/18/2022 12:15:00 AM 10.62 51.116 0.076 7.28 12.15 10.55
5/18/2022 12:30:00 AM 10.54 50.972 0.076 7.3 12.57 10.58
5/18/2022 12:45:00 AM 10.47 50.846 0.076 7.3 12.38 10.6
5/18/2022 1:00:00 AM 10.39 50.702 0.076 7.28 12.44 10.62
5/18/2022 1:15:00 AM 10.31 50.558 0.076 7.31 12.71 10.64
5/18/2022 1:30:00 AM 10.23 50.414 0.076 7.32 12.16 10.67
5/18/2022 1:45:00 AM 10.16 50.288 0.076 7.31 12.39 10.69
5/18/2022 2:00:00 AM 10.08 50.144 0.076 7.29 12.31 10.7
5/18/2022 2:15:00 AM 10.01 50.018 0.076 7.28 12.5 10.72
5/18/2022 2:30:00 AM 9.94 49.892 0.076 7.3 12.13 10.74
5/18/2022 2:45:00 AM 9.86 49.748 0.076 7.29 12.41 10.76
5/18/2022 3:00:00 AM 9.79 49.622 0.076 7.08 12.02 10.78
5/18/2022 3:15:00 AM 9.71 49.478 0.076 7.14 12.23 10.81
5/18/2022 3:30:00 AM 9.64 49.352 0.076 7.17 12.01 10.84
5/18/2022 3:45:00 AM 9.57 49.226 0.076 7.19 12.03 10.85
5/18/2022 4:00:00 AM 9.49 49.082 0.076 7.19 12.26 10.88
5/18/2022 4:15:00 AM 9.43 48.974 0.076 7.22 12.22 10.89
5/18/2022 4:30:00 AM 9.35 48.83 0.076 7.21 12.15 10.9
5/18/2022 4:45:00 AM 9.28 48.704 0.076 7.2 11.94 10.93
5/18/2022 5:00:00 AM 9.21 48.578 0.076 7.2 12.29 10.94
5/18/2022 5:15:00 AM 9.14 48.452 0.076 7.2 12.27 10.97
5/18/2022 5:30:00 AM 9.07 48.326 0.076 7.21 12.03 10.98
5/18/2022 5:45:00 AM 9 48.2 0.076 7.18 12.37 11.01
5/18/2022 6:00:00 AM 8.94 48.092 0.075 7.2 12.2 11.04
5/18/2022 6:15:00 AM 8.88 47.984 0.075 7.2 12.02 11.07
5/18/2022 6:30:00 AM 8.86 47.948 0.075 7.2 11.19 11.1
5/18/2022 6:45:00 AM 8.84 47.912 0.075 7.25 1126.94 11.11
5/18/2022 7:00:00 AM 8.83 47.894 0.075 7.22 8.89 11.12
5/18/2022 7:15:00 AM 8.81 47.858 0.075 7.24 9.18 11.14
5/18/2022 7:30:00 AM 8.82 47.876 0.075 7.26 9.07 11.15
5/18/2022 7:45:00 AM 8.84 47.912 0.075 7.25 9.19 11.17
5/18/2022 8:00:00 AM 8.86 47.948 0.075 7.27 9.22 11.19
5/18/2022 8:15:00 AM 8.9 48.02 0.075 7.28 8.99 11.19
5/18/2022 8:30:00 AM 8.97 48.146 0.075 7.31 12144.92 11.2
5/18/2022 8:45:00 AM 9.04 48.272 0.075 7.33 10.38 11.2
5/18/2022 9:00:00 AM 9.11 48.398 0.075 7.32 9.18 11.18
5/18/2022 9:15:00 AM 9.22 48.596 0.074 7.34 8.62 11.16
5/18/2022 9:30:00 AM 9.31 48.758 0.074 7.33 8.93 11.13
5/18/2022 9:45:00 AM 9.48 49.064 0.074 7.33 8.86 11.11
5/18/2022 10:00:00 AM 9.69 49.442 0.074 7.33 8.54 11.07
5/18/2022 10:15:00 AM 9.88 49.784 0.074 7.34 9.1 11.01
5/18/2022 10:30:00 AM 10.08 50.144 0.074 7.34 8.67 10.97
5/18/2022 10:45:00 AM 10.26 50.468 0.074 7.34 8.75 10.93
5/18/2022 11:00:00 AM 10.43 50.774 0.074 7.35 8.74 10.88
5/18/2022 11:15:00 AM 10.59 51.062 0.074 7.35 8.8 10.84
5/18/2022 11:30:00 AM 10.73 51.314 0.074 7.35 9.15 10.81
5/18/2022 11:45:00 AM 10.87 51.566 0.074 7.35 9.07 10.77
5/18/2022 12:00:00 PM 11.02 51.836 0.074 7.35 8.74 10.73
5/18/2022 12:15:00 PM 11.19 52.142 0.073 7.36 9.1 10.68
5/18/2022 12:30:00 PM 11.34 52.412 0.073 7.35 9.4 10.64
5/18/2022 12:45:00 PM 11.46 52.628 0.073 7.35 9.47 10.6
5/18/2022 1:00:00 PM 11.55 52.79 0.073 7.36 9.4 10.58
5/18/2022 1:15:00 PM 11.71 53.078 0.073 7.35 9.9 10.53
5/18/2022 1:30:00 PM 11.8 53.24 0.073 7.37 9.65 10.49
5/18/2022 1:45:00 PM 11.83 53.294 0.073 7.37 9.64 10.49
5/18/2022 2:00:00 PM 11.82 53.276 0.073 7.37 9.55 10.47
5/18/2022 2:15:00 PM 11.73 53.114 0.073 7.36 9.83 10.45
5/18/2022 2:30:00 PM 11.76 53.168 0.073 7.38 9.91 10.48
5/18/2022 2:45:00 PM 11.78 53.204 0.073 7.37 9.91 10.46
5/18/2022 3:00:00 PM 11.8 53.24 0.073 7.34 9.99 10.45
5/18/2022 3:15:00 PM 11.76 53.168 0.073 7.37 10.13 10.42
5/18/2022 3:30:00 PM 11.7 53.06 0.073 7.35 10.12 10.42
5/18/2022 3:45:00 PM 11.65 52.97 0.073 7.32 10.16 10.39
5/18/2022 4:00:00 PM 11.59 52.862 0.073 7.3 9.83 10.38
5/18/2022 4:15:00 PM 11.55 52.79 0.074 7.29 10.02 10.38
5/18/2022 4:30:00 PM 11.52 52.736 0.074 7.29 10 10.39
5/18/2022 4:45:00 PM 11.49 52.682 0.074 7.25 10 10.39
5/18/2022 5:00:00 PM 11.46 52.628 0.074 7.27 10.24 10.38
5/18/2022 5:15:00 PM 11.42 52.556 0.074 7.26 10.07 10.39
5/18/2022 5:30:00 PM 11.4 52.52 0.074 7.27 10.17 10.4
5/18/2022 5:45:00 PM 11.37 52.466 0.074 7.23 10.29 10.4
5/18/2022 6:00:00 PM 11.35 52.43 0.074 7.25 10.07 10.4
5/18/2022 6:15:00 PM 11.33 52.394 0.074 7.25 10.12 10.39
5/18/2022 6:30:00 PM 11.3 52.34 0.074 7.25 10.26 10.38
5/18/2022 6:45:00 PM 11.27 52.286 0.074 7.2 10 10.38
5/18/2022 7:00:00 PM 11.24 52.232 0.074 7.23 10.49 10.39
5/18/2022 7:15:00 PM 11.21 52.178 0.074 7.22 10.34 10.39
5/18/2022 7:30:00 PM 11.19 52.142 0.074 7.24 10.46 10.4
5/18/2022 7:45:00 PM 11.17 52.106 0.074 7.23 10.07 10.4
5/18/2022 8:00:00 PM 11.14 52.052 0.074 7.22 10.19 10.4
5/18/2022 8:15:00 PM 11.11 51.998 0.074 7.23 10.56 10.4
5/18/2022 8:30:00 PM 11.08 51.944 0.074 7.22 10.69 10.4
5/18/2022 8:45:00 PM 11.05 51.89 0.074 7.22 10.85 10.41
5/18/2022 9:00:00 PM 11.03 51.854 0.074 7.23 10.69 10.42
5/18/2022 9:15:00 PM 11 51.8 0.074 7.23 11.05 10.42
5/18/2022 9:30:00 PM 10.98 51.764 0.074 7.2 11.39 10.43
5/18/2022 9:45:00 PM 10.95 51.71 0.074 7.23 11.81 10.44
5/18/2022 10:00:00 PM 10.92 51.656 0.074 7.23 11.56 10.45
5/18/2022 10:15:00 PM 10.9 51.62 0.074 7.23 12.29 10.45
5/18/2022 10:30:00 PM 10.87 51.566 0.074 7.24 13.68 10.46
5/18/2022 10:45:00 PM 10.85 51.53 0.074 7.21 14.8 10.47
5/18/2022 11:00:00 PM 10.82 51.476 0.075 7.23 15.31 10.47
5/18/2022 11:15:00 PM 10.79 51.422 0.075 7.22 15.28 10.48
5/18/2022 11:30:00 PM 10.77 51.386 0.075 7.23 15.17 10.48
5/18/2022 11:45:00 PM 10.75 51.35 0.076 7.23 15.09 10.49
5/19/2022 12:00:00 AM 10.72 51.296 0.076 7.24 14.64 10.49
5/19/2022 12:15:00 AM 10.7 51.26 0.076 7.22 13.29 10.49
5/19/2022 12:30:00 AM 10.67 51.206 0.075 7.25 12.94 10.49
5/19/2022 12:45:00 AM 10.65 51.17 0.075 7.24 12.59 10.5
5/19/2022 1:00:00 AM 10.63 51.134 0.075 7.24 12.68 10.51
5/19/2022 1:15:00 AM 10.6 51.08 0.074 7.24 12.25 10.51
5/19/2022 1:30:00 AM 10.58 51.044 0.074 7.23 12.25 10.51
5/19/2022 1:45:00 AM 10.56 51.008 0.074 7.24 10.84 10.52
5/19/2022 2:00:00 AM 10.54 50.972 0.074 7.26 11.14 10.53
5/19/2022 2:15:00 AM 10.53 50.954 0.074 7.23 11.8 10.53
5/19/2022 2:30:00 AM 10.52 50.936 0.074 7.24 11.97 10.53
5/19/2022 2:45:00 AM 10.5 50.9 0.074 7.21 11.21 10.53
5/19/2022 3:00:00 AM 10.49 50.882 0.074 7.21 11.8 10.53
5/19/2022 3:15:00 AM 10.48 50.864 0.074 7.24 11.49 10.54
5/19/2022 3:30:00 AM 10.47 50.846 0.075 7.22 11.77 10.54
5/19/2022 3:45:00 AM 10.46 50.828 0.075 7.22 11.69 10.54
5/19/2022 4:00:00 AM 10.45 50.81 0.075 7.23 11.67 10.53
5/19/2022 4:15:00 AM 10.44 50.792 0.075 7.23 11.65 10.53
5/19/2022 4:30:00 AM 10.44 50.792 0.076 7.22 11.43 10.54
5/19/2022 4:45:00 AM 10.43 50.774 0.076 7.21 11.18 10.54
5/19/2022 5:00:00 AM 10.42 50.756 0.076 7.22 11.22 10.54
5/19/2022 5:15:00 AM 10.42 50.756 0.076 7.23 11.34 10.54
5/19/2022 5:30:00 AM 10.42 50.756 0.076 7.24 11.17 10.54
5/19/2022 5:45:00 AM 10.41 50.738 0.076 7.24 11.15 10.54
5/19/2022 6:00:00 AM 10.41 50.738 0.076 7.21 11.05 10.54
5/19/2022 6:15:00 AM 10.41 50.738 0.076 7.22 11.03 10.54
5/19/2022 6:30:00 AM 10.41 50.738 0.076 7.24 11.08 10.55
5/19/2022 6:45:00 AM 10.42 50.756 0.076 7.22 11.18 10.55
5/19/2022 7:00:00 AM 10.42 50.756 0.075 7.24 10.94 10.55
5/19/2022 7:15:00 AM 10.42 50.756 0.075 7.22 11.07 10.55
5/19/2022 7:30:00 AM 10.43 50.774 0.075 7.25 10.79 10.56
5/19/2022 7:45:00 AM 10.43 50.774 0.075 7.26 11.37 10.56
5/19/2022 8:00:00 AM 10.44 50.792 0.075 7.22 11.08 10.56
5/19/2022 8:15:00 AM 10.46 50.828 0.075 7.23 11.11 10.57
5/19/2022 8:30:00 AM 10.48 50.864 0.075 7.27 11.2 10.58
5/19/2022 8:45:00 AM 10.49 50.882 0.075 7.23 11.13 10.58
5/19/2022 9:00:00 AM 10.5 50.9 0.075 7.27 11.09 10.59
5/19/2022 9:15:00 AM 10.52 50.936 0.074 7.24 11.15 10.59
5/19/2022 9:30:00 AM 10.53 50.954 0.074 7.27 11.04 10.58
5/19/2022 9:45:00 AM 10.56 51.008 0.074 7.28 11.37 10.59
5/19/2022 10:00:00 AM 10.59 51.062 0.074 7.25 11.31 10.6
5/19/2022 10:15:00 AM 10.62 51.116 0.074 7.27 11.74 10.59
5/19/2022 10:30:00 AM 10.69 51.242 0.074 7.3 11.48 10.6
5/19/2022 10:45:00 AM 10.72 51.296 0.074 7.27 11.12 10.58
5/19/2022 11:00:00 AM 10.75 51.35 0.074 7.29 11.55 10.57
5/19/2022 11:15:00 AM 10.79 51.422 0.074 7.28 11.4 10.59
5/19/2022 11:30:00 AM 10.82 51.476 0.074 7.29 11.35 10.57
5/19/2022 11:45:00 AM 10.84 51.512 0.074 7.27 11.49 10.54
5/19/2022 12:00:00 PM 10.84 51.512 0.074 7.26 11.63 10.52
5/19/2022 12:15:00 PM 10.88 51.584 0.074 7.28 11.42 10.55
5/19/2022 12:30:00 PM 10.98 51.764 0.073 7.27 11.57 10.56
5/19/2022 12:45:00 PM 11.19 52.142 0.073 7.33 11.37 10.54
5/19/2022 1:00:00 PM 11.4 52.52 0.073 7.32 11.23 10.5
5/19/2022 1:15:00 PM 11.47 52.646 0.073 7.34 11.41 10.47
5/19/2022 1:30:00 PM 11.46 52.628 0.073 7.3 11.5 10.42
5/19/2022 1:45:00 PM 11.68 53.024 0.073 7.33 11.55 10.41
5/19/2022 2:00:00 PM 11.63 52.934 0.073 7.31 11.7 10.35
5/19/2022 2:15:00 PM 11.63 52.934 0.073 7.32 11.63 10.35
5/19/2022 2:30:00 PM 11.98 53.564 0.073 7.35 11.77 10.34
5/19/2022 2:45:00 PM 11.99 53.582 0.073 7.34 11.96 10.27
5/19/2022 3:00:00 PM 12.04 53.672 0.073 7.32 11.54 10.28
5/19/2022 3:15:00 PM 12.23 54.014 0.073 7.32 11.85 10.27
5/19/2022 3:30:00 PM 12.39 54.302 0.073 7.33 11.87 10.21
5/19/2022 3:45:00 PM 12.47 54.446 0.073 7.35 12 10.19
5/19/2022 4:00:00 PM 12.52 54.536 0.073 7.34 11.83 10.17
5/19/2022 4:15:00 PM 12.47 54.446 0.073 7.34 11.93 10.16
5/19/2022 4:30:00 PM 12.48 54.464 0.073 7.31 12.04 10.16
5/19/2022 4:45:00 PM 12.48 54.464 0.073 7.31 12.21 10.15
5/19/2022 5:00:00 PM 12.47 54.446 0.073 7.29 12.06 10.15
5/19/2022 5:15:00 PM 12.44 54.392 0.073 7.33 12.46 10.15
5/19/2022 5:30:00 PM 12.4 54.32 0.073 7.28 12.06 10.15
5/19/2022 5:45:00 PM 12.35 54.23 0.073 7.3 11.96 10.15
5/19/2022 6:00:00 PM 12.31 54.158 0.073 7.3 12.06 10.15
5/19/2022 6:15:00 PM 12.27 54.086 0.073 7.28 12.28 10.15
5/19/2022 6:30:00 PM 12.24 54.032 0.073 7.29 12.31 10.15
5/19/2022 6:45:00 PM 12.2 53.96 0.073 7.28 12.78 10.15
5/19/2022 7:00:00 PM 12.17 53.906 0.073 7.28 12.38 10.15
5/19/2022 7:15:00 PM 12.13 53.834 0.073 7.26 12.4 10.15
5/19/2022 7:30:00 PM 12.08 53.744 0.073 7.25 12.83 10.16
5/19/2022 7:45:00 PM 12.04 53.672 0.073 7.24 12.78 10.17
5/19/2022 8:00:00 PM 12 53.6 0.073 7.22 12.74 10.17
5/19/2022 8:15:00 PM 11.96 53.528 0.073 7.2 13.01 10.17
5/19/2022 8:30:00 PM 11.91 53.438 0.073 7.24 12.82 10.18
5/19/2022 8:45:00 PM 11.86 53.348 0.073 7.24 12.93 10.18
5/19/2022 9:00:00 PM 11.81 53.258 0.073 7.23 13.61 10.2
5/19/2022 9:15:00 PM 11.76 53.168 0.073 7.23 13.05 10.21
5/19/2022 9:30:00 PM 11.73 53.114 0.074 7.24 13.15 10.23
5/19/2022 9:45:00 PM 11.7 53.06 0.074 7.23 13.81 10.24
5/19/2022 10:00:00 PM 11.66 52.988 0.074 7.24 13.17 10.25
5/19/2022 10:15:00 PM 11.63 52.934 0.074 7.2 13.29 10.27
5/19/2022 10:30:00 PM 11.59 52.862 0.074 7.22 13.51 10.27
5/19/2022 10:45:00 PM 11.55 52.79 0.074 7.2 13.04 10.28
5/19/2022 11:00:00 PM 11.5 52.7 0.074 7.19 13.89 10.29
5/19/2022 11:15:00 PM 11.46 52.628 0.074 7.23 12.57 10.3
5/19/2022 11:30:00 PM 11.42 52.556 0.074 7.19 12.82 10.31
5/19/2022 11:45:00 PM 11.38 52.484 0.074 7.19 13.06 10.31
5/20/2022 12:00:00 AM 11.35 52.43 0.074 7.23 13.03 10.32
5/20/2022 12:15:00 AM 11.32 52.376 0.074 7.2 13.11 10.34
5/20/2022 12:30:00 AM 11.28 52.304 0.074 7.17 13.17 10.34
5/20/2022 12:45:00 AM 11.23 52.214 0.074 7.2 13.21 10.36
5/20/2022 1:00:00 AM 11.19 52.142 0.074 7.22 13.3 10.37
5/20/2022 1:15:00 AM 11.14 52.052 0.074 7.22 13.41 10.38
5/20/2022 1:30:00 AM 11.1 51.98 0.074 7.17 13.15 10.39
5/20/2022 1:45:00 AM 11.06 51.908 0.074 7.2 13.69 10.4
5/20/2022 2:00:00 AM 11.02 51.836 0.074 7.21 13.64 10.41
5/20/2022 2:15:00 AM 10.97 51.746 0.074 7.21 13.42 10.42
5/20/2022 2:30:00 AM 10.93 51.674 0.074 7.19 13.16 10.43
5/20/2022 2:45:00 AM 10.89 51.602 0.074 7.22 13.32 10.44
5/20/2022 3:00:00 AM 10.84 51.512 0.074 7.21 13.77 10.45
5/20/2022 3:15:00 AM 10.8 51.44 0.074 7.24 13.36 10.47
5/20/2022 3:30:00 AM 10.76 51.368 0.074 7.19 13.04 10.48
5/20/2022 3:45:00 AM 10.72 51.296 0.074 7.18 13.5 10.48
5/20/2022 4:00:00 AM 10.68 51.224 0.074 7.22 13.42 10.49
5/20/2022 4:15:00 AM 10.64 51.152 0.074 7.23 13.73 10.5
5/20/2022 4:30:00 AM 10.6 51.08 0.074 7.23 12.7 10.51
5/20/2022 4:45:00 AM 10.56 51.008 0.074 7.26 12.51 10.52
5/20/2022 5:00:00 AM 10.52 50.936 0.074 7.21 12.13 10.54
5/20/2022 5:15:00 AM 10.48 50.864 0.074 7.24 56.15 10.54
5/20/2022 5:30:00 AM 10.44 50.792 0.074 7.24 1072.34 10.56
5/20/2022 5:45:00 AM 10.41 50.738 0.074 7.25 12.07 10.57
5/20/2022 6:00:00 AM 10.38 50.684 0.074 7.25 11.79 10.59
5/20/2022 6:15:00 AM 10.36 50.648 0.074 7.25 11.73 10.62
5/20/2022 6:30:00 AM 10.34 50.612 0.074 7.23 3302.11 10.64
5/20/2022 6:45:00 AM 10.34 50.612 0.074 7.3 93.99 10.65
5/20/2022 7:00:00 AM 10.35 50.63 0.073 7.26 47.72 10.64
5/20/2022 7:15:00 AM 10.35 50.63 0.073 7.28 9.72 10.64
5/20/2022 7:30:00 AM 10.37 50.666 0.073 7.29 9.51 10.67
5/20/2022 7:45:00 AM 10.4 50.72 0.073 7.3 9.27 10.69
5/20/2022 8:00:00 AM 10.45 50.81 0.073 7.29 142.32 10.69
5/20/2022 8:15:00 AM 10.51 50.918 0.073 7.32 15.6 10.69
5/20/2022 8:30:00 AM 10.54 50.972 0.073 7.3 9.12 10.66
5/20/2022 8:45:00 AM 10.61 51.098 0.073 7.3 9.44 10.69
5/20/2022 9:00:00 AM 10.68 51.224 0.073 7.34 9.32 10.68
5/20/2022 9:15:00 AM 10.82 51.476 0.073 7.32 8.87 10.68
5/20/2022 9:30:00 AM 10.96 51.728 0.073 7.35 9.09 10.66
5/20/2022 9:45:00 AM 11.12 52.016 0.073 7.36 9.38 10.62
5/20/2022 10:00:00 AM 11.19 52.142 0.073 7.36 9.6 10.57
5/20/2022 10:15:00 AM 11.28 52.304 0.073 7.36 9.6 10.56
5/20/2022 10:30:00 AM 11.33 52.394 0.073 7.33 9.01 10.54
5/20/2022 10:45:00 AM 11.37 52.466 0.073 7.37 9.18 10.52
5/20/2022 11:00:00 AM 11.45 52.61 0.073 7.33 9.44 10.52
5/20/2022 11:15:00 AM 11.64 52.952 0.072 7.39 9.26 10.48
5/20/2022 11:30:00 AM 11.66 52.988 0.073 7.35 9.5 10.45
5/20/2022 11:45:00 AM 11.8 53.24 0.072 7.39 9.1 10.45
5/20/2022 12:00:00 PM 12.04 53.672 0.072 7.4 9.41 10.41
5/20/2022 12:15:00 PM 12.38 54.284 0.072 7.42 9.08 10.34
5/20/2022 12:30:00 PM 12.53 54.554 0.072 7.36 9.77 10.27
5/20/2022 12:45:00 PM 12.84 55.112 0.072 7.33 9.42 10.23
5/20/2022 1:00:00 PM 12.89 55.202 0.072 7.41 9.27 10.19
5/20/2022 1:15:00 PM 12.76 54.968 0.072 7.38 11.02 10.09
5/20/2022 1:30:00 PM 12.75 54.95 0.072 7.38 10.25 10.16
5/20/2022 1:45:00 PM 12.96 55.328 0.072 7.4 10.78 10.16
5/20/2022 2:00:00 PM 13.3 55.94 0.072 7.39 10.08 10.06
5/20/2022 2:15:00 PM 13.55 56.39 0.072 7.41 9.95 10.02
5/20/2022 2:30:00 PM 13.45 56.21 0.072 7.4 10.14 10
5/20/2022 2:45:00 PM 13.4 56.12 0.073 7.37 9.96 9.99
5/20/2022 3:00:00 PM 13.52 56.336 0.073 7.37 9.87 10
5/20/2022 3:15:00 PM 13.6 56.48 0.072 7.38 10.13 9.97
5/20/2022 3:30:00 PM 13.68 56.624 0.073 7.35 9.69 9.91
5/20/2022 3:45:00 PM 13.66 56.588 0.073 7.38 9.43 9.92
5/20/2022 4:00:00 PM 13.65 56.57 0.073 7.34 9.11 9.89
5/20/2022 4:15:00 PM 13.65 56.57 0.072 7.37 9.24 9.88
5/20/2022 4:30:00 PM 13.63 56.534 0.073 7.36 9.53 9.89
5/20/2022 4:45:00 PM 13.66 56.588 0.073 7.35 9.34 9.89
5/20/2022 5:00:00 PM 13.66 56.588 0.073 7.35 9.35 9.87
5/20/2022 5:15:00 PM 13.62 56.516 0.073 7.29 9.58 9.85
5/20/2022 5:30:00 PM 13.6 56.48 0.073 7.34 9.37 9.86
5/20/2022 5:45:00 PM 13.61 56.498 0.073 7.33 9.45 9.88
5/20/2022 6:00:00 PM 13.59 56.462 0.073 7.3 9.35 9.86
5/20/2022 6:15:00 PM 13.59 56.462 0.073 7.28 9.69 9.84
5/20/2022 6:30:00 PM 13.56 56.408 0.073 7.27 9.49 9.82
5/20/2022 6:45:00 PM 13.54 56.372 0.073 7.28 9.43 9.84
5/20/2022 7:00:00 PM 13.52 56.336 0.074 7.25 9.69 9.85
5/20/2022 7:15:00 PM 13.51 56.318 0.074 7.24 9.97 9.85
5/20/2022 7:30:00 PM 13.51 56.318 0.074 7.26 9.15 9.85
5/20/2022 7:45:00 PM 13.47 56.246 0.074 7.23 10 9.84
5/20/2022 8:00:00 PM 13.43 56.174 0.074 7.22 9.48 9.84
5/20/2022 8:15:00 PM 13.39 56.102 0.074 7.22 9.89 9.84
5/20/2022 8:30:00 PM 13.35 56.03 0.074 7.19 9.89 9.84
5/20/2022 8:45:00 PM 13.32 55.976 0.074 7.22 10.09 9.84
5/20/2022 9:00:00 PM 13.29 55.922 0.074 7.21 10.4 9.84
5/20/2022 9:15:00 PM 13.26 55.868 0.075 7.2 10.6 9.85
5/20/2022 9:30:00 PM 13.24 55.832 0.075 7.21 10.61 9.86
5/20/2022 9:45:00 PM 13.21 55.778 0.075 7.21 10.89 9.86
5/20/2022 10:00:00 PM 13.18 55.724 0.075 7.15 10.31 9.88
5/20/2022 10:15:00 PM 13.15 55.67 0.075 7.2 10.29 9.89
5/20/2022 10:30:00 PM 13.11 55.598 0.075 7.2 9.94 9.9
5/20/2022 10:45:00 PM 13.08 55.544 0.075 7.2 9.99 9.91
5/20/2022 11:00:00 PM 13.06 55.508 0.075 7.2 10.55 9.92
5/20/2022 11:15:00 PM 13.03 55.454 0.075 7.19 10.27 9.93
5/20/2022 11:30:00 PM 13.01 55.418 0.075 7.19 10.39 9.93
5/20/2022 11:45:00 PM 12.99 55.382 0.075 7.18 10.36 9.93
5/21/2022 12:00:00 AM 12.98 55.364 0.075 7.19 11.47 9.93
5/21/2022 12:15:00 AM 12.97 55.346 0.075 7.17 9.9 9.94
5/21/2022 12:30:00 AM 12.96 55.328 0.075 7.16 10.32 9.95
5/21/2022 12:45:00 AM 12.95 55.31 0.075 7.12 10.4 9.95
5/21/2022 1:00:00 AM 12.94 55.292 0.075 7.17 10.14 9.96
5/21/2022 1:15:00 AM 12.93 55.274 0.075 7.17 10.48 9.96
5/21/2022 1:30:00 AM 12.91 55.238 0.075 7.16 10.05 9.97
5/21/2022 1:45:00 AM 12.89 55.202 0.075 7.15 10.35 9.97
5/21/2022 2:00:00 AM 12.87 55.166 0.075 7.16 10.37 9.98
5/21/2022 2:15:00 AM 12.85 55.13 0.075 7.15 10.67 9.98
5/21/2022 2:30:00 AM 12.84 55.112 0.075 7.14 9.97 9.99
5/21/2022 2:45:00 AM 12.82 55.076 0.075 7.16 10.09 9.99
5/21/2022 3:00:00 AM 12.79 55.022 0.075 7.15 10.44 10
5/21/2022 3:15:00 AM 12.77 54.986 0.075 7.11 10.34 10.01
5/21/2022 3:30:00 AM 12.74 54.932 0.075 7.15 10.12 10.01
5/21/2022 3:45:00 AM 12.71 54.878 0.075 7.14 10.14 10.01
5/21/2022 4:00:00 AM 12.68 54.824 0.075 7.09 9.94 10.02
5/21/2022 4:15:00 AM 12.65 54.77 0.075 7.12 10.21 10.02
5/21/2022 4:30:00 AM 12.63 54.734 0.075 7.13 10.08 10.03
5/21/2022 4:45:00 AM 12.6 54.68 0.075 7.14 10.14 10.03
5/21/2022 5:00:00 AM 12.58 54.644 0.075 7.13 10.28 10.04
5/21/2022 5:15:00 AM 12.55 54.59 0.075 7.08 10.56 10.05
5/21/2022 5:30:00 AM 12.52 54.536 0.075 7.12 10.63 10.06
5/21/2022 5:45:00 AM 12.49 54.482 0.075 7.14 10.97 10.07
5/21/2022 6:00:00 AM 12.47 54.446 0.075 7.09 10.77 10.09
5/21/2022 6:15:00 AM 12.44 54.392 0.075 7.13 11.05 10.11
5/21/2022 6:30:00 AM 12.43 54.374 0.075 7.13 10.52 10.13
5/21/2022 6:45:00 AM 12.42 54.356 0.075 7.15 10.8 10.14
5/21/2022 7:00:00 AM 12.42 54.356 0.075 7.15 10.66 10.16
5/21/2022 7:15:00 AM 12.43 54.374 0.075 7.12 11.47 10.18
5/21/2022 7:30:00 AM 12.44 54.392 0.075 7.08 10.79 10.19
5/21/2022 7:45:00 AM 12.47 54.446 0.075 7.13 10.67 10.2
5/21/2022 8:00:00 AM 12.52 54.536 0.075 7.22 11 10.2
5/21/2022 8:15:00 AM 12.57 54.626 0.075 7.18 10.85 10.21
5/21/2022 8:30:00 AM 12.64 54.752 0.075 7.25 10.36 10.21
5/21/2022 8:45:00 AM 12.71 54.878 0.075 7.25 11.05 10.21
5/21/2022 9:00:00 AM 12.8 55.04 0.075 7.2 13.29 10.21
5/21/2022 9:15:00 AM 12.89 55.202 0.074 7.21 10.95 10.2
5/21/2022 9:30:00 AM 13.04 55.472 0.074 7.28 11.18 10.18
5/21/2022 9:45:00 AM 13.2 55.76 0.074 7.31 11.37 10.15
5/21/2022 10:00:00 AM 13.38 56.084 0.074 7.32 11.52 10.12
5/21/2022 10:15:00 AM 13.54 56.372 0.074 7.33 11.36 10.08
5/21/2022 10:30:00 AM 13.79 56.822 0.074 7.32 11.16 10.03
5/21/2022 10:45:00 AM 14.03 57.254 0.074 7.36 11.4 9.99
5/21/2022 11:00:00 AM 14.28 57.704 0.074 7.34 11.49 9.94
5/21/2022 11:15:00 AM 14.47 58.046 0.074 7.37 11.09 9.9
5/21/2022 11:30:00 AM 14.67 58.406 0.074 7.32 10.95 9.85
5/21/2022 11:45:00 AM 14.84 58.712 0.074 7.38 10.99 9.83
5/21/2022 12:00:00 PM 15.02 59.036 0.073 7.35 11.19 9.78
5/21/2022 12:15:00 PM 15.15 59.27 0.073 7.36 11.39 9.73
5/21/2022 12:30:00 PM 15.31 59.558 0.073 7.38 11.05 9.71
5/21/2022 12:45:00 PM 15.48 59.864 0.073 7.36 10.95 9.67
5/21/2022 1:00:00 PM 15.55 59.99 0.073 7.31 11.37 9.64
5/21/2022 1:15:00 PM 15.62 60.116 0.073 7.38 11.45 9.62
5/21/2022 1:30:00 PM 15.66 60.188 0.073 7.39 24.31 9.58
5/21/2022 1:45:00 PM 15.83 60.494 0.073 7.34 11.31 9.57
5/21/2022 2:00:00 PM 15.98 60.764 0.073 7.38 11.09 9.54
5/21/2022 2:15:00 PM 16.06 60.908 0.073 7.37 11.45 9.52
5/21/2022 2:30:00 PM 15.98 60.764 0.073 7.36 11.32 9.48
5/21/2022 2:45:00 PM 15.98 60.764 0.073 7.35 11.45 9.48
5/21/2022 3:00:00 PM 15.99 60.782 0.073 7.36 11.69 9.49
5/21/2022 3:15:00 PM 15.99 60.782 0.073 7.35 11.77 9.47
5/21/2022 3:30:00 PM 16.02 60.836 0.073 7.34 11.9 9.47
5/21/2022 3:45:00 PM 16.1 60.98 0.073 7.34 11.81 9.47
5/21/2022 4:00:00 PM 16.15 61.07 0.073 7.34 12.02 9.44
5/21/2022 4:15:00 PM 16.24 61.232 0.073 7.35 11.69 9.44
5/21/2022 4:30:00 PM 16.24 61.232 0.073 7.34 11.89 9.41
5/21/2022 4:45:00 PM 16.21 61.178 0.073 7.3 12.35 9.4
5/21/2022 5:00:00 PM 16.16 61.088 0.074 7.27 12.14 9.38
5/21/2022 5:15:00 PM 16.12 61.016 0.074 7.29 11.85 9.39
5/21/2022 5:30:00 PM 16.1 60.98 0.074 7.29 12.14 9.38
5/21/2022 5:45:00 PM 16.08 60.944 0.074 7.29 11.83 9.37
5/21/2022 6:00:00 PM 16.05 60.89 0.074 7.25 12.25 9.35
5/21/2022 6:15:00 PM 16.01 60.818 0.074 7.26 11.88 9.35
5/21/2022 6:30:00 PM 15.97 60.746 0.074 7.22 11.95 9.34
5/21/2022 6:45:00 PM 15.93 60.674 0.074 7.24 12.34 9.34
5/21/2022 7:00:00 PM 15.89 60.602 0.074 7.24 11.98 9.35
5/21/2022 7:15:00 PM 15.85 60.53 0.074 7.23 11.96 9.34
5/21/2022 7:30:00 PM 15.81 60.458 0.075 7.22 11.62 9.33
5/21/2022 7:45:00 PM 15.76 60.368 0.075 7.21 11.51 9.34
5/21/2022 8:00:00 PM 15.71 60.278 0.075 7.14 12.28 9.35
5/21/2022 8:15:00 PM 15.67 60.206 0.075 7.21 13.68 9.36
5/21/2022 8:30:00 PM 15.62 60.116 0.075 7.2 11.71 9.36
5/21/2022 8:45:00 PM 15.58 60.044 0.075 7.19 10.8 9.37
5/21/2022 9:00:00 PM 15.53 59.954 0.075 7.12 11.45 9.38
5/21/2022 9:15:00 PM 15.48 59.864 0.075 7.19 11.97 9.39
5/21/2022 9:30:00 PM 15.43 59.774 0.075 7.18 11.18 9.41
5/21/2022 9:45:00 PM 15.37 59.666 0.075 7.19 11.25 9.42
5/21/2022 10:00:00 PM 15.31 59.558 0.076 7.2 11.72 9.43
5/21/2022 10:15:00 PM 15.26 59.468 0.076 7.19 11.43 9.44
5/21/2022 10:30:00 PM 15.21 59.378 0.076 7.19 11.47 9.46
5/21/2022 10:45:00 PM 15.16 59.288 0.076 7.18 12.79 9.47
5/21/2022 11:00:00 PM 15.12 59.216 0.076 7.18 12 9.48
5/21/2022 11:15:00 PM 15.09 59.162 0.076 7.18 11.15 9.49
5/21/2022 11:30:00 PM 15.06 59.108 0.076 7.19 11.93 9.5
5/21/2022 11:45:00 PM 15.01 59.018 0.076 7.18 11.34 9.51
5/22/2022 12:00:00 AM 14.98 58.964 0.076 7.17 10.99 9.53
5/22/2022 12:15:00 AM 14.94 58.892 0.076 7.17 11.05 9.54
5/22/2022 12:30:00 AM 14.89 58.802 0.076 7.18 11.17 9.55
5/22/2022 12:45:00 AM 14.85 58.73 0.076 7.18 11.41 9.56
5/22/2022 1:00:00 AM 14.8 58.64 0.077 7.18 11.09 9.57
5/22/2022 1:15:00 AM 14.75 58.55 0.077 7.19 11.44 9.57
5/22/2022 1:30:00 AM 14.7 58.46 0.076 7.19 11.4 9.58
5/22/2022 1:45:00 AM 14.66 58.388 0.076 7.19 11.75 9.59
5/22/2022 2:00:00 AM 14.62 58.316 0.08 7.18 11.57 9.59
5/22/2022 2:15:00 AM 14.59 58.262 0.077 7.19 11.74 9.6
5/22/2022 2:30:00 AM 14.55 58.19 0.076 7.14 11.62 9.61
5/22/2022 2:45:00 AM 14.51 58.118 0.076 7.18 11.15 9.62
5/22/2022 3:00:00 AM 14.47 58.046 0.076 7.14 11.8 9.64
5/22/2022 3:15:00 AM 14.42 57.956 0.076 7.19 11.45 9.64
5/22/2022 3:30:00 AM 14.36 57.848 0.076 7.19 11.72 9.65
5/22/2022 3:45:00 AM 14.31 57.758 0.076 7.13 11.27 9.66
5/22/2022 4:00:00 AM 14.26 57.668 0.076 7.19 11.51 9.68
5/22/2022 4:15:00 AM 14.21 57.578 0.076 7.18 11.26 9.69
5/22/2022 4:30:00 AM 14.16 57.488 0.076 7.2 11.7 9.7
5/22/2022 4:45:00 AM 14.11 57.398 0.076 7.21 11.77 9.71
5/22/2022 5:00:00 AM 14.06 57.308 0.076 7.2 11.74 9.72
5/22/2022 5:15:00 AM 14.01 57.218 0.076 7.2 12.65 9.73
5/22/2022 5:30:00 AM 13.97 57.146 0.076 7.21 12.22 9.74
5/22/2022 5:45:00 AM 13.92 57.056 0.076 7.21 12.11 9.75
5/22/2022 6:00:00 AM 13.87 56.966 0.076 7.2 12.4 9.77
5/22/2022 6:15:00 AM 13.83 56.894 0.076 7.21 12.39 9.79
5/22/2022 6:30:00 AM 13.8 56.84 0.076 7.22 1762.84 9.81
5/22/2022 6:45:00 AM 13.76 56.768 0.076 7.23 16.74 9.83
5/22/2022 7:00:00 AM 13.75 56.75 0.076 7.24 12.25 9.86
5/22/2022 7:15:00 AM 13.75 56.75 0.075 7.15 12.18 9.87
5/22/2022 7:30:00 AM 13.73 56.714 0.075 7.17 12.4 9.88
5/22/2022 7:45:00 AM 13.74 56.732 0.075 7.23 12.17 9.9
5/22/2022 8:00:00 AM 13.76 56.768 0.075 7.24 12.76 9.93
5/22/2022 8:15:00 AM 13.8 56.84 0.075 7.25 12.13 9.94
5/22/2022 8:30:00 AM 13.81 56.858 0.075 7.25 12.46 9.94
5/22/2022 8:45:00 AM 13.82 56.876 0.075 7.25 12.44 9.93
5/22/2022 9:00:00 AM 13.82 56.876 0.075 7.23 12.33 9.93
5/22/2022 9:15:00 AM 13.81 56.858 0.075 7.22 12.37 9.9
5/22/2022 9:30:00 AM 13.81 56.858 0.075 7.22 12.45 9.92
5/22/2022 9:45:00 AM 13.83 56.894 0.075 7.23 12.37 9.92
5/22/2022 10:00:00 AM 13.97 57.146 0.075 7.23 12.46 9.94
5/22/2022 10:15:00 AM 14.05 57.29 0.075 7.28 12.06 9.95
5/22/2022 10:30:00 AM 14.07 57.326 0.075 7.28 12.36 9.91
5/22/2022 10:45:00 AM 14.1 57.38 0.075 7.29 23.28 9.91
5/22/2022 11:00:00 AM 14.15 57.47 0.075 7.3 11.63 9.92
5/22/2022 11:15:00 AM 14.4 57.92 0.075 7.33 11.91 9.91
5/22/2022 11:30:00 AM 14.78 58.604 0.075 7.32 14.92 9.86
5/22/2022 11:45:00 AM 14.8 58.64 0.075 7.36 12.03 9.82
5/22/2022 12:00:00 PM 14.8 58.64 0.075 7.35 12 9.8
5/22/2022 12:15:00 PM 14.83 58.694 0.074 7.36 12.33 9.81
5/22/2022 12:30:00 PM 15.18 59.324 0.074 7.36 12.55 9.75
5/22/2022 12:45:00 PM 15.42 59.756 0.074 7.37 12.23 9.7
5/22/2022 1:00:00 PM 15.51 59.918 0.074 7.38 12.36 9.65
5/22/2022 1:15:00 PM 15.38 59.684 0.074 7.3 11.55 9.59
5/22/2022 1:30:00 PM 15.5 59.9 0.074 7.36 11.88 9.65
5/22/2022 1:45:00 PM 15.72 60.296 0.074 7.37 12.11 9.6
5/22/2022 2:00:00 PM 15.66 60.188 0.074 7.35 11.79 9.57
5/22/2022 2:15:00 PM 15.88 60.584 0.074 7.37 12.06 9.55
5/22/2022 2:30:00 PM 16.05 60.89 0.074 7.37 11.47 9.51
5/22/2022 2:45:00 PM 16.19 61.142 0.074 7.37 12.07 9.49
5/22/2022 3:00:00 PM 16.26 61.268 0.074 7.37 11.36 9.45
5/22/2022 3:15:00 PM 16.34 61.412 0.074 7.36 11.98 9.42
5/22/2022 3:30:00 PM 16.37 61.466 0.074 7.36 11.99 9.4
5/22/2022 3:45:00 PM 16.29 61.322 0.074 7.35 12.3 9.38
5/22/2022 4:00:00 PM 16.23 61.214 0.074 7.34 12.09 9.42
5/22/2022 4:15:00 PM 16.17 61.106 0.074 7.35 12.2 9.4
5/22/2022 4:30:00 PM 16.11 60.998 0.074 7.33 11.84 9.4
5/22/2022 4:45:00 PM 16.02 60.836 0.075 7.26 12.6 9.34
5/22/2022 5:00:00 PM 15.95 60.71 0.075 7.3 12.47 9.36
5/22/2022 5:15:00 PM 15.95 60.71 0.074 7.3 12.38 9.45
5/22/2022 5:30:00 PM 15.9 60.62 0.075 7.31 12.18 9.43
5/22/2022 5:45:00 PM 15.86 60.548 0.075 7.32 12.58 9.46
5/22/2022 6:00:00 PM 15.78 60.404 0.075 7.31 12.35 9.44
5/22/2022 6:15:00 PM 15.7 60.26 0.075 7.3 12.28 9.48
5/22/2022 6:30:00 PM 15.63 60.134 0.075 7.3 12.62 9.48
5/22/2022 6:45:00 PM 15.54 59.972 0.075 7.29 12.68 9.48
5/22/2022 7:00:00 PM 15.48 59.864 0.075 7.28 12.68 9.49
5/22/2022 7:15:00 PM 15.39 59.702 0.075 7.28 12.71 9.48
5/22/2022 7:30:00 PM 15.3 59.54 0.075 7.26 12.8 9.48
5/22/2022 7:45:00 PM 15.21 59.378 0.075 7.27 13 9.5
5/22/2022 8:00:00 PM 15.13 59.234 0.075 7.25 13.32 9.52
5/22/2022 8:15:00 PM 15.04 59.072 0.075 7.2 13.19 9.54
5/22/2022 8:30:00 PM 14.95 58.91 0.075 7.26 13.3 9.56
5/22/2022 8:45:00 PM 14.86 58.748 0.075 7.24 13.55 9.58
5/22/2022 9:00:00 PM 14.78 58.604 0.075 7.24 13.94 9.59
5/22/2022 9:15:00 PM 14.68 58.424 0.075 7.26 13.53 9.62
5/22/2022 9:30:00 PM 14.59 58.262 0.075 7.26 13.96 9.63
5/22/2022 9:45:00 PM 14.5 58.1 0.075 7.26 14.21 9.66
5/22/2022 10:00:00 PM 14.41 57.938 0.076 7.27 13.84 9.68
5/22/2022 10:15:00 PM 14.3 57.74 0.076 7.25 13.99 9.71
5/22/2022 10:30:00 PM 14.18 57.524 0.076 7.25 13.96 9.74
5/22/2022 10:45:00 PM 14.08 57.344 0.076 7.26 13.87 9.77
5/22/2022 11:00:00 PM 13.97 57.146 0.076 7.25 13.86 9.78
5/22/2022 11:15:00 PM 13.87 56.966 0.075 7.24 13.95 9.8
5/22/2022 11:30:00 PM 13.79 56.822 0.076 7.26 14.38 9.83
5/22/2022 11:45:00 PM 13.7 56.66 0.076 7.26 14.25 9.85
5/23/2022 12:00:00 AM 13.6 56.48 0.076 7.24 14.24 9.88
5/23/2022 12:15:00 AM 13.5 56.3 0.076 7.25 14.1 9.91
5/23/2022 12:30:00 AM 13.41 56.138 0.076 7.28 14.48 9.93
5/23/2022 12:45:00 AM 13.31 55.958 0.076 7.27 14.5 9.94
5/23/2022 1:00:00 AM 13.22 55.796 0.076 7.25 14.74 9.97
5/23/2022 1:15:00 AM 13.12 55.616 0.075 7.25 14.73 9.99
5/23/2022 1:30:00 AM 13.04 55.472 0.075 7.23 14.79 10.01
5/23/2022 1:45:00 AM 12.97 55.346 0.076 7.25 14.87 10.04
5/23/2022 2:00:00 AM 12.91 55.238 0.076 7.25 14.88 10.05
5/23/2022 2:15:00 AM 12.85 55.13 0.076 7.25 14.65 10.07
5/23/2022 2:30:00 AM 12.8 55.04 0.076 7.23 15.03 10.09
5/23/2022 2:45:00 AM 12.75 54.95 0.076 7.26 14.77 10.09
5/23/2022 3:00:00 AM 12.69 54.842 0.076 7.19 14.63 10.1
5/23/2022 3:15:00 AM 12.64 54.752 0.075 7.17 14.76 10.11
5/23/2022 3:30:00 AM 12.59 54.662 0.075 7.24 14.75 10.12
5/23/2022 3:45:00 AM 12.54 54.572 0.075 7.2 14.54 10.14
5/23/2022 4:00:00 AM 12.48 54.464 0.075 7.18 14.94 10.15
5/23/2022 4:15:00 AM 12.43 54.374 0.075 7.24 15.13 10.17
5/23/2022 4:30:00 AM 12.39 54.302 0.076 7.24 15.17 10.17
5/23/2022 4:45:00 AM 12.35 54.23 0.076 7.24 15.22 10.19
5/23/2022 5:00:00 AM 12.31 54.158 0.075 7.25 15.06 10.2
5/23/2022 5:15:00 AM 12.27 54.086 0.075 7.23 14.68 10.21
5/23/2022 5:30:00 AM 12.21 53.978 0.075 7.25 15.24 10.22
5/23/2022 5:45:00 AM 12.15 53.87 0.075 7.25 15.49 10.25
5/23/2022 6:00:00 AM 12.08 53.744 0.075 7.25 15.27 10.26
5/23/2022 6:15:00 AM 12.01 53.618 0.075 7.26 15.07 10.28
5/23/2022 6:30:00 AM 11.96 53.528 0.075 7.27 15.43 10.29
5/23/2022 6:45:00 AM 11.92 53.456 0.075 7.27 15.35 10.34
5/23/2022 7:00:00 AM 11.9 53.42 0.075 7.28 15.83 10.36
5/23/2022 7:15:00 AM 11.88 53.384 0.075 7.27 15.77 10.38
5/23/2022 7:30:00 AM 11.88 53.384 0.075 7.3 16.09 10.41
5/23/2022 7:45:00 AM 11.86 53.348 0.075 7.3 15.76 10.45
5/23/2022 8:00:00 AM 11.83 53.294 0.075 7.32 16.08 10.44
5/23/2022 8:15:00 AM 11.85 53.33 0.075 7.32 15.92 10.45
5/23/2022 8:30:00 AM 11.89 53.402 0.075 7.28 16.19 10.46
5/23/2022 8:45:00 AM 11.91 53.438 0.075 7.34 15.92 10.46
5/23/2022 9:00:00 AM 11.98 53.564 0.075 7.34 16.1 10.46
5/23/2022 9:15:00 AM 12.04 53.672 0.075 7.32 16.26 10.48
5/23/2022 9:30:00 AM 12.09 53.762 0.075 7.35 16.36 10.48
5/23/2022 9:45:00 AM 12.18 53.924 0.075 7.33 16 10.48
5/23/2022 10:00:00 AM 12.23 54.014 0.075 7.33 16 10.47
5/23/2022 10:15:00 AM 12.34 54.212 0.075 7.34 16.66 10.45
5/23/2022 10:30:00 AM 12.47 54.446 0.074 7.38 16.34 10.42
5/23/2022 10:45:00 AM 12.56 54.608 0.074 7.34 16.06 10.41
5/23/2022 11:00:00 AM 12.63 54.734 0.074 7.39 16.31 10.39
5/23/2022 11:15:00 AM 12.65 54.77 0.074 7.39 16.75 10.39
5/23/2022 11:30:00 AM 12.66 54.788 0.074 7.38 16.94 10.39
5/23/2022 11:45:00 AM 12.73 54.914 0.074 7.35 16.7 10.38
5/23/2022 12:00:00 PM 12.76 54.968 0.074 7.41 16.86 10.37
5/23/2022 12:15:00 PM 12.65 54.77 0.074 7.39 17.01 10.36
5/23/2022 12:30:00 PM 12.68 54.824 0.074 7.39 16.85 10.36
5/23/2022 12:45:00 PM 12.69 54.842 0.074 7.38 17.5 10.36
5/23/2022 1:00:00 PM 12.79 55.022 0.074 7.39 17.82 10.36
5/23/2022 1:15:00 PM 12.8 55.04 0.074 7.4 17.55 10.35
5/23/2022 1:30:00 PM 12.8 55.04 0.074 7.39 17.26 10.33
5/23/2022 1:45:00 PM 12.78 55.004 0.074 7.4 17.26 10.33
5/23/2022 2:00:00 PM 12.8 55.04 0.074 7.39 17.42 10.33
5/23/2022 2:15:00 PM 12.81 55.058 0.074 7.39 17.04 10.33
5/23/2022 2:30:00 PM 12.83 55.094 0.074 7.39 17.65 10.31
5/23/2022 2:45:00 PM 12.88 55.184 0.074 7.4 17.95 10.31
5/23/2022 3:00:00 PM 12.9 55.22 0.074 7.39 17.59 10.28
5/23/2022 3:15:00 PM 12.93 55.274 0.074 7.4 17.65 10.28
5/23/2022 3:30:00 PM 12.92 55.256 0.074 7.38 17.66 10.27
5/23/2022 3:45:00 PM 12.91 55.238 0.074 7.39 17.9 10.26
5/23/2022 4:00:00 PM 12.9 55.22 0.074 7.38 17.95 10.26
5/23/2022 4:15:00 PM 12.88 55.184 0.074 7.38 18.12 10.26
5/23/2022 4:30:00 PM 12.87 55.166 0.074 7.38 18.2 10.25
5/23/2022 4:45:00 PM 12.87 55.166 0.074 7.37 58.47 10.25
5/23/2022 5:00:00 PM 12.87 55.166 0.074 7.38 18.01 10.24
5/23/2022 5:15:00 PM 12.85 55.13 0.074 7.36 77.1 10.24
5/23/2022 5:30:00 PM 12.82 55.076 0.074 7.42 92.61 10.23
5/23/2022 5:45:00 PM 12.79 55.022 0.074 7.36 17.15 10.23
5/23/2022 6:00:00 PM 12.78 55.004 0.074 7.3 17.12 10.22
5/23/2022 6:15:00 PM 12.75 54.95 0.074 7.35 17.11 10.21
5/23/2022 6:30:00 PM 12.72 54.896 0.074 7.36 19.94 10.2
5/23/2022 6:45:00 PM 12.69 54.842 0.075 7.29 14.08 10.19
5/23/2022 7:00:00 PM 12.66 54.788 0.075 7.31 14.36 10.18
5/23/2022 7:15:00 PM 12.63 54.734 0.075 7.29 14.12 10.17
5/23/2022 7:30:00 PM 12.6 54.68 0.075 7.28 14.32 10.16
5/23/2022 7:45:00 PM 12.56 54.608 0.075 7.27 14.93 10.16
5/23/2022 8:00:00 PM 12.52 54.536 0.075 7.25 14.69 10.16
5/23/2022 8:15:00 PM 12.47 54.446 0.075 7.25 14.88 10.16
5/23/2022 8:30:00 PM 12.42 54.356 0.075 7.24 14.88 10.17
5/23/2022 8:45:00 PM 12.36 54.248 0.075 7.24 15.58 10.18
5/23/2022 9:00:00 PM 12.3 54.14 0.075 7.24 15.35 10.2
5/23/2022 9:15:00 PM 12.25 54.05 0.075 7.23 15.72 10.21
5/23/2022 9:30:00 PM 12.19 53.942 0.075 7.23 15.81 10.23
5/23/2022 9:45:00 PM 12.13 53.834 0.075 7.23 15.79 10.24
5/23/2022 10:00:00 PM 12.08 53.744 0.075 7.23 15.54 10.25
5/23/2022 10:15:00 PM 12.03 53.654 0.075 7.23 15.67 10.26
5/23/2022 10:30:00 PM 11.97 53.546 0.075 7.22 15.73 10.27
5/23/2022 10:45:00 PM 11.92 53.456 0.075 7.24 15.67 10.29
5/23/2022 11:00:00 PM 11.88 53.384 0.075 7.29 19.59 10.3
5/23/2022 11:15:00 PM 11.84 53.312 0.075 7.26 15.99 10.31
5/23/2022 11:30:00 PM 11.8 53.24 0.075 7.22 13.2 10.32
5/23/2022 11:45:00 PM 11.76 53.168 0.075 7.27 33.97 10.33
5/24/2022 12:00:00 AM 11.71 53.078 0.075 7.23 13.19 10.35
5/24/2022 12:15:00 AM 11.66 52.988 0.075 7.23 12.89 10.37
5/24/2022 12:30:00 AM 11.61 52.898 0.076 7.2 12.69 10.38
5/24/2022 12:45:00 AM 11.55 52.79 0.076 7.23 12.92 10.4
5/24/2022 1:00:00 AM 11.5 52.7 0.076 7.19 12.92 10.42
5/24/2022 1:15:00 AM 11.45 52.61 0.075 7.23 12.6 10.43
5/24/2022 1:30:00 AM 11.39 52.502 0.075 7.27 12.43 10.44
5/24/2022 1:45:00 AM 11.34 52.412 0.075 7.28 11.96 10.44
5/24/2022 2:00:00 AM 11.29 52.322 0.075 7.28 11.97 10.45
5/24/2022 2:15:00 AM 11.23 52.214 0.075 7.29 11.74 10.47
5/24/2022 2:30:00 AM 11.17 52.106 0.075 7.26 11.64 10.48
5/24/2022 2:45:00 AM 11.12 52.016 0.076 7.25 11.56 10.49
5/24/2022 3:00:00 AM 11.06 51.908 0.075 7.22 11.6 10.51
5/24/2022 3:15:00 AM 11 51.8 0.076 7.23 10.38 10.53
5/24/2022 3:30:00 AM 10.94 51.692 0.076 7.23 10.19 10.54
5/24/2022 3:45:00 AM 10.88 51.584 0.076 7.23 10.62 10.56
5/24/2022 4:00:00 AM 10.82 51.476 0.076 7.1 10.39 10.57
5/24/2022 4:15:00 AM 10.76 51.368 0.075 7.17 10.19 10.58
5/24/2022 4:30:00 AM 10.7 51.26 0.075 7.19 9.9 10.59
5/24/2022 4:45:00 AM 10.63 51.134 0.076 7.18 10.22 10.61
5/24/2022 5:00:00 AM 10.57 51.026 0.076 7.19 10.72 10.62
5/24/2022 5:15:00 AM 10.51 50.918 0.076 7.2 11.8 10.64
5/24/2022 5:30:00 AM 10.45 50.81 0.076 7.15 10.27 10.66
5/24/2022 5:45:00 AM 10.39 50.702 0.076 7.15 10.03 10.68
5/24/2022 6:00:00 AM 10.34 50.612 0.076 7.16 10.53 10.71
5/24/2022 6:15:00 AM 10.31 50.558 0.076 7.22 10.92 10.73
5/24/2022 6:30:00 AM 10.3 50.54 0.075 7.22 10.64 10.75
5/24/2022 6:45:00 AM 10.27 50.486 0.075 7.21 10.68 10.76
5/24/2022 7:00:00 AM 10.26 50.468 0.075 7.22 10.36 10.77
5/24/2022 7:15:00 AM 10.25 50.45 0.075 7.23 10.98 10.79
5/24/2022 7:30:00 AM 10.24 50.432 0.075 7.22 11.09 10.81
5/24/2022 7:45:00 AM 10.26 50.468 0.075 7.25 11.12 10.84
5/24/2022 8:00:00 AM 10.29 50.522 0.075 7.26 14.84 10.86
5/24/2022 8:15:00 AM 10.31 50.558 0.075 7.29 11.17 10.85
5/24/2022 8:30:00 AM 10.35 50.63 0.075 7.3 11.32 10.87
5/24/2022 8:45:00 AM 10.4 50.72 0.075 7.32 11.29 10.86
5/24/2022 9:00:00 AM 10.53 50.954 0.075 7.32 10.77 10.83
5/24/2022 9:15:00 AM 10.65 51.17 0.075 7.33 10.68 10.81
5/24/2022 9:30:00 AM 10.81 51.458 0.075 7.3 11.21 10.8
5/24/2022 9:45:00 AM 10.91 51.638 0.075 7.35 10.85 10.79
5/24/2022 10:00:00 AM 10.92 51.656 0.075 7.35 11.23 10.77
5/24/2022 10:15:00 AM 10.95 51.71 0.075 7.38 11.52 10.77
5/24/2022 10:30:00 AM 10.99 51.782 0.075 7.38 11.24 10.76
5/24/2022 10:45:00 AM 11.03 51.854 0.075 7.39 11.14 10.75
5/24/2022 11:00:00 AM 11.09 51.962 0.075 7.37 11.26 10.73
5/24/2022 11:15:00 AM 11.16 52.088 0.074 7.38 11.46 10.72
5/24/2022 11:30:00 AM 11.26 52.268 0.074 7.41 11.5 10.71
5/24/2022 11:45:00 AM 11.36 52.448 0.074 7.39 11.35 10.69
5/24/2022 12:00:00 PM 11.47 52.646 0.074 7.39 11.69 10.67
5/24/2022 12:15:00 PM 11.54 52.772 0.074 7.41 11.85 10.65
5/24/2022 12:30:00 PM 11.61 52.898 0.074 7.41 11.96 10.64
5/24/2022 12:45:00 PM 11.73 53.114 0.074 7.41 11.8 10.61
5/24/2022 1:00:00 PM 11.79 53.222 0.074 7.37 11.99 10.57
5/24/2022 1:15:00 PM 11.84 53.312 0.074 7.36 12.3 10.57
5/24/2022 1:30:00 PM 11.98 53.564 0.074 7.39 11.66 10.54
5/24/2022 1:45:00 PM 11.95 53.51 0.074 7.41 11.76 10.49
5/24/2022 2:00:00 PM 11.89 53.402 0.074 7.39 12.43 10.48
5/24/2022 2:15:00 PM 11.88 53.384 0.074 7.38 11.84 10.48
5/24/2022 2:30:00 PM 11.84 53.312 0.074 7.36 12.41 10.45
5/24/2022 2:45:00 PM 11.82 53.276 0.074 7.36 12.16 10.45
5/24/2022 3:00:00 PM 11.86 53.348 0.074 7.3 12.59 10.48
5/24/2022 3:15:00 PM 11.94 53.492 0.074 7.38 12.5 10.5
5/24/2022 3:30:00 PM 12.05 53.69 0.074 7.37 12.76 10.49
5/24/2022 3:45:00 PM 12.08 53.744 0.074 7.37 12.05 10.45
5/24/2022 4:00:00 PM 12.1 53.78 0.074 7.37 12.06 10.45
5/24/2022 4:15:00 PM 12.11 53.798 0.074 7.38 12.58 10.44
5/24/2022 4:30:00 PM 12.12 53.816 0.074 7.37 12.51 10.42
5/24/2022 4:45:00 PM 12.08 53.744 0.074 7.34 12.78 10.38
5/24/2022 5:00:00 PM 12.08 53.744 0.074 7.26 12.34 10.41
5/24/2022 5:15:00 PM 12.1 53.78 0.075 7.34 12.33 10.4
5/24/2022 5:30:00 PM 12.09 53.762 0.075 7.33 12.92 10.37
5/24/2022 5:45:00 PM 12.08 53.744 0.075 7.33 12.13 10.37
5/24/2022 6:00:00 PM 12.08 53.744 0.075 7.32 12.65 10.38
5/24/2022 6:15:00 PM 12.08 53.744 0.075 7.28 12.59 10.36
5/24/2022 6:30:00 PM 12.05 53.69 0.075 7.29 12.97 10.33
5/24/2022 6:45:00 PM 12.05 53.69 0.075 7.26 12.58 10.34
5/24/2022 7:00:00 PM 12.04 53.672 0.075 7.3 12.94 10.32
5/24/2022 7:15:00 PM 12.02 53.636 0.075 7.24 12.8 10.31
5/24/2022 7:30:00 PM 12.01 53.618 0.075 7.22 12.68 10.32
5/24/2022 7:45:00 PM 12 53.6 0.075 7.26 12.64 10.3
5/24/2022 8:00:00 PM 11.98 53.564 0.075 7.2 12.6 10.29
5/24/2022 8:15:00 PM 11.97 53.546 0.075 7.24 13.45 10.29
5/24/2022 8:30:00 PM 11.95 53.51 0.075 7.21 13.23 10.29
5/24/2022 8:45:00 PM 11.94 53.492 0.075 7.27 13.07 10.29
5/24/2022 9:00:00 PM 11.93 53.474 0.076 7.22 13.34 10.29
5/24/2022 9:15:00 PM 11.92 53.456 0.076 7.15 13.14 10.29
5/24/2022 9:30:00 PM 11.91 53.438 0.076 7.21 13.71 10.3
5/24/2022 9:45:00 PM 11.9 53.42 0.076 7.21 13.42 10.3
5/24/2022 10:00:00 PM 11.89 53.402 0.076 7.27 12.93 10.3
5/24/2022 10:15:00 PM 11.88 53.384 0.076 7.21 13.37 10.3
5/24/2022 10:30:00 PM 11.87 53.366 0.076 7.2 13.03 10.31
5/24/2022 10:45:00 PM 11.86 53.348 0.076 7.2 13.21 10.31
5/24/2022 11:00:00 PM 11.85 53.33 0.076 7.19 13.75 10.32
5/24/2022 11:15:00 PM 11.84 53.312 0.076 7.2 13.16 10.32
5/24/2022 11:30:00 PM 11.83 53.294 0.076 7.2 12.7 10.32
5/24/2022 11:45:00 PM 11.82 53.276 0.076 7.21 12.99 10.32
5/25/2022 12:00:00 AM 11.81 53.258 0.076 7.21 13.08 10.33
5/25/2022 12:15:00 AM 11.8 53.24 0.076 7.2 12.93 10.33
5/25/2022 12:30:00 AM 11.79 53.222 0.076 7.16 13.07 10.33
5/25/2022 12:45:00 AM 11.79 53.222 0.076 7.19 13.12 10.34
5/25/2022 1:00:00 AM 11.78 53.204 0.076 7.21 13.63 10.33
5/25/2022 1:15:00 AM 11.77 53.186 0.076 7.11 13.99 10.34
5/25/2022 1:30:00 AM 11.76 53.168 0.076 7.21 13.27 10.34
5/25/2022 1:45:00 AM 11.75 53.15 0.076 7.2 13.07 10.34
5/25/2022 2:00:00 AM 11.74 53.132 0.076 7.2 12.98 10.35
5/25/2022 2:15:00 AM 11.72 53.096 0.076 7.21 13.09 10.35
5/25/2022 2:30:00 AM 11.7 53.06 0.076 7.2 13.02 10.36
5/25/2022 2:45:00 AM 11.69 53.042 0.076 7.18 13.44 10.36
5/25/2022 3:00:00 AM 11.68 53.024 0.076 7.23 13.06 10.36
5/25/2022 3:15:00 AM 11.68 53.024 0.076 7.23 13.08 10.37
5/25/2022 3:30:00 AM 11.67 53.006 0.076 7.19 13.81 10.37
5/25/2022 3:45:00 AM 11.66 52.988 0.076 7.21 12.96 10.37
5/25/2022 4:00:00 AM 11.65 52.97 0.076 7.21 14.69 10.38
5/25/2022 4:15:00 AM 11.64 52.952 0.076 7.21 14.57 10.38
5/25/2022 4:30:00 AM 11.63 52.934 0.076 7.21 14.19 10.38
5/25/2022 4:45:00 AM 11.62 52.916 0.076 7.18 13.68 10.39
5/25/2022 5:00:00 AM 11.61 52.898 0.076 7.2 13.38 10.39
5/25/2022 5:15:00 AM 11.6 52.88 0.076 7.16 14.08 10.39
5/25/2022 5:30:00 AM 11.59 52.862 0.076 7.19 13.69 10.4
5/25/2022 5:45:00 AM 11.59 52.862 0.076 7.21 13.66 10.39
5/25/2022 6:00:00 AM 11.58 52.844 0.076 7.21 14.22 10.41
5/25/2022 6:15:00 AM 11.57 52.826 0.076 7.21 13.37 10.42
5/25/2022 6:30:00 AM 11.57 52.826 0.076 7.22 12.32 10.43
5/25/2022 6:45:00 AM 11.57 52.826 0.076 7.21 12.61 10.45
5/25/2022 7:00:00 AM 11.58 52.844 0.076 7.23 12.26 10.46
5/25/2022 7:15:00 AM 11.61 52.898 0.076 7.23 12.53 10.48
5/25/2022 7:30:00 AM 11.63 52.934 0.076 7.25 12.93 10.5
5/25/2022 7:45:00 AM 11.66 52.988 0.076 7.28 12.9 10.52
5/25/2022 8:00:00 AM 11.69 53.042 0.076 7.3 12.89 10.52
5/25/2022 8:15:00 AM 11.73 53.114 0.076 7.31 12.7 10.53
5/25/2022 8:30:00 AM 11.78 53.204 0.076 7.3 13.02 10.53
5/25/2022 8:45:00 AM 11.81 53.258 0.076 7.3 13.43 10.53
5/25/2022 9:00:00 AM 11.86 53.348 0.076 7.33 13.2 10.53
5/25/2022 9:15:00 AM 11.91 53.438 0.076 7.33 13.49 10.52
5/25/2022 9:30:00 AM 12.02 53.636 0.076 7.37 13.42 10.53
5/25/2022 9:45:00 AM 12.08 53.744 0.076 7.31 13.31 10.52
5/25/2022 10:00:00 AM 12.13 53.834 0.076 7.37 13.71 10.51
5/25/2022 10:15:00 AM 12.16 53.888 0.076 7.37 13.62 10.49
5/25/2022 10:30:00 AM 12.23 54.014 0.076 7.38 13.45 10.49
5/25/2022 10:45:00 AM 12.37 54.266 0.075 7.39 14.06 10.48
5/25/2022 11:00:00 AM 12.45 54.41 0.075 7.33 13.69 10.45
5/25/2022 11:15:00 AM 12.53 54.554 0.075 7.4 13.46 10.44
5/25/2022 11:30:00 AM 12.59 54.662 0.075 7.38 14 10.4
5/25/2022 11:45:00 AM 12.75 54.95 0.075 7.39 13.81 10.4
5/25/2022 12:00:00 PM 12.9 55.22 0.075 7.4 13.51 10.37
5/25/2022 12:15:00 PM 13.02 55.436 0.075 7.4 14.07 10.34
5/25/2022 12:30:00 PM 13.11 55.598 0.075 7.41 14.33 10.32
5/25/2022 12:45:00 PM 13.25 55.85 0.075 7.41 13.9 10.28
5/25/2022 1:00:00 PM 13.34 56.012 0.075 7.41 873.45 10.25
5/25/2022 1:15:00 PM 13.38 56.084 0.075 7.42 11.88 10.24
5/25/2022 1:30:00 PM 13.46 56.228 0.075 7.41 11.94 10.22
5/25/2022 1:45:00 PM 13.49 56.282 0.075 7.41 11.94 10.21
5/25/2022 2:00:00 PM 13.49 56.282 0.075 7.4 11.54 10.2
5/25/2022 2:15:00 PM 13.6 56.48 0.075 7.4 12.56 10.17
5/25/2022 2:30:00 PM 13.65 56.57 0.075 7.4 11.73 10.13
5/25/2022 2:45:00 PM 13.69 56.642 0.075 7.38 11.62 10.09
5/25/2022 3:00:00 PM 13.74 56.732 0.075 7.37 11.93 10.07
5/25/2022 3:15:00 PM 13.73 56.714 0.075 7.37 11.86 10.07
5/25/2022 3:30:00 PM 13.78 56.804 0.075 7.37 11.98 10.05
5/25/2022 3:45:00 PM 13.79 56.822 0.075 7.36 12.46 10.02
5/25/2022 4:00:00 PM 13.79 56.822 0.075 7.36 12.47 10.01
5/25/2022 4:15:00 PM 13.77 56.786 0.075 7.36 11.6 10
5/25/2022 4:30:00 PM 13.74 56.732 0.075 7.27 12.12 10
5/25/2022 4:45:00 PM 13.71 56.678 0.075 7.33 11.63 10
5/25/2022 5:00:00 PM 13.68 56.624 0.075 7.33 11.72 10
5/25/2022 5:15:00 PM 13.64 56.552 0.076 7.33 12.23 9.99
5/25/2022 5:30:00 PM 13.59 56.462 0.076 7.29 11.28 10
5/25/2022 5:45:00 PM 13.54 56.372 0.076 7.32 11.43 10
5/25/2022 6:00:00 PM 13.5 56.3 0.076 7.32 11.38 9.99
5/25/2022 6:15:00 PM 13.46 56.228 0.076 7.3 11.41 10
5/25/2022 6:30:00 PM 13.42 56.156 0.076 7.24 10.86 10
5/25/2022 6:45:00 PM 13.39 56.102 0.076 7.27 11.78 9.99
5/25/2022 7:00:00 PM 13.35 56.03 0.076 7.24 10.86 9.98
5/25/2022 7:15:00 PM 13.32 55.976 0.076 7.27 11.28 9.98
5/25/2022 7:30:00 PM 13.29 55.922 0.076 7.23 11.8 9.98
5/25/2022 7:45:00 PM 13.26 55.868 0.076 7.22 11.34 9.97
5/25/2022 8:00:00 PM 13.23 55.814 0.077 7.24 11.75 9.97
5/25/2022 8:15:00 PM 13.2 55.76 0.077 7.23 11.49 9.97
5/25/2022 8:30:00 PM 13.17 55.706 0.077 7.23 11.94 9.96
5/25/2022 8:45:00 PM 13.14 55.652 0.077 7.21 11.97 9.96
5/25/2022 9:00:00 PM 13.12 55.616 0.077 7.21 12.86 9.97
5/25/2022 9:15:00 PM 13.09 55.562 0.077 7.2 12.42 9.98
5/25/2022 9:30:00 PM 13.05 55.49 0.077 7.18 11.72 9.98
5/25/2022 9:45:00 PM 13.03 55.454 0.077 7.17 10.88 9.99
5/25/2022 10:00:00 PM 13.01 55.418 0.077 7.2 10.55 10
5/25/2022 10:15:00 PM 12.99 55.382 0.077 7.19 11.29 10.01
5/25/2022 10:30:00 PM 12.97 55.346 0.077 7.21 10.79 10.01
5/25/2022 10:45:00 PM 12.95 55.31 0.077 7.21 11.61 10.01
5/25/2022 11:00:00 PM 12.94 55.292 0.077 7.22 11.08 10.01
5/25/2022 11:15:00 PM 12.92 55.256 0.077 7.22 11.01 10.02
5/25/2022 11:30:00 PM 12.91 55.238 0.077 7.21 10.32 10.02
5/25/2022 11:45:00 PM 12.89 55.202 0.077 7.22 10.44 10.03
5/26/2022 12:00:00 AM 12.87 55.166 0.077 7.21 9.83 10.03
5/26/2022 12:15:00 AM 12.86 55.148 0.077 7.23 10.49 10.04
5/26/2022 12:30:00 AM 12.84 55.112 0.077 7.16 10.21 10.04
5/26/2022 12:45:00 AM 12.81 55.058 0.077 7.24 9.56 10.05
5/26/2022 1:00:00 AM 12.79 55.022 0.077 7.23 9.8 10.05
5/26/2022 1:15:00 AM 12.76 54.968 0.077 7.21 9.81 10.06
5/26/2022 1:30:00 AM 12.73 54.914 0.077 7.22 9.88 10.06
5/26/2022 1:45:00 AM 12.7 54.86 0.077 7.23 10.6 10.06
5/26/2022 2:00:00 AM 12.67 54.806 0.077 7.23 9.96 10.07
5/26/2022 2:15:00 AM 12.64 54.752 0.077 7.18 9.84 10.07
5/26/2022 2:30:00 AM 12.61 54.698 0.077 7.22 10.28 10.08
5/26/2022 2:45:00 AM 12.58 54.644 0.077 7.23 9.9 10.09
5/26/2022 3:00:00 AM 12.55 54.59 0.077 7.22 9.64 10.1
5/26/2022 3:15:00 AM 12.51 54.518 0.077 7.23 10.19 10.1
5/26/2022 3:30:00 AM 12.47 54.446 0.077 7.23 9.98 10.12
5/26/2022 3:45:00 AM 12.44 54.392 0.077 7.23 10.07 10.12
5/26/2022 4:00:00 AM 12.4 54.32 0.077 7.22 9.9 10.14
5/26/2022 4:15:00 AM 12.38 54.284 0.077 7.22 10.1 10.14
5/26/2022 4:30:00 AM 12.35 54.23 0.077 7.23 10.74 10.15
5/26/2022 4:45:00 AM 12.32 54.176 0.077 7.18 10.56 10.16
5/26/2022 5:00:00 AM 12.28 54.104 0.077 7.22 10.72 10.17
5/26/2022 5:15:00 AM 12.25 54.05 0.077 7.23 10.05 10.17
5/26/2022 5:30:00 AM 12.23 54.014 0.077 7.23 10.11 10.18
5/26/2022 5:45:00 AM 12.19 53.942 0.077 7.22 9.77 10.19
5/26/2022 6:00:00 AM 12.14 53.852 0.077 7.22 10.14 10.21
5/26/2022 6:15:00 AM 12.11 53.798 0.077 7.24 10.6 10.23
5/26/2022 6:30:00 AM 12.09 53.762 0.077 7.24 10.06 10.25
5/26/2022 6:45:00 AM 12.08 53.744 0.077 7.23 10.66 10.27
5/26/2022 7:00:00 AM 12.07 53.726 0.077 7.25 10.63 10.27
5/26/2022 7:15:00 AM 12.05 53.69 0.077 7.26 10.89 10.27
5/26/2022 7:30:00 AM 12.05 53.69 0.077 7.27 10.14 10.29
5/26/2022 7:45:00 AM 12.07 53.726 0.077 7.26 10.44 10.31
5/26/2022 8:00:00 AM 12.12 53.816 0.077 7.27 10.41 10.33
5/26/2022 8:15:00 AM 12.17 53.906 0.077 7.27 10.24 10.34
5/26/2022 8:30:00 AM 12.23 54.014 0.077 7.31 9.99 10.35
5/26/2022 8:45:00 AM 12.29 54.122 0.077 7.32 10.06 10.35
5/26/2022 9:00:00 AM 12.34 54.212 0.077 7.31 10.51 10.34
5/26/2022 9:15:00 AM 12.41 54.338 0.077 7.33 10.24 10.34
5/26/2022 9:30:00 AM 12.5 54.5 0.077 7.3 11.04 10.32
5/26/2022 9:45:00 AM 12.67 54.806 0.077 7.31 10.29 10.31
5/26/2022 10:00:00 AM 12.8 55.04 0.077 7.34 10.62 10.3
5/26/2022 10:15:00 AM 12.94 55.292 0.077 7.33 10.36 10.27
5/26/2022 10:30:00 AM 13.11 55.598 0.077 7.34 10.09 10.24
5/26/2022 10:45:00 AM 13.25 55.85 0.077 7.36 10.6 10.2
5/26/2022 11:00:00 AM 13.38 56.084 0.077 7.36 10.33 10.18
5/26/2022 11:15:00 AM 13.55 56.39 0.077 7.37 10.11 10.16
5/26/2022 11:30:00 AM 13.73 56.714 0.077 7.37 10.62 10.11
5/26/2022 11:45:00 AM 13.77 56.786 0.077 7.38 10.34 10.1
5/26/2022 12:00:00 PM 13.89 57.002 0.077 7.33 10.69 10.07
5/26/2022 12:15:00 PM 14.05 57.29 0.077 7.38 10.29 10.02
5/26/2022 12:30:00 PM 14.02 57.236 0.076 7.38 9.98 9.99
5/26/2022 12:45:00 PM 13.85 56.93 0.077 7.37 10.15 10.01
5/26/2022 1:00:00 PM 13.86 56.948 0.076 7.38 12.84 10.03
5/26/2022 1:15:00 PM 13.97 57.146 0.076 7.37 10.3 10.01
5/26/2022 1:30:00 PM 14.04 57.272 0.076 7.37 10.62 9.99
5/26/2022 1:45:00 PM 14.25 57.65 0.076 7.38 10.6 9.96
5/26/2022 2:00:00 PM 14.41 57.938 0.076 7.38 10.17 9.9
5/26/2022 2:15:00 PM 14.42 57.956 0.076 7.37 10.24 9.88
5/26/2022 2:30:00 PM 14.46 58.028 0.076 7.38 10.53 9.88
5/26/2022 2:45:00 PM 14.45 58.01 0.076 7.37 11.42 9.86
5/26/2022 3:00:00 PM 14.4 57.92 0.076 7.37 10.75 9.85
5/26/2022 3:15:00 PM 14.4 57.92 0.076 7.37 10.05 9.85
5/26/2022 3:30:00 PM 14.44 57.992 0.076 7.35 9.76 9.84
5/26/2022 3:45:00 PM 14.54 58.172 0.076 7.37 10.16 9.82
5/26/2022 4:00:00 PM 14.55 58.19 0.076 7.36 10.11 9.79
5/26/2022 4:15:00 PM 14.5 58.1 0.077 7.36 10.21 9.79
5/26/2022 4:30:00 PM 14.48 58.064 0.077 7.36 10.02 9.78
5/26/2022 4:45:00 PM 14.43 57.974 0.077 7.35 10.02 9.79
5/26/2022 5:00:00 PM 14.47 58.046 0.077 7.35 10.07 9.79
5/26/2022 5:15:00 PM 14.47 58.046 0.077 7.34 62.89 9.75
5/26/2022 5:30:00 PM 14.41 57.938 0.077 7.33 10.28 9.74
5/26/2022 5:45:00 PM 14.37 57.866 0.077 7.27 10.15 9.76
5/26/2022 6:00:00 PM 14.33 57.794 0.077 7.32 10.15 9.74
5/26/2022 6:15:00 PM 14.29 57.722 0.077 7.3 10.1 9.74
5/26/2022 6:30:00 PM 14.24 57.632 0.077 7.3 9.58 9.71
5/26/2022 6:45:00 PM 14.2 57.56 0.077 7.28 10.36 9.71
5/26/2022 7:00:00 PM 14.16 57.488 0.077 7.26 10.25 9.72
5/26/2022 7:15:00 PM 14.13 57.434 0.077 7.26 9.86 9.72
5/26/2022 7:30:00 PM 14.1 57.38 0.078 7.26 10.03 9.7
5/26/2022 7:45:00 PM 14.06 57.308 0.078 7.25 10.12 9.7
5/26/2022 8:00:00 PM 14.02 57.236 0.078 7.24 10.19 9.7
5/26/2022 8:15:00 PM 13.99 57.182 0.078 7.24 9.98 9.7
5/26/2022 8:30:00 PM 13.96 57.128 0.078 7.22 9.79 9.7
5/26/2022 8:45:00 PM 13.93 57.074 0.078 7.22 10.18 9.7
5/26/2022 9:00:00 PM 13.91 57.038 0.078 7.22 10.43 9.7
5/26/2022 9:15:00 PM 13.9 57.02 0.078 7.22 10.41 9.71
5/26/2022 9:30:00 PM 13.89 57.002 0.078 7.23 10.91 9.71
5/26/2022 9:45:00 PM 13.88 56.984 0.078 7.22 10.32 9.71
5/26/2022 10:00:00 PM 13.88 56.984 0.078 7.22 10.83 9.71
5/26/2022 10:15:00 PM 13.87 56.966 0.078 7.22 13.51 9.72
5/26/2022 10:30:00 PM 13.87 56.966 0.078 7.23 10.73 9.71
5/26/2022 10:45:00 PM 13.86 56.948 0.078 7.2 10.39 9.72
5/26/2022 11:00:00 PM 13.86 56.948 0.078 7.21 10.16 9.72
5/26/2022 11:15:00 PM 13.85 56.93 0.078 7.21 10.52 9.72
5/26/2022 11:30:00 PM 13.83 56.894 0.078 7.21 10.56 9.72
5/26/2022 11:45:00 PM 13.82 56.876 0.078 7.19 10.78 9.72
5/27/2022 12:00:00 AM 13.8 56.84 0.078 7.18 10.52 9.72
5/27/2022 12:15:00 AM 13.79 56.822 0.078 7.17 9.84 9.72
5/27/2022 12:30:00 AM 13.78 56.804 0.079 7.18 10.65 9.72
5/27/2022 12:45:00 AM 13.77 56.786 0.079 7.17 11.19 9.73
5/27/2022 1:00:00 AM 13.77 56.786 0.078 7.18 10.53 9.73
5/27/2022 1:15:00 AM 13.75 56.75 0.079 7.17 10.98 9.73
5/27/2022 1:30:00 AM 13.74 56.732 0.079 7.18 10.23 9.73
5/27/2022 1:45:00 AM 13.74 56.732 0.079 7.16 12.72 9.73
5/27/2022 2:00:00 AM 13.73 56.714 0.079 7.16 11.63 9.73
5/27/2022 2:15:00 AM 13.72 56.696 0.079 7.17 11.6 9.73
5/27/2022 2:30:00 AM 13.71 56.678 0.079 7.14 11.48 9.73
5/27/2022 2:45:00 AM 13.71 56.678 0.079 7.16 11.41 9.73
5/27/2022 3:00:00 AM 13.7 56.66 0.079 7.16 11.09 9.73
5/27/2022 3:15:00 AM 13.7 56.66 0.079 7.16 12.34 9.73
5/27/2022 3:30:00 AM 13.69 56.642 0.079 7.15 12.03 9.73
5/27/2022 3:45:00 AM 13.69 56.642 0.079 7.16 13.71 9.73
5/27/2022 4:00:00 AM 13.69 56.642 0.079 7.11 14.17 9.73
5/27/2022 4:15:00 AM 13.69 56.642 0.079 7.16 13.22 9.72
5/27/2022 4:30:00 AM 13.7 56.66 0.079 7.17 13.99 9.72
5/27/2022 4:45:00 AM 13.69 56.642 0.079 7.17 13.57 9.72
5/27/2022 5:00:00 AM 13.69 56.642 0.079 7.17 11.44 9.72
5/27/2022 5:15:00 AM 13.68 56.624 0.079 7.17 12.19 9.72
5/27/2022 5:30:00 AM 13.69 56.642 0.079 7.19 11.69 9.72
5/27/2022 5:45:00 AM 13.68 56.624 0.079 7.17 11.46 9.73
5/27/2022 6:00:00 AM 13.67 56.606 0.079 7.16 11.68 9.73
5/27/2022 6:15:00 AM 13.67 56.606 0.079 7.16 11.77 9.73
5/27/2022 6:30:00 AM 13.67 56.606 0.079 7.17 11.39 9.74
5/27/2022 6:45:00 AM 13.66 56.588 0.079 7.18 11.51 9.74
5/27/2022 7:00:00 AM 13.67 56.606 0.079 7.17 11.34 9.75
5/27/2022 7:15:00 AM 13.67 56.606 0.079 7.17 11.5 9.75
5/27/2022 7:30:00 AM 13.68 56.624 0.079 7.15 11.35 9.76
5/27/2022 7:45:00 AM 13.71 56.678 0.079 7.21 11.68 9.78
5/27/2022 8:00:00 AM 13.73 56.714 0.079 7.22 11.09 9.77
5/27/2022 8:15:00 AM 13.75 56.75 0.079 7.22 11.77 9.76
5/27/2022 8:30:00 AM 13.76 56.768 0.079 7.22 11.38 9.75
5/27/2022 8:45:00 AM 13.78 56.804 0.079 7.19 11.42 9.76
5/27/2022 9:00:00 AM 13.8 56.84 0.079 7.24 11.26 9.76
5/27/2022 9:15:00 AM 13.81 56.858 0.079 7.21 11.28 9.75
5/27/2022 9:30:00 AM 13.87 56.966 0.078 7.24 11.34 9.77
5/27/2022 9:45:00 AM 13.89 57.002 0.079 7.21 11.17 9.77
5/27/2022 10:00:00 AM 13.93 57.074 0.078 7.26 11.71 9.79
5/27/2022 10:15:00 AM 13.99 57.182 0.078 7.28 11.82 9.79
5/27/2022 10:30:00 AM 14 57.2 0.078 7.28 11.33 9.77
5/27/2022 10:45:00 AM 14.03 57.254 0.078 7.28 11.6 9.74
5/27/2022 11:00:00 AM 14.04 57.272 0.078 7.27 11.48 9.75
5/27/2022 11:15:00 AM 14.06 57.308 0.078 7.22 11.62 9.78
5/27/2022 11:30:00 AM 14.17 57.506 0.078 7.24 10.76 9.82
5/27/2022 11:45:00 AM 14.17 57.506 0.078 7.28 11.85 9.75
5/27/2022 12:00:00 PM 14.2 57.56 0.078 7.28 11.75 9.76
5/27/2022 12:15:00 PM 14.19 57.542 0.078 7.28 12.22 9.7
5/27/2022 12:30:00 PM 14.18 57.524 0.078 7.27 12.13 9.68
5/27/2022 12:45:00 PM 14.22 57.596 0.078 7.29 11.79 9.73
5/27/2022 1:00:00 PM 14.23 57.614 0.078 7.28 11.64 9.72
5/27/2022 1:15:00 PM 14.23 57.614 0.079 7.25 12.11 9.68
5/27/2022 1:30:00 PM 14.21 57.578 0.079 7.26 12.37 9.64
5/27/2022 1:45:00 PM 14.2 57.56 0.078 7.2 11.63 9.67
5/27/2022 2:00:00 PM 14.19 57.542 0.078 7.24 11.48 9.66
5/27/2022 2:15:00 PM 14.16 57.488 0.078 7.25 11.78 9.66
5/27/2022 2:30:00 PM 14.18 57.524 0.078 7.26 11.57 9.71
5/27/2022 2:45:00 PM 14.19 57.542 0.079 7.25 11.14 9.7
5/27/2022 3:00:00 PM 14.25 57.65 0.078 7.27 10.98 9.74
5/27/2022 3:15:00 PM 14.31 57.758 0.078 7.3 11.35 9.75
5/27/2022 3:30:00 PM 14.35 57.83 0.079 7.25 11.63 9.73
5/27/2022 3:45:00 PM 14.38 57.884 0.078 7.31 11.2 9.69
5/27/2022 4:00:00 PM 14.38 57.884 0.078 7.33 12.24 9.69
5/27/2022 4:15:00 PM 14.39 57.902 0.079 7.3 11.37 9.64
5/27/2022 4:30:00 PM 14.43 57.974 0.078 7.25 11.31 9.68
5/27/2022 4:45:00 PM 14.45 58.01 0.078 7.29 10.8 9.67
5/27/2022 5:00:00 PM 14.46 58.028 0.079 7.31 11.72 9.65
5/27/2022 5:15:00 PM 14.5 58.1 0.079 7.27 12.13 9.64
5/27/2022 5:30:00 PM 14.5 58.1 0.079 7.29 11.06 9.64
5/27/2022 5:45:00 PM 14.51 58.118 0.079 7.26 11.03 9.65
5/27/2022 6:00:00 PM 14.52 58.136 0.078 7.31 11.43 9.64
5/27/2022 6:15:00 PM 14.52 58.136 0.078 7.29 11.94 9.63
5/27/2022 6:30:00 PM 14.51 58.118 0.079 7.26 11.33 9.58
5/27/2022 6:45:00 PM 14.51 58.118 0.079 7.19 11.15 9.6
5/27/2022 7:00:00 PM 14.5 58.1 0.078 7.26 11.1 9.59
5/27/2022 7:15:00 PM 14.47 58.046 0.079 7.26 11.18 9.56
5/27/2022 7:30:00 PM 14.47 58.046 0.079 7.25 11.12 9.58
5/27/2022 7:45:00 PM 14.47 58.046 0.079 7.26 10.64 9.58
5/27/2022 8:00:00 PM 14.46 58.028 0.079 7.33 11.78 9.55
5/27/2022 8:15:00 PM 14.42 57.956 0.079 7.18 11.52 9.53
5/27/2022 8:30:00 PM 14.39 57.902 0.079 7.18 11.94 9.52
5/27/2022 8:45:00 PM 14.45 58.01 0.075 7.19 19.81 9.48
5/27/2022 9:00:00 PM 14.4 57.92 0.077 7.21 58.39 9.44
5/27/2022 9:15:00 PM 14.36 57.848 0.078 7.18 44.43 9.44
5/27/2022 9:30:00 PM 14.3 57.74 0.087 7.23 101.62 9.45
5/27/2022 9:45:00 PM 14.27 57.686 0.083 7.18 51.1 9.47
5/27/2022 10:00:00 PM 14.23 57.614 0.082 7.23 29.51 9.48
5/27/2022 10:15:00 PM 14.18 57.524 0.082 7.17 23.2 9.5
5/27/2022 10:30:00 PM 14.11 57.398 0.085 7.16 25.12 9.54
5/27/2022 10:45:00 PM 14.03 57.254 0.083 7.25 151.34 9.61
5/27/2022 11:00:00 PM 13.88 56.984 0.076 7.17 95.19 9.71
5/27/2022 11:15:00 PM 13.8 56.84 0.075 7.2 73.53 9.73
5/27/2022 11:30:00 PM 13.77 56.786 0.074 7.21 85.09 9.73
5/27/2022 11:45:00 PM 13.74 56.732 0.08 7.23 77.37 9.72
5/28/2022 12:00:00 AM 13.7 56.66 0.092 7.27 77.94 9.73
5/28/2022 12:15:00 AM 13.67 56.606 0.101 7.34 78.24 9.74
5/28/2022 12:30:00 AM 13.63 56.534 0.111 7.37 74.89 9.74
5/28/2022 12:45:00 AM 13.6 56.48 0.112 7.39 69.92 9.75
5/28/2022 1:00:00 AM 13.57 56.426 0.109 7.35 57.18 9.75
5/28/2022 1:15:00 AM 13.53 56.354 0.105 7.36 44.22 9.75
5/28/2022 1:30:00 AM 13.5 56.3 0.101 7.35 37.18 9.76
5/28/2022 1:45:00 AM 13.47 56.246 0.098 7.32 33.27 9.76
5/28/2022 2:00:00 AM 13.44 56.192 0.096 7.27 29.63 9.77
5/28/2022 2:15:00 AM 13.42 56.156 0.094 7.28 28.64 9.77
5/28/2022 2:30:00 AM 13.39 56.102 0.093 7.29 26.08 9.77
5/28/2022 2:45:00 AM 13.37 56.066 0.092 7.22 25.71 9.76
5/28/2022 3:00:00 AM 13.35 56.03 0.091 7.27 24.14 9.75
5/28/2022 3:15:00 AM 13.33 55.994 0.092 7.27 24.62 9.76
5/28/2022 3:30:00 AM 13.31 55.958 0.092 7.26 26.01 9.76
5/28/2022 3:45:00 AM 13.28 55.904 0.093 7.27 25.06 9.77
5/28/2022 4:00:00 AM 13.26 55.868 0.093 7.27 24.25 9.78
5/28/2022 4:15:00 AM 13.24 55.832 0.093 7.26 23.75 9.78
5/28/2022 4:30:00 AM 13.22 55.796 0.093 7.27 22.76 9.79
5/28/2022 4:45:00 AM 13.2 55.76 0.093 7.27 21.7 9.8
5/28/2022 5:00:00 AM 13.18 55.724 0.092 7.24 20.95 9.8
5/28/2022 5:15:00 AM 13.16 55.688 0.092 7.26 20.46 9.81
5/28/2022 5:30:00 AM 13.14 55.652 0.092 7.26 19.99 9.82
5/28/2022 5:45:00 AM 13.12 55.616 0.091 7.26 19.14 9.82
5/28/2022 6:00:00 AM 13.1 55.58 0.091 7.26 18.52 9.84
5/28/2022 6:15:00 AM 13.09 55.562 0.091 7.27 18.86 9.85
5/28/2022 6:30:00 AM 13.08 55.544 0.091 7.22 17 9.86
5/28/2022 6:45:00 AM 13.07 55.526 0.09 7.27 16.95 9.87
5/28/2022 7:00:00 AM 13.06 55.508 0.09 7.29 16.78 9.88
5/28/2022 7:15:00 AM 13.06 55.508 0.09 7.25 17.06 9.91
5/28/2022 7:30:00 AM 13.06 55.508 0.09 7.28 17.04 9.92
5/28/2022 7:45:00 AM 13.06 55.508 0.09 7.3 16.68 9.93
5/28/2022 8:00:00 AM 13.06 55.508 0.089 7.3 16.21 9.94
5/28/2022 8:15:00 AM 13.12 55.616 0.089 7.33 16.35 9.97
5/28/2022 8:30:00 AM 13.16 55.688 0.089 7.35 16.05 9.98
5/28/2022 8:45:00 AM 13.2 55.76 0.089 7.37 15.7 9.98
5/28/2022 9:00:00 AM 13.23 55.814 0.089 7.36 16.51 9.97
5/28/2022 9:15:00 AM 13.27 55.886 0.089 7.39 16.51 9.98
5/28/2022 9:30:00 AM 13.3 55.94 0.088 7.4 16.26 9.98
5/28/2022 9:45:00 AM 13.31 55.958 0.088 7.38 15.85 9.96
5/28/2022 10:00:00 AM 13.31 55.958 0.088 7.4 16.2 9.95
5/28/2022 10:15:00 AM 13.32 55.976 0.087 7.41 15.88 9.95
5/28/2022 10:30:00 AM 13.33 55.994 0.088 7.4 15.48 9.95
5/28/2022 10:45:00 AM 13.35 56.03 0.088 7.39 15.71 9.96
5/28/2022 11:00:00 AM 13.39 56.102 0.087 7.41 16.01 9.96
5/28/2022 11:15:00 AM 13.37 56.066 0.087 7.4 15.74 9.92
5/28/2022 11:30:00 AM 13.33 55.994 0.087 7.4 15.62 9.9
5/28/2022 11:45:00 AM 13.29 55.922 0.087 7.38 16.21 9.89
5/28/2022 12:00:00 PM 13.31 55.958 0.087 7.38 15.79 9.95
5/28/2022 12:15:00 PM 13.37 56.066 0.087 7.38 15.7 9.97
5/28/2022 12:30:00 PM 13.43 56.174 0.087 7.42 15.81 9.99
5/28/2022 12:45:00 PM 13.49 56.282 0.086 7.39 15.6 9.98
5/28/2022 1:00:00 PM 13.52 56.336 0.086 7.42 15.35 9.96
5/28/2022 1:15:00 PM 13.57 56.426 0.086 7.43 15.71 9.95
5/28/2022 1:30:00 PM 13.55 56.39 0.086 7.41 14.93 9.9
5/28/2022 1:45:00 PM 13.65 56.57 0.086 7.38 14.96 9.94
5/28/2022 2:00:00 PM 13.76 56.768 0.086 7.44 14.83 9.93
5/28/2022 2:15:00 PM 13.84 56.912 0.085 7.45 15.35 9.91
5/28/2022 2:30:00 PM 14 57.2 0.085 7.44 15.67 9.85
5/28/2022 2:45:00 PM 14.01 57.218 0.085 7.4 15.02 9.82
5/28/2022 3:00:00 PM 14.04 57.272 0.085 7.42 15.19 9.83
5/28/2022 3:15:00 PM 14.1 57.38 0.085 7.37 14.88 9.83
5/28/2022 3:30:00 PM 14.11 57.398 0.085 7.44 14.87 9.83
5/28/2022 3:45:00 PM 14.1 57.38 0.085 7.41 15.37 9.82
5/28/2022 4:00:00 PM 14.12 57.416 0.085 7.43 15.15 9.82
5/28/2022 4:15:00 PM 14.1 57.38 0.085 7.42 15.08 9.79
5/28/2022 4:30:00 PM 14.07 57.326 0.085 7.42 15.37 9.78
5/28/2022 4:45:00 PM 14.06 57.308 0.084 7.41 14.98 9.8
5/28/2022 5:00:00 PM 14.07 57.326 0.084 7.4 15.26 9.81
5/28/2022 5:15:00 PM 14.07 57.326 0.084 7.4 15.13 9.79
5/28/2022 5:30:00 PM 14.04 57.272 0.084 7.35 15.74 9.77
5/28/2022 5:45:00 PM 14.03 57.254 0.084 7.4 15.42 9.78
5/28/2022 6:00:00 PM 14.03 57.254 0.084 7.38 15.16 9.78
5/28/2022 6:15:00 PM 14.01 57.218 0.084 7.32 15.27 9.75
5/28/2022 6:30:00 PM 13.98 57.164 0.084 7.28 15.36 9.74
5/28/2022 6:45:00 PM 13.96 57.128 0.084 7.3 14.33 9.75
5/28/2022 7:00:00 PM 13.92 57.056 0.084 7.35 13.52 9.74
5/28/2022 7:15:00 PM 13.89 57.002 0.084 7.36 13.42 9.75
5/28/2022 7:30:00 PM 13.85 56.93 0.084 7.3 13.38 9.75
5/28/2022 7:45:00 PM 13.81 56.858 0.084 7.32 13.52 9.74
5/28/2022 8:00:00 PM 13.78 56.804 0.084 7.3 13.46 9.75
5/28/2022 8:15:00 PM 13.74 56.732 0.084 7.3 13.61 9.75
5/28/2022 8:30:00 PM 13.69 56.642 0.084 7.31 13.73 9.75
5/28/2022 8:45:00 PM 13.65 56.57 0.084 7.29 14 9.76
5/28/2022 9:00:00 PM 13.6 56.48 0.084 7.31 14.65 9.77
5/28/2022 9:15:00 PM 13.56 56.408 0.084 7.3 14.01 9.78
5/28/2022 9:30:00 PM 13.53 56.354 0.084 7.3 14.22 9.79
5/28/2022 9:45:00 PM 13.48 56.264 0.084 7.27 14.38 9.81
5/28/2022 10:00:00 PM 13.43 56.174 0.084 7.25 14.19 9.82
5/28/2022 10:15:00 PM 13.39 56.102 0.084 7.29 16.11 9.82
5/28/2022 10:30:00 PM 13.33 55.994 0.084 7.3 14.62 9.84
5/28/2022 10:45:00 PM 13.27 55.886 0.084 7.29 13.89 9.84
5/28/2022 11:00:00 PM 13.22 55.796 0.084 7.31 14.5 9.86
5/28/2022 11:15:00 PM 13.16 55.688 0.084 7.28 13.83 9.88
5/28/2022 11:30:00 PM 13.1 55.58 0.084 7.29 14.43 9.89
5/28/2022 11:45:00 PM 13.04 55.472 0.084 7.29 13.99 9.91
5/29/2022 12:00:00 AM 12.98 55.364 0.084 7.31 14.37 9.93
5/29/2022 12:15:00 AM 12.92 55.256 0.084 7.3 14.16 9.95
5/29/2022 12:30:00 AM 12.86 55.148 0.084 7.31 14.12 9.97
5/29/2022 12:45:00 AM 12.8 55.04 0.084 7.3 14.78 9.97
5/29/2022 1:00:00 AM 12.74 54.932 0.084 7.29 14.29 9.98
5/29/2022 1:15:00 AM 12.69 54.842 0.084 7.33 14.07 10
5/29/2022 1:30:00 AM 12.65 54.77 0.084 7.28 14.27 10
5/29/2022 1:45:00 AM 12.61 54.698 0.084 7.25 13.99 10.01
5/29/2022 2:00:00 AM 12.58 54.644 0.084 7.3 13.7 10.03
5/29/2022 2:15:00 AM 12.55 54.59 0.084 7.29 14.35 10.04
5/29/2022 2:30:00 AM 12.52 54.536 0.084 7.26 14.41 10.05
5/29/2022 2:45:00 AM 12.49 54.482 0.084 7.3 13.53 10.05
5/29/2022 3:00:00 AM 12.46 54.428 0.084 7.3 13.16 10.06
5/29/2022 3:15:00 AM 12.42 54.356 0.084 7.3 13.16 10.08
5/29/2022 3:30:00 AM 12.39 54.302 0.084 7.3 13.07 10.08
5/29/2022 3:45:00 AM 12.36 54.248 0.084 7.3 13.06 10.09
5/29/2022 4:00:00 AM 12.32 54.176 0.084 7.3 13.2 10.1
5/29/2022 4:15:00 AM 12.29 54.122 0.084 7.3 12.45 10.11
5/29/2022 4:30:00 AM 12.25 54.05 0.084 7.29 12.66 10.13
5/29/2022 4:45:00 AM 12.21 53.978 0.083 7.29 15.3 10.14
5/29/2022 5:00:00 AM 12.17 53.906 0.083 7.3 13.18 10.15
5/29/2022 5:15:00 AM 12.13 53.834 0.083 7.29 13.36 10.16
5/29/2022 5:30:00 AM 12.09 53.762 0.083 7.28 13.08 10.18
5/29/2022 5:45:00 AM 12.05 53.69 0.083 7.23 13.3 10.18
5/29/2022 6:00:00 AM 12.01 53.618 0.083 7.3 13.17 10.19
5/29/2022 6:15:00 AM 11.97 53.546 0.083 7.24 13.82 10.22
5/29/2022 6:30:00 AM 11.94 53.492 0.083 7.23 13.15 10.23
5/29/2022 6:45:00 AM 11.91 53.438 0.083 7.26 13.07 10.25
5/29/2022 7:00:00 AM 11.89 53.402 0.083 7.32 13.21 10.27
5/29/2022 7:15:00 AM 11.87 53.366 0.083 7.32 14 10.28
5/29/2022 7:30:00 AM 11.86 53.348 0.083 7.25 13.39 10.3
5/29/2022 7:45:00 AM 11.86 53.348 0.083 7.34 14.75 10.33
5/29/2022 8:00:00 AM 11.86 53.348 0.083 7.29 13.21 10.34
5/29/2022 8:15:00 AM 11.86 53.348 0.083 7.35 12.59 10.36
5/29/2022 8:30:00 AM 11.88 53.384 0.083 7.35 12.39 10.37
5/29/2022 8:45:00 AM 11.91 53.438 0.082 7.37 13.28 10.39
5/29/2022 9:00:00 AM 12.03 53.654 0.082 7.38 12.67 10.4
5/29/2022 9:15:00 AM 12.18 53.924 0.082 7.35 12.61 10.38
5/29/2022 9:30:00 AM 12.33 54.194 0.082 7.32 12.2 10.34
5/29/2022 9:45:00 AM 12.47 54.446 0.082 7.39 12.46 10.3
5/29/2022 10:00:00 AM 12.62 54.716 0.082 7.31 12.31 10.26
5/29/2022 10:15:00 AM 12.77 54.986 0.082 7.31 12.89 10.25
5/29/2022 10:30:00 AM 13 55.4 0.082 7.4 13.04 10.23
5/29/2022 10:45:00 AM 13.15 55.67 0.082 7.43 1254.61 10.2
5/29/2022 11:00:00 AM 13.34 56.012 0.082 7.36 14.39 10.16
5/29/2022 11:15:00 AM 13.45 56.21 0.082 7.43 11.98 10.15
5/29/2022 11:30:00 AM 13.63 56.534 0.082 7.36 17.25 10.1
5/29/2022 11:45:00 AM 13.77 56.786 0.082 7.36 11.85 10.05
5/29/2022 12:00:00 PM 13.85 56.93 0.082 7.41 11.52 10.02
5/29/2022 12:15:00 PM 13.83 56.894 0.082 7.36 12.21 9.99
5/29/2022 12:30:00 PM 13.88 56.984 0.082 7.35 12.21 9.99
5/29/2022 12:45:00 PM 14.01 57.218 0.081 7.4 11.93 9.95
5/29/2022 1:00:00 PM 14.1 57.38 0.081 7.41 11.39 9.94
5/29/2022 1:15:00 PM 14.16 57.488 0.081 7.42 11.98 9.91
5/29/2022 1:30:00 PM 14.2 57.56 0.081 7.41 11.75 9.89
5/29/2022 1:45:00 PM 14.25 57.65 0.081 7.37 11.62 9.87
5/29/2022 2:00:00 PM 14.29 57.722 0.081 7.39 14.86 9.86
5/29/2022 2:15:00 PM 14.33 57.794 0.081 7.4 11.85 9.85
5/29/2022 2:30:00 PM 14.37 57.866 0.081 7.37 11.45 9.83
5/29/2022 2:45:00 PM 14.42 57.956 0.081 7.35 11.51 9.81
5/29/2022 3:00:00 PM 14.47 58.046 0.081 7.39 11.53 9.8
5/29/2022 3:15:00 PM 14.42 57.956 0.081 7.39 11.76 9.77
5/29/2022 3:30:00 PM 14.44 57.992 0.081 7.39 11.73 9.78
5/29/2022 3:45:00 PM 14.45 58.01 0.081 7.33 11.37 9.77
5/29/2022 4:00:00 PM 14.48 58.064 0.081 7.37 12.3 9.77
5/29/2022 4:15:00 PM 14.48 58.064 0.081 7.36 11.43 9.75
5/29/2022 4:30:00 PM 14.47 58.046 0.081 7.33 11.57 9.74
5/29/2022 4:45:00 PM 14.45 58.01 0.081 7.34 11.73 9.73
5/29/2022 5:00:00 PM 14.42 57.956 0.081 7.27 12.2 9.72
5/29/2022 5:15:00 PM 14.39 57.902 0.081 7.32 11.51 9.72
5/29/2022 5:30:00 PM 14.36 57.848 0.081 7.32 11.06 9.72
5/29/2022 5:45:00 PM 14.32 57.776 0.081 7.27 10.44 9.71
5/29/2022 6:00:00 PM 14.29 57.722 0.081 7.31 11.46 9.7
5/29/2022 6:15:00 PM 14.27 57.686 0.081 7.3 11.03 9.7
5/29/2022 6:30:00 PM 14.25 57.65 0.081 7.32 11.61 9.7
5/29/2022 6:45:00 PM 14.22 57.596 0.082 7.28 10.83 9.71
5/29/2022 7:00:00 PM 14.19 57.542 0.082 7.28 11.78 9.7
5/29/2022 7:15:00 PM 14.16 57.488 0.082 7.29 10.98 9.7
5/29/2022 7:30:00 PM 14.13 57.434 0.082 7.27 13.03 9.7
5/29/2022 7:45:00 PM 14.1 57.38 0.082 7.22 11.47 9.7
5/29/2022 8:00:00 PM 14.06 57.308 0.082 7.28 11.36 9.7
5/29/2022 8:15:00 PM 14.02 57.236 0.082 7.27 11.94 9.71
5/29/2022 8:30:00 PM 13.98 57.164 0.082 7.27 12.14 9.7
5/29/2022 8:45:00 PM 13.94 57.092 0.082 7.23 12.02 9.71
5/29/2022 9:00:00 PM 13.9 57.02 0.082 7.26 12.32 9.71
5/29/2022 9:15:00 PM 13.86 56.948 0.082 7.26 12.41 9.73
5/29/2022 9:30:00 PM 13.81 56.858 0.082 7.26 12.13 9.74
5/29/2022 9:45:00 PM 13.77 56.786 0.082 7.28 12.01 9.75
5/29/2022 10:00:00 PM 13.73 56.714 0.082 7.22 12.71 9.76
5/29/2022 10:15:00 PM 13.7 56.66 0.082 7.21 12.36 9.77
5/29/2022 10:30:00 PM 13.66 56.588 0.082 7.24 11.73 9.79
5/29/2022 10:45:00 PM 13.61 56.498 0.082 7.18 12.11 9.8
5/29/2022 11:00:00 PM 13.57 56.426 0.082 7.27 12.29 9.81
5/29/2022 11:15:00 PM 13.53 56.354 0.082 7.21 12.57 9.82
5/29/2022 11:30:00 PM 13.48 56.264 0.082 7.27 11.8 9.84
5/29/2022 11:45:00 PM 13.44 56.192 0.082 7.21 11.67 9.84
5/30/2022 12:00:00 AM 13.4 56.12 0.082 7.24 12.52 9.86
5/30/2022 12:15:00 AM 13.35 56.03 0.082 7.26 12.43 9.86
5/30/2022 12:30:00 AM 13.31 55.958 0.082 7.27 11.53 9.87
5/30/2022 12:45:00 AM 13.27 55.886 0.082 7.25 11.83 9.88
5/30/2022 1:00:00 AM 13.22 55.796 0.082 7.23 11.9 9.89
5/30/2022 1:15:00 AM 13.18 55.724 0.082 7.29 11.95 9.9
5/30/2022 1:30:00 AM 13.14 55.652 0.082 7.33 12.11 9.92
5/30/2022 1:45:00 AM 13.1 55.58 0.082 7.28 11.36 9.92
5/30/2022 2:00:00 AM 13.06 55.508 0.082 7.3 12.45 9.93
5/30/2022 2:15:00 AM 13.01 55.418 0.082 7.28 11.94 9.95
5/30/2022 2:30:00 AM 12.97 55.346 0.082 7.28 11.7 9.96
5/30/2022 2:45:00 AM 12.93 55.274 0.082 7.28 11.69 9.97
5/30/2022 3:00:00 AM 12.89 55.202 0.082 7.33 12.31 9.98
5/30/2022 3:15:00 AM 12.84 55.112 0.082 7.28 11.74 9.99
5/30/2022 3:30:00 AM 12.8 55.04 0.082 7.24 11.81 10
5/30/2022 3:45:00 AM 12.75 54.95 0.082 7.29 12.38 10.01
5/30/2022 4:00:00 AM 12.71 54.878 0.082 7.26 12.57 10.02
5/30/2022 4:15:00 AM 12.67 54.806 0.082 7.24 12.36 10.03
5/30/2022 4:30:00 AM 12.64 54.752 0.082 7.26 11.97 10.04
5/30/2022 4:45:00 AM 12.6 54.68 0.082 7.25 12.18 10.04
5/30/2022 5:00:00 AM 12.57 54.626 0.082 7.16 11.81 10.05
5/30/2022 5:15:00 AM 12.53 54.554 0.082 7.3 12.33 10.07
5/30/2022 5:30:00 AM 12.5 54.5 0.082 7.18 12.85 10.08
5/30/2022 5:45:00 AM 12.47 54.446 0.082 7.2 12.84 10.09
5/30/2022 6:00:00 AM 12.46 54.428 0.082 7.17 12.35 10.1
5/30/2022 6:15:00 AM 12.44 54.392 0.082 7.24 12.61 10.12
5/30/2022 6:30:00 AM 12.43 54.374 0.082 7.25 12.28 10.13
5/30/2022 6:45:00 AM 12.43 54.374 0.082 7.3 12.23 10.15
5/30/2022 7:00:00 AM 12.44 54.392 0.082 7.31 13.23 10.16
5/30/2022 7:15:00 AM 12.46 54.428 0.081 7.29 12.38 10.18
5/30/2022 7:30:00 AM 12.46 54.428 0.081 7.28 12.68 10.17
5/30/2022 7:45:00 AM 12.48 54.464 0.081 7.19 13.03 10.17
5/30/2022 8:00:00 AM 12.52 54.536 0.081 7.3 13.08 10.18
5/30/2022 8:15:00 AM 12.58 54.644 0.081 7.3 13.21 10.19
5/30/2022 8:30:00 AM 12.64 54.752 0.081 7.3 13.87 10.18
5/30/2022 8:45:00 AM 12.74 54.932 0.081 7.32 12.84 10.22
5/30/2022 9:00:00 AM 12.78 55.004 0.081 7.26 13.71 10.22
5/30/2022 9:15:00 AM 12.79 55.022 0.081 7.31 12.98 10.2
5/30/2022 9:30:00 AM 12.8 55.04 0.081 7.26 13.48 10.19
5/30/2022 9:45:00 AM 12.91 55.238 0.081 7.27 13.41 10.2
5/30/2022 10:00:00 AM 12.93 55.274 0.081 7.26 13.38 10.18
5/30/2022 10:15:00 AM 13.09 55.562 0.081 7.27 13.32 10.17
5/30/2022 10:30:00 AM 13.29 55.922 0.081 7.3 13.52 10.13
5/30/2022 10:45:00 AM 13.53 56.354 0.081 7.3 13.45 10.11
5/30/2022 11:00:00 AM 13.83 56.894 0.081 7.37 14.26 10.04
5/30/2022 11:15:00 AM 14.06 57.308 0.081 7.31 14.04 9.99
5/30/2022 11:30:00 AM 14.27 57.686 0.081 7.38 12.65 9.94
5/30/2022 11:45:00 AM 14.46 58.028 0.081 7.33 13.64 9.88
5/30/2022 12:00:00 PM 14.61 58.298 0.081 7.39 13.54 9.84
5/30/2022 12:15:00 PM 14.75 58.55 0.081 7.38 13.55 9.81
5/30/2022 12:30:00 PM 14.89 58.802 0.081 7.31 13.93 9.78
5/30/2022 12:45:00 PM 15.02 59.036 0.081 7.33 13.77 9.74
5/30/2022 1:00:00 PM 15.11 59.198 0.081 7.39 13.66 9.7
5/30/2022 1:15:00 PM 15.18 59.324 0.081 7.34 13.74 9.68
5/30/2022 1:30:00 PM 15.26 59.468 0.081 7.38 13.81 9.65
5/30/2022 1:45:00 PM 15.32 59.576 0.08 7.39 12.85 9.63
5/30/2022 2:00:00 PM 15.39 59.702 0.08 7.37 13.85 9.61
5/30/2022 2:15:00 PM 15.44 59.792 0.08 7.32 13.79 9.59
5/30/2022 2:30:00 PM 15.5 59.9 0.08 7.33 13.64 9.58
5/30/2022 2:45:00 PM 15.56 60.008 0.08 7.32 13.83 9.56
5/30/2022 3:00:00 PM 15.62 60.116 0.08 7.32 13.73 9.53
5/30/2022 3:15:00 PM 15.67 60.206 0.08 7.29 13.76 9.51
5/30/2022 3:30:00 PM 15.71 60.278 0.08 7.36 13.79 9.5
5/30/2022 3:45:00 PM 15.73 60.314 0.08 7.31 13.78 9.48
5/30/2022 4:00:00 PM 15.77 60.386 0.08 7.25 14.17 9.46
5/30/2022 4:15:00 PM 15.77 60.386 0.08 7.33 13.77 9.45
5/30/2022 4:30:00 PM 15.75 60.35 0.081 7.34 14.05 9.45
5/30/2022 4:45:00 PM 15.75 60.35 0.081 7.24 14.23 9.44
5/30/2022 5:00:00 PM 15.74 60.332 0.081 7.31 13.96 9.43
5/30/2022 5:15:00 PM 15.72 60.296 0.081 7.31 14.33 9.43
5/30/2022 5:30:00 PM 15.7 60.26 0.081 7.32 13.87 9.41
5/30/2022 5:45:00 PM 15.68 60.224 0.081 7.26 13.96 9.4
5/30/2022 6:00:00 PM 15.66 60.188 0.081 7.22 13.84 9.39
5/30/2022 6:15:00 PM 15.65 60.17 0.081 7.26 13.6 9.39
5/30/2022 6:30:00 PM 15.64 60.152 0.081 7.2 14.08 9.4
5/30/2022 6:45:00 PM 15.61 60.098 0.081 7.25 13.49 9.39
5/30/2022 7:00:00 PM 15.58 60.044 0.081 7.25 13.32 9.38
5/30/2022 7:15:00 PM 15.55 59.99 0.082 7.24 13.03 9.38
5/30/2022 7:30:00 PM 15.52 59.936 0.082 7.2 13.27 9.38
5/30/2022 7:45:00 PM 15.49 59.882 0.082 7.2 13.15 9.38
5/30/2022 8:00:00 PM 15.46 59.828 0.082 7.2 13.43 9.38
5/30/2022 8:15:00 PM 15.43 59.774 0.082 7.15 12.83 9.38
5/30/2022 8:30:00 PM 15.4 59.72 0.082 7.2 13.21 9.38
5/30/2022 8:45:00 PM 15.36 59.648 0.082 7.19 13 9.37
5/30/2022 9:00:00 PM 15.32 59.576 0.082 7.12 13.14 9.37
5/30/2022 9:15:00 PM 15.29 59.522 0.082 7.17 13.54 9.38
5/30/2022 9:30:00 PM 15.25 59.45 0.082 7.11 13.55 9.39
5/30/2022 9:45:00 PM 15.22 59.396 0.082 7.18 13.25 9.4
5/30/2022 10:00:00 PM 15.18 59.324 0.082 7.17 13.88 9.41
5/30/2022 10:15:00 PM 15.15 59.27 0.082 7.2 16 9.42
5/30/2022 10:30:00 PM 15.11 59.198 0.083 7.26 13.99 9.43
5/30/2022 10:45:00 PM 15.07 59.126 0.082 7.19 14.69 9.44
5/30/2022 11:00:00 PM 15.04 59.072 0.083 7.13 13.07 9.45
5/30/2022 11:15:00 PM 15 59 0.083 7.19 12.86 9.46
5/30/2022 11:30:00 PM 14.97 58.946 0.083 7.19 13.97 9.47
5/30/2022 11:45:00 PM 14.92 58.856 0.083 7.2 13.02 9.48
5/31/2022 12:00:00 AM 14.88 58.784 0.083 7.19 13.26 9.49
5/31/2022 12:15:00 AM 14.84 58.712 0.083 7.2 13.3 9.5
5/31/2022 12:30:00 AM 14.8 58.64 0.083 7.2 13.71 9.52
5/31/2022 12:45:00 AM 14.76 58.568 0.083 7.16 13.78 9.52
5/31/2022 1:00:00 AM 14.72 58.496 0.083 7.21 13.43 9.53
5/31/2022 1:15:00 AM 14.68 58.424 0.083 7.2 14.09 9.54
5/31/2022 1:30:00 AM 14.65 58.37 0.083 7.21 13.57 9.54
5/31/2022 1:45:00 AM 14.61 58.298 0.083 7.2 13.65 9.54
5/31/2022 2:00:00 AM 14.57 58.226 0.083 7.21 13.47 9.55
5/31/2022 2:15:00 AM 14.54 58.172 0.083 7.21 13.15 9.56
5/31/2022 2:30:00 AM 14.5 58.1 0.083 7.17 13.05 9.58
5/31/2022 2:45:00 AM 14.46 58.028 0.083 7.12 12.96 9.58
5/31/2022 3:00:00 AM 14.43 57.974 0.083 7.15 13.6 9.6
5/31/2022 3:15:00 AM 14.39 57.902 0.083 7.17 13.28 9.61
5/31/2022 3:30:00 AM 14.36 57.848 0.083 7.17 12.86 9.61
5/31/2022 3:45:00 AM 14.32 57.776 0.083 7.17 13.63 9.63
5/31/2022 4:00:00 AM 14.29 57.722 0.083 7.16 13.71 9.64
5/31/2022 4:15:00 AM 14.25 57.65 0.083 7.22 13.59 9.65
5/31/2022 4:30:00 AM 14.21 57.578 0.083 7.22 13.35 9.65
5/31/2022 4:45:00 AM 14.18 57.524 0.082 7.16 13.45 9.67
5/31/2022 5:00:00 AM 14.14 57.452 0.082 7.21 14.05 9.68
5/31/2022 5:15:00 AM 14.1 57.38 0.082 7.21 14.43 9.68
5/31/2022 5:30:00 AM 14.07 57.326 0.082 7.23 15.12 9.69
5/31/2022 5:45:00 AM 14.04 57.272 0.082 7.22 14.49 9.71
5/31/2022 6:00:00 AM 14.02 57.236 0.082 7.19 14.05 9.72
5/31/2022 6:15:00 AM 14 57.2 0.082 7.17 14.25 9.73
5/31/2022 6:30:00 AM 13.98 57.164 0.082 7.23 14.21 9.74
5/31/2022 6:45:00 AM 13.98 57.164 0.082 7.31 14.44 9.76
5/31/2022 7:00:00 AM 13.99 57.182 0.082 7.19 13.44 9.78
5/31/2022 7:15:00 AM 13.99 57.182 0.082 7.26 13.94 9.77
5/31/2022 7:30:00 AM 13.99 57.182 0.082 7.26 14.22 9.78
5/31/2022 7:45:00 AM 14.02 57.236 0.082 7.26 14.31 9.79
5/31/2022 8:00:00 AM 14.05 57.29 0.082 7.28 13.71 9.8
5/31/2022 8:15:00 AM 14.1 57.38 0.082 7.27 14.43 9.8
5/31/2022 8:30:00 AM 14.16 57.488 0.082 7.27 13.41 9.81
5/31/2022 8:45:00 AM 14.23 57.614 0.082 7.29 14.12 9.81
5/31/2022 9:00:00 AM 14.31 57.758 0.082 7.3 14.01 9.8
5/31/2022 9:15:00 AM 14.4 57.92 0.082 7.25 14.01 9.8
5/31/2022 9:30:00 AM 14.5 58.1 0.082 7.17 14.77 9.79
5/31/2022 9:45:00 AM 14.64 58.352 0.082 7.3 13.94 9.78
5/31/2022 10:00:00 AM 14.78 58.604 0.082 7.3 14.33 9.76
5/31/2022 10:15:00 AM 14.93 58.874 0.082 7.29 14.28 9.74
5/31/2022 10:30:00 AM 15.1 59.18 0.082 7.31 14.93 9.7
5/31/2022 10:45:00 AM 15.33 59.594 0.082 7.32 14.56 9.66
5/31/2022 11:00:00 AM 15.4 59.72 0.082 7.29 14.54 9.62
5/31/2022 11:15:00 AM 15.59 60.062 0.082 7.41 14.84 9.6
5/31/2022 11:30:00 AM 15.72 60.296 0.082 7.35 14.24 9.57
5/31/2022 11:45:00 AM 15.86 60.548 0.081 7.32 13.47 9.54
5/31/2022 12:00:00 PM 15.99 60.782 0.081 7.36 13.76 9.5
5/31/2022 12:15:00 PM 15.99 60.782 0.081 7.29 14.09 9.47
5/31/2022 12:30:00 PM 16.11 60.998 0.081 7.31 14.65 9.48
5/31/2022 12:45:00 PM 16.27 61.286 0.081 7.38 14.24 9.44
5/31/2022 1:00:00 PM 16.2 61.16 0.081 7.37 13.52 9.44
5/31/2022 1:15:00 PM 16.26 61.268 0.081 7.4 15.39 9.45
5/31/2022 1:30:00 PM 16.47 61.646 0.081 7.41 16.86 9.41
5/31/2022 1:45:00 PM 16.52 61.736 0.081 7.33 16.29 9.36
5/31/2022 2:00:00 PM 16.55 61.79 0.081 7.38 14.56 9.35
5/31/2022 2:15:00 PM 16.64 61.952 0.081 7.37 14.7 9.33
5/31/2022 2:30:00 PM 16.63 61.934 0.081 7.37 14.55 9.3
5/31/2022 2:45:00 PM 16.67 62.006 0.081 7.39 15.03 9.31
5/31/2022 3:00:00 PM 16.7 62.06 0.081 7.37 14.46 9.28
5/31/2022 3:15:00 PM 16.78 62.204 0.081 7.4 14.27 9.29
5/31/2022 3:30:00 PM 16.77 62.186 0.081 7.34 14.79 9.26
5/31/2022 3:45:00 PM 16.81 62.258 0.081 7.36 14.73 9.27
5/31/2022 4:00:00 PM 16.84 62.312 0.081 7.35 14.67 9.24
5/31/2022 4:15:00 PM 16.86 62.348 0.081 7.32 15.34 9.22
5/31/2022 4:30:00 PM 16.87 62.366 0.081 7.33 15.01 9.2
5/31/2022 4:45:00 PM 16.85 62.33 0.081 7.32 15.13 9.19
5/31/2022 5:00:00 PM 16.83 62.294 0.081 7.34 15.37 9.18
5/31/2022 5:15:00 PM 16.81 62.258 0.081 7.3 14.53 9.17
5/31/2022 5:30:00 PM 16.77 62.186 0.081 7.34 14.59 9.16
5/31/2022 5:45:00 PM 16.73 62.114 0.081 7.22 14.23 9.15
5/31/2022 6:00:00 PM 16.67 62.006 0.082 7.28 15.08 9.13
5/31/2022 6:15:00 PM 16.62 61.916 0.082 7.25 14.52 9.14
5/31/2022 6:30:00 PM 16.61 61.898 0.082 7.25 14.86 9.16
5/31/2022 6:45:00 PM 16.57 61.826 0.082 7.25 14.4 9.15
5/31/2022 7:00:00 PM 16.54 61.772 0.082 7.16 14.48 9.15
5/31/2022 7:15:00 PM 16.5 61.7 0.082 7.15 14.82 9.14
5/31/2022 7:30:00 PM 16.46 61.628 0.082 7.2 14.55 9.15
5/31/2022 7:45:00 PM 16.43 61.574 0.082 7.19 14.7 9.15
5/31/2022 8:00:00 PM 16.4 61.52 0.082 7.13 14.58 9.14
5/31/2022 8:15:00 PM 16.35 61.43 0.082 7.14 14.88 9.14
5/31/2022 8:30:00 PM 16.31 61.358 0.082 7.19 15.07 9.15
5/31/2022 8:45:00 PM 16.26 61.268 0.082 7.16 14.9 9.15
5/31/2022 9:00:00 PM 16.22 61.196 0.082 7.15 16.31 9.15
5/31/2022 9:15:00 PM 16.19 61.142 0.083 7.15 16.1 9.16
5/31/2022 9:30:00 PM 16.15 61.07 0.083 7.14 15.53 9.16
5/31/2022 9:45:00 PM 16.11 60.998 0.083 7.14 15.64 9.17
5/31/2022 10:00:00 PM 16.07 60.926 0.083 7.16 15.39 9.18
5/31/2022 10:15:00 PM 16.03 60.854 0.083 7.09 14.98 9.19
5/31/2022 10:30:00 PM 15.99 60.782 0.083 7.16 15.13 9.2
5/31/2022 10:45:00 PM 15.95 60.71 0.083 7.18 15.14 9.21
5/31/2022 11:00:00 PM 15.9 60.62 0.083 7.17 15.15 9.22
5/31/2022 11:15:00 PM 15.86 60.548 0.083 7.18 15.11 9.23
5/31/2022 11:30:00 PM 15.82 60.476 0.083 7.16 14.9 9.24
5/31/2022 11:45:00 PM 15.77 60.386 0.083 7.19 15.48 9.25
6/1/2022 12:00:00 AM 15.73 60.314 0.083 7.11 15.5 9.27
6/1/2022 12:15:00 AM 15.7 60.26 0.083 7.22 15.49 9.28
6/1/2022 12:30:00 AM 15.66 60.188 0.083 7.2 15.49 9.29
6/1/2022 12:45:00 AM 15.62 60.116 0.083 7.22 15.5 9.29
6/1/2022 1:00:00 AM 15.58 60.044 0.083 7.18 15.36 9.3
6/1/2022 1:15:00 AM 15.54 59.972 0.083 7.24 15.72 9.32
6/1/2022 1:30:00 AM 15.5 59.9 0.083 7.21 15.8 9.33
6/1/2022 1:45:00 AM 15.46 59.828 0.083 7.24 15.97 9.33
6/1/2022 2:00:00 AM 15.42 59.756 0.083 7.22 15.53 9.34
6/1/2022 2:15:00 AM 15.39 59.702 0.083 7.22 15.99 9.35
6/1/2022 2:30:00 AM 15.36 59.648 0.083 7.23 16.21 9.35
6/1/2022 2:45:00 AM 15.33 59.594 0.083 7.22 15.55 9.35
6/1/2022 3:00:00 AM 15.29 59.522 0.083 7.24 17.08 9.36
6/1/2022 3:15:00 AM 15.26 59.468 0.083 7.16 16.15 9.37
6/1/2022 3:30:00 AM 15.23 59.414 0.083 7.24 16.17 9.37
6/1/2022 3:45:00 AM 15.2 59.36 0.083 7.21 16.27 9.37
6/1/2022 4:00:00 AM 15.17 59.306 0.083 7.21 16.51 9.39
6/1/2022 4:15:00 AM 15.13 59.234 0.083 7.21 17.12 9.39
6/1/2022 4:30:00 AM 15.1 59.18 0.083 7.21 17.74 9.4
6/1/2022 4:45:00 AM 15.07 59.126 0.083 7.21 16.39 9.41
6/1/2022 5:00:00 AM 15.04 59.072 0.083 7.21 15.75 9.41
6/1/2022 5:15:00 AM 15.01 59.018 0.083 7.21 16.26 9.42
6/1/2022 5:30:00 AM 14.98 58.964 0.083 7.22 16.37 9.44
6/1/2022 5:45:00 AM 14.94 58.892 0.083 7.24 16.61 9.44
6/1/2022 6:00:00 AM 14.91 58.838 0.083 7.22 16.78 9.46
6/1/2022 6:15:00 AM 14.89 58.802 0.083 7.19 16.9 9.47
6/1/2022 6:30:00 AM 14.87 58.766 0.083 7.17 16.52 9.49
6/1/2022 6:45:00 AM 14.86 58.748 0.083 7.21 16.16 9.5
6/1/2022 7:00:00 AM 14.85 58.73 0.083 7.23 17.2 9.51
6/1/2022 7:15:00 AM 14.85 58.73 0.083 7.15 17.26 9.52
6/1/2022 7:30:00 AM 14.86 58.748 0.083 7.23 17.35 9.53
6/1/2022 7:45:00 AM 14.88 58.784 0.083 7.23 17.23 9.54
6/1/2022 8:00:00 AM 14.92 58.856 0.082 7.19 17.4 9.55
6/1/2022 8:15:00 AM 14.97 58.946 0.082 7.23 17.31 9.55
6/1/2022 8:30:00 AM 15.03 59.054 0.082 7.24 17.96 9.55
6/1/2022 8:45:00 AM 15.1 59.18 0.082 7.25 16.96 9.55
6/1/2022 9:00:00 AM 15.18 59.324 0.082 7.25 17.25 9.54
6/1/2022 9:15:00 AM 15.28 59.504 0.082 7.26 18.15 9.54
6/1/2022 9:30:00 AM 15.39 59.702 0.082 7.27 17.27 9.54
6/1/2022 9:45:00 AM 15.52 59.936 0.082 7.28 17.59 9.53
6/1/2022 10:00:00 AM 15.65 60.17 0.082 7.29 17.02 9.51
6/1/2022 10:15:00 AM 15.8 60.44 0.082 7.3 17.67 9.49
6/1/2022 10:30:00 AM 15.96 60.728 0.082 7.31 16.91 9.47
6/1/2022 10:45:00 AM 16.11 60.998 0.082 7.33 17.17 9.44
6/1/2022 11:00:00 AM 16.37 61.466 0.082 7.33 17.47 9.4
6/1/2022 11:15:00 AM 16.41 61.538 0.082 7.3 17.04 9.34
6/1/2022 11:30:00 AM 16.33 61.394 0.082 7.33 17.7 9.31
6/1/2022 11:45:00 AM 16.21 61.178 0.082 7.32 17.6 9.3
6/1/2022 12:00:00 PM 16.33 61.394 0.082 7.33 17.19 9.37
6/1/2022 12:15:00 PM 16.47 61.646 0.082 7.31 17.24 9.33
6/1/2022 12:30:00 PM 16.41 61.538 0.082 7.33 17.73 9.31
6/1/2022 12:45:00 PM 16.48 61.664 0.082 7.34 17.64 9.31
6/1/2022 1:00:00 PM 16.71 62.078 0.082 7.37 18.39 9.32
6/1/2022 1:15:00 PM 16.86 62.348 0.082 7.36 16.65 9.29
6/1/2022 1:30:00 PM 16.94 62.492 0.081 7.37 17.29 9.26
6/1/2022 1:45:00 PM 17.04 62.672 0.081 7.37 17.96 9.23
6/1/2022 2:00:00 PM 17.1 62.78 0.081 7.37 17.71 9.2
6/1/2022 2:15:00 PM 17.13 62.834 0.081 7.37 16.19 9.17
6/1/2022 2:30:00 PM 17.22 62.996 0.081 7.35 16.66 9.17
6/1/2022 2:45:00 PM 17.29 63.122 0.081 7.37 15.83 9.15
6/1/2022 3:00:00 PM 17.27 63.086 0.081 7.35 15.12 9.09
6/1/2022 3:15:00 PM 17.22 62.996 0.081 7.32 15.9 9.09
6/1/2022 3:30:00 PM 17.24 63.032 0.081 7.34 16.03 9.11
6/1/2022 3:45:00 PM 17.23 63.014 0.081 7.34 15.61 9.1
6/1/2022 4:00:00 PM 17.23 63.014 0.081 7.29 16.51 9.1
6/1/2022 4:15:00 PM 17.2 62.96 0.082 7.31 17.52 9.08
6/1/2022 4:30:00 PM 17.19 62.942 0.082 7.31 16.16 9.09
6/1/2022 4:45:00 PM 17.19 62.942 0.082 7.3 15.39 9.08
6/1/2022 5:00:00 PM 17.16 62.888 0.082 7.26 15.91 9.04
6/1/2022 5:15:00 PM 17.11 62.798 0.082 7.26 15.74 9.02
6/1/2022 5:30:00 PM 17.04 62.672 0.082 7.23 15.52 8.96
6/1/2022 5:45:00 PM 16.98 62.564 0.082 7.21 16.98 8.93
6/1/2022 6:00:00 PM 16.95 62.51 0.082 7.23 16.43 8.94
6/1/2022 6:15:00 PM 16.89 62.402 0.082 7.23 16.1 8.95
6/1/2022 6:30:00 PM 16.84 62.312 0.082 7.24 15.66 9.02
6/1/2022 6:45:00 PM 16.82 62.276 0.082 7.23 15.5 9.06
6/1/2022 7:00:00 PM 16.78 62.204 0.082 7.24 15.76 9.06
6/1/2022 7:15:00 PM 16.73 62.114 0.083 7.23 15.87 9.05
6/1/2022 7:30:00 PM 16.69 62.042 0.083 7.21 15.54 9.05
6/1/2022 7:45:00 PM 16.66 61.988 0.083 7.2 15.3 9.06
6/1/2022 8:00:00 PM 16.61 61.898 0.083 7.25 15.31 9.05
6/1/2022 8:15:00 PM 16.56 61.808 0.083 7.18 15.88 9.05
6/1/2022 8:30:00 PM 16.51 61.718 0.083 7.16 15.67 9.05
6/1/2022 8:45:00 PM 16.47 61.646 0.083 7.17 15.75 9.05
6/1/2022 9:00:00 PM 16.42 61.556 0.083 7.15 15.9 9.06
6/1/2022 9:15:00 PM 16.36 61.448 0.083 7.13 16.24 9.07
6/1/2022 9:30:00 PM 16.31 61.358 0.083 7.17 16.14 9.08
6/1/2022 9:45:00 PM 16.27 61.286 0.083 7.17 16.27 9.09
6/1/2022 10:00:00 PM 16.23 61.214 0.083 7.18 16.21 9.11
6/1/2022 10:15:00 PM 16.2 61.16 0.083 7.19 15.88 9.11
6/1/2022 10:30:00 PM 16.2 61.16 0.083 7.16 17.75 9.07
6/1/2022 10:45:00 PM 16.2 61.16 0.082 7.15 18.28 9.01
6/1/2022 11:00:00 PM 16.17 61.106 0.082 7.13 19.07 8.99
6/1/2022 11:15:00 PM 16.15 61.07 0.082 7.12 20.75 8.99
6/1/2022 11:30:00 PM 16.12 61.016 0.085 7.12 27.07 8.98
6/1/2022 11:45:00 PM 16.08 60.944 0.087 7.1 28.06 9
6/2/2022 12:00:00 AM 16.04 60.872 0.088 7.14 27.3 9
6/2/2022 12:15:00 AM 16 60.8 0.087 7.14 21.69 9.04
6/2/2022 12:30:00 AM 15.97 60.746 0.086 7.17 19.81 9.05
6/2/2022 12:45:00 AM 15.93 60.674 0.089 7.18 18.59 9.08
6/2/2022 1:00:00 AM 15.89 60.602 0.087 7.17 18.89 9.1
6/2/2022 1:15:00 AM 15.85 60.53 0.086 7.19 18.88 9.12
6/2/2022 1:30:00 AM 15.83 60.494 0.085 7.15 18.66 9.14
6/2/2022 1:45:00 AM 15.8 60.44 0.084 7.14 18.95 9.15
6/2/2022 2:00:00 AM 15.77 60.386 0.089 7.16 18.99 9.17
6/2/2022 2:15:00 AM 15.74 60.332 0.084 7.14 18.78 9.18
6/2/2022 2:30:00 AM 15.72 60.296 0.084 7.16 18.84 9.19
6/2/2022 2:45:00 AM 15.7 60.26 0.083 7.16 18.99 9.2
6/2/2022 3:00:00 AM 15.67 60.206 0.083 7.09 18.06 9.2
6/2/2022 3:15:00 AM 15.65 60.17 0.083 7.07 18.27 9.21
6/2/2022 3:30:00 AM 15.63 60.134 0.083 7.08 17.82 9.21
6/2/2022 3:45:00 AM 15.61 60.098 0.083 7.16 17.4 9.21
6/2/2022 4:00:00 AM 15.59 60.062 0.083 7.04 17.43 9.22
6/2/2022 4:15:00 AM 15.57 60.026 0.083 7.05 17.84 9.22
6/2/2022 4:30:00 AM 15.55 59.99 0.083 7.09 17.32 9.23
6/2/2022 4:45:00 AM 15.53 59.954 0.083 7.09 18.1 9.24
6/2/2022 5:00:00 AM 15.52 59.936 0.083 7.11 18.01 9.24
6/2/2022 5:15:00 AM 15.5 59.9 0.083 7.09 18.48 9.25
6/2/2022 5:30:00 AM 15.48 59.864 0.083 7.13 18.02 9.25
6/2/2022 5:45:00 AM 15.46 59.828 0.083 7.07 18.44 9.26
6/2/2022 6:00:00 AM 15.44 59.792 0.084 7.1 19.15 9.27
6/2/2022 6:15:00 AM 15.42 59.756 0.084 7.09 18.18 9.27
6/2/2022 6:30:00 AM 15.41 59.738 0.084 7.1 17.28 9.28
6/2/2022 6:45:00 AM 15.39 59.702 0.085 7.1 17.73 9.29
6/2/2022 7:00:00 AM 15.39 59.702 0.085 7.08 18.06 9.3
6/2/2022 7:15:00 AM 15.38 59.684 0.085 7.2 17.95 9.3
6/2/2022 7:30:00 AM 15.39 59.702 0.085 7.09 17.81 9.34
6/2/2022 7:45:00 AM 15.39 59.702 0.085 7.09 17.92 9.35
6/2/2022 8:00:00 AM 15.4 59.72 0.086 7.1 17.83 9.36
6/2/2022 8:15:00 AM 15.42 59.756 0.086 7.15 17.7 9.39
6/2/2022 8:30:00 AM 15.44 59.792 0.086 7.16 18.44 9.4
6/2/2022 8:45:00 AM 15.46 59.828 0.086 7.19 17.78 9.41
6/2/2022 9:00:00 AM 15.5 59.9 0.086 7.25 17.25 9.42
6/2/2022 9:15:00 AM 15.51 59.918 0.086 7.27 17.79 9.42
6/2/2022 9:30:00 AM 15.55 59.99 0.086 7.27 17.95 9.44
6/2/2022 9:45:00 AM 15.56 60.008 0.086 7.31 17.77 9.4
6/2/2022 10:00:00 AM 15.53 59.954 0.086 7.28 17.64 9.39
6/2/2022 10:15:00 AM 15.52 59.936 0.085 7.26 16.92 9.39
6/2/2022 10:30:00 AM 15.56 60.008 0.085 7.26 16.49 9.44
6/2/2022 10:45:00 AM 15.6 60.08 0.085 7.29 16.73 9.44
6/2/2022 11:00:00 AM 15.62 60.116 0.085 7.29 16.83 9.42
6/2/2022 11:15:00 AM 15.67 60.206 0.085 7.31 15.79 9.43
6/2/2022 11:30:00 AM 15.71 60.278 0.084 7.33 15.73 9.42
6/2/2022 11:45:00 AM 15.8 60.44 0.084 7.46 16.56 9.44
6/2/2022 12:00:00 PM 15.79 60.422 0.084 7.35 15.87 9.37
6/2/2022 12:15:00 PM 15.8 60.44 0.084 7.34 16.25 9.4
6/2/2022 12:30:00 PM 15.85 60.53 0.084 7.36 16.93 9.39
6/2/2022 12:45:00 PM 15.9 60.62 0.084 7.36 16.48 9.4
6/2/2022 1:00:00 PM 15.96 60.728 0.084 7.37 16.57 9.39
6/2/2022 1:15:00 PM 15.96 60.728 0.084 7.35 16.65 9.37
6/2/2022 1:30:00 PM 15.94 60.692 0.083 7.37 16.78 9.35
6/2/2022 1:45:00 PM 15.9 60.62 0.084 7.33 16.31 9.32
6/2/2022 2:00:00 PM 15.84 60.512 0.084 7.31 16.2 9.28
6/2/2022 2:15:00 PM 15.78 60.404 0.084 7.29 17.01 9.28
6/2/2022 2:30:00 PM 15.77 60.386 0.083 7.3 23.96 9.33
6/2/2022 2:45:00 PM 15.81 60.458 0.083 7.3 16.71 9.37
6/2/2022 3:00:00 PM 15.9 60.62 0.083 7.3 16.56 9.38
6/2/2022 3:15:00 PM 15.99 60.782 0.083 7.33 17.2 9.34
6/2/2022 3:30:00 PM 15.99 60.782 0.083 7.34 16.51 9.32
6/2/2022 3:45:00 PM 15.98 60.764 0.083 7.32 16.23 9.3
6/2/2022 4:00:00 PM 16.01 60.818 0.083 7.42 16.42 9.32
6/2/2022 4:15:00 PM 15.97 60.746 0.083 7.3 14.55 9.29
6/2/2022 4:30:00 PM 16 60.8 0.083 7.31 13.89 9.32
6/2/2022 4:45:00 PM 15.97 60.746 0.083 7.28 14.12 9.28
6/2/2022 5:00:00 PM 15.96 60.728 0.083 7.31 13.33 9.27
6/2/2022 5:15:00 PM 15.98 60.764 0.083 7.3 14.4 9.27
6/2/2022 5:30:00 PM 15.99 60.782 0.083 7.29 14.55 9.26
6/2/2022 5:45:00 PM 15.96 60.728 0.083 7.31 14.47 9.24
6/2/2022 6:00:00 PM 15.95 60.71 0.083 7.3 13.75 9.25
6/2/2022 6:15:00 PM 15.93 60.674 0.083 7.3 14.71 9.24
6/2/2022 6:30:00 PM 15.91 60.638 0.083 7.29 15.07 9.22
6/2/2022 6:45:00 PM 15.87 60.566 0.083 7.29 14.97 9.23
6/2/2022 7:00:00 PM 15.86 60.548 0.083 7.27 14.46 9.23
6/2/2022 7:15:00 PM 15.83 60.494 0.083 7.24 13.9 9.22
6/2/2022 7:30:00 PM 15.81 60.458 0.083 7.26 14.11 9.21
6/2/2022 7:45:00 PM 15.78 60.404 0.083 7.26 14.77 9.21
6/2/2022 8:00:00 PM 15.75 60.35 0.083 7.24 14.01 9.2
6/2/2022 8:15:00 PM 15.72 60.296 0.083 7.19 13.16 9.2
6/2/2022 8:30:00 PM 15.7 60.26 0.083 7.23 13.1 9.2
6/2/2022 8:45:00 PM 15.67 60.206 0.083 7.25 13.29 9.2
6/2/2022 9:00:00 PM 15.64 60.152 0.083 7.25 13.5 9.2
6/2/2022 9:15:00 PM 15.6 60.08 0.083 7.23 17.72 9.2
6/2/2022 9:30:00 PM 15.58 60.044 0.083 7.22 14.7 9.22
6/2/2022 9:45:00 PM 15.54 59.972 0.083 7.23 14.86 9.23
6/2/2022 10:00:00 PM 15.49 59.882 0.083 7.24 14.83 9.25
6/2/2022 10:15:00 PM 15.46 59.828 0.083 7.2 13.8 9.26
6/2/2022 10:30:00 PM 15.42 59.756 0.083 7.22 14.26 9.26
6/2/2022 10:45:00 PM 15.38 59.684 0.083 7.23 14.18 9.27
6/2/2022 11:00:00 PM 15.32 59.576 0.083 7.23 14.07 9.27
6/2/2022 11:15:00 PM 15.26 59.468 0.083 7.25 13.72 9.29
6/2/2022 11:30:00 PM 15.21 59.378 0.083 7.24 14.07 9.3
6/2/2022 11:45:00 PM 15.15 59.27 0.083 7.24 13.48 9.32
6/3/2022 12:00:00 AM 15.1 59.18 0.083 7.28 14.23 9.34
6/3/2022 12:15:00 AM 15.04 59.072 0.083 7.27 14.16 9.35
6/3/2022 12:30:00 AM 14.99 58.982 0.083 7.26 13.54 9.37
6/3/2022 12:45:00 AM 14.94 58.892 0.083 7.26 13.86 9.38
6/3/2022 1:00:00 AM 14.89 58.802 0.083 7.27 13.59 9.39
6/3/2022 1:15:00 AM 14.84 58.712 0.083 7.25 13.82 9.41
6/3/2022 1:30:00 AM 14.79 58.622 0.083 7.26 14.05 9.42
6/3/2022 1:45:00 AM 14.75 58.55 0.083 7.25 13.64 9.43
6/3/2022 2:00:00 AM 14.7 58.46 0.083 7.26 14.08 9.43
6/3/2022 2:15:00 AM 14.65 58.37 0.083 7.26 13.44 9.44
6/3/2022 2:30:00 AM 14.61 58.298 0.083 7.25 13.57 9.45
6/3/2022 2:45:00 AM 14.56 58.208 0.083 7.26 13.39 9.46
6/3/2022 3:00:00 AM 14.51 58.118 0.083 7.25 13.58 9.47
6/3/2022 3:15:00 AM 14.46 58.028 0.083 7.26 13.46 9.48
6/3/2022 3:30:00 AM 14.41 57.938 0.083 7.24 13.69 9.5
6/3/2022 3:45:00 AM 14.36 57.848 0.083 7.27 13.62 9.51
6/3/2022 4:00:00 AM 14.3 57.74 0.083 7.27 13.52 9.53
6/3/2022 4:15:00 AM 14.25 57.65 0.083 7.23 13.25 9.54
6/3/2022 4:30:00 AM 14.18 57.524 0.083 7.27 14.05 9.55
6/3/2022 4:45:00 AM 14.11 57.398 0.083 7.28 14.17 9.57
6/3/2022 5:00:00 AM 14.02 57.236 0.083 7.28 19.3 9.58
6/3/2022 5:15:00 AM 13.94 57.092 0.083 7.27 14.9 9.6
6/3/2022 5:30:00 AM 13.85 56.93 0.083 7.29 15.5 9.62
6/3/2022 5:45:00 AM 13.76 56.768 0.083 7.27 14.71 9.65
6/3/2022 6:00:00 AM 13.66 56.588 0.083 7.28 13.97 9.69
6/3/2022 6:15:00 AM 13.59 56.462 0.083 7.27 14.46 9.72
6/3/2022 6:30:00 AM 13.52 56.336 0.083 7.28 15.14 9.75
6/3/2022 6:45:00 AM 13.46 56.228 0.083 7.27 13.74 9.77
6/3/2022 7:00:00 AM 13.41 56.138 0.083 7.27 13.73 9.79
6/3/2022 7:15:00 AM 13.37 56.066 0.083 7.28 14.36 9.8
6/3/2022 7:30:00 AM 13.35 56.03 0.083 7.3 14.03 9.81
6/3/2022 7:45:00 AM 13.36 56.048 0.083 7.3 14.67 9.82
6/3/2022 8:00:00 AM 13.38 56.084 0.083 7.31 13.97 9.84
6/3/2022 8:15:00 AM 13.42 56.156 0.083 7.31 14.28 9.84
6/3/2022 8:30:00 AM 13.47 56.246 0.082 7.29 13.97 9.85
6/3/2022 8:45:00 AM 13.52 56.336 0.082 7.33 14.61 9.84
6/3/2022 9:00:00 AM 13.6 56.48 0.082 7.32 14.62 9.84
6/3/2022 9:15:00 AM 13.7 56.66 0.082 7.33 14.2 9.83
6/3/2022 9:30:00 AM 13.81 56.858 0.082 7.32 14.15 9.83
6/3/2022 9:45:00 AM 13.94 57.092 0.082 7.3 13.94 9.81
6/3/2022 10:00:00 AM 14 57.2 0.082 7.34 14.04 9.79
6/3/2022 10:15:00 AM 14 57.2 0.082 7.36 14.13 9.77
6/3/2022 10:30:00 AM 14.15 57.47 0.082 7.34 13.98 9.78
6/3/2022 10:45:00 AM 14.38 57.884 0.082 7.33 14.35 9.75
6/3/2022 11:00:00 AM 14.62 58.316 0.082 7.37 13.77 9.7
6/3/2022 11:15:00 AM 14.84 58.712 0.082 7.35 14.11 9.68
6/3/2022 11:30:00 AM 15 59 0.082 7.36 14.3 9.63
6/3/2022 11:45:00 AM 15.14 59.252 0.082 7.36 14.25 9.6
6/3/2022 12:00:00 PM 15.2 59.36 0.082 7.33 13.4 9.58
6/3/2022 12:15:00 PM 15.22 59.396 0.082 7.36 13.74 9.56
6/3/2022 12:30:00 PM 15.21 59.378 0.082 7.37 14.3 9.54
6/3/2022 12:45:00 PM 15.3 59.54 0.082 7.36 14.37 9.54
6/3/2022 1:00:00 PM 15.4 59.72 0.082 7.34 13.54 9.53
6/3/2022 1:15:00 PM 15.47 59.846 0.082 7.35 13.96 9.5
6/3/2022 1:30:00 PM 15.45 59.81 0.082 7.39 13.35 9.47
6/3/2022 1:45:00 PM 15.53 59.954 0.082 7.36 14.89 9.48
6/3/2022 2:00:00 PM 15.45 59.81 0.082 7.31 13.75 9.45
6/3/2022 2:15:00 PM 15.48 59.864 0.082 7.24 12.4 9.45
6/3/2022 2:30:00 PM 15.42 59.756 0.082 7.28 11.66 9.44
6/3/2022 2:45:00 PM 15.43 59.774 0.082 7.24 11.55 9.46
6/3/2022 3:00:00 PM 15.46 59.828 0.082 7.25 11.81 9.46
6/3/2022 3:15:00 PM 15.47 59.846 0.082 7.26 11.48 9.45
6/3/2022 3:30:00 PM 15.49 59.882 0.082 7.38 11.6 9.43
6/3/2022 3:45:00 PM 15.51 59.918 0.082 7.25 11.23 9.44
6/3/2022 4:00:00 PM 15.52 59.936 0.082 7.39 10.92 9.44
6/3/2022 4:15:00 PM 15.43 59.774 0.082 7.29 10.74 9.4
6/3/2022 4:30:00 PM 15.44 59.792 0.082 7.39 10.45 9.44
6/3/2022 4:45:00 PM 15.37 59.666 0.082 7.4 11.6 9.43
6/3/2022 5:00:00 PM 15.33 59.594 0.082 7.26 10.92 9.42
6/3/2022 5:15:00 PM 15.26 59.468 0.082 7.36 11.12 9.41
6/3/2022 5:30:00 PM 15.21 59.378 0.081 7.25 10.55 9.42
6/3/2022 5:45:00 PM 15.14 59.252 0.082 7.26 10.72 9.42
6/3/2022 6:00:00 PM 15.08 59.144 0.082 7.37 10.89 9.42
6/3/2022 6:15:00 PM 15.03 59.054 0.082 7.36 11.47 9.42
6/3/2022 6:30:00 PM 15 59 0.082 7.22 11.19 9.43
6/3/2022 6:45:00 PM 14.94 58.892 0.082 7.2 10.28 9.43
6/3/2022 7:00:00 PM 14.89 58.802 0.082 7.25 10.76 9.43
6/3/2022 7:15:00 PM 14.85 58.73 0.083 7.22 10.66 9.44
6/3/2022 7:30:00 PM 14.79 58.622 0.083 7.24 11.31 9.45
6/3/2022 7:45:00 PM 14.72 58.496 0.083 7.21 10.49 9.46
6/3/2022 8:00:00 PM 14.66 58.388 0.083 7.25 11.15 9.46
6/3/2022 8:15:00 PM 14.58 58.244 0.083 7.24 11.3 9.47
6/3/2022 8:30:00 PM 14.49 58.082 0.083 7.37 10.84 9.49
6/3/2022 8:45:00 PM 14.42 57.956 0.083 7.25 11.23 9.5
6/3/2022 9:00:00 PM 14.34 57.812 0.083 7.23 11.21 9.51
6/3/2022 9:15:00 PM 14.26 57.668 0.083 7.25 11.82 9.54
6/3/2022 9:30:00 PM 14.18 57.524 0.083 7.25 12.2 9.56
6/3/2022 9:45:00 PM 14.1 57.38 0.083 7.26 12.26 9.58
6/3/2022 10:00:00 PM 14.01 57.218 0.083 7.24 13.44 9.59
6/3/2022 10:15:00 PM 13.93 57.074 0.083 7.27 11.93 9.61
6/3/2022 10:30:00 PM 13.84 56.912 0.083 7.25 10.99 9.63
6/3/2022 10:45:00 PM 13.76 56.768 0.084 7.25 11.64 9.65
6/3/2022 11:00:00 PM 13.68 56.624 0.084 7.25 11.48 9.66
6/3/2022 11:15:00 PM 13.6 56.48 0.084 7.23 11.62 9.69
6/3/2022 11:30:00 PM 13.51 56.318 0.084 7.24 11.25 9.72
6/3/2022 11:45:00 PM 13.43 56.174 0.084 7.25 11.35 9.74
6/4/2022 12:00:00 AM 13.35 56.03 0.083 7.25 12.36 9.76
6/4/2022 12:15:00 AM 13.26 55.868 0.083 7.25 10.54 9.77
6/4/2022 12:30:00 AM 13.18 55.724 0.083 7.26 10.65 9.8
6/4/2022 12:45:00 AM 13.1 55.58 0.083 7.26 10.57 9.82
6/4/2022 1:00:00 AM 13.02 55.436 0.083 7.34 10.57 9.84
6/4/2022 1:15:00 AM 12.94 55.292 0.083 7.24 10.88 9.86
6/4/2022 1:30:00 AM 12.86 55.148 0.083 7.26 11.17 9.89
6/4/2022 1:45:00 AM 12.79 55.022 0.083 7.26 13.27 9.9
6/4/2022 2:00:00 AM 12.71 54.878 0.083 7.23 10.63 9.92
6/4/2022 2:15:00 AM 12.64 54.752 0.083 7.26 10.75 9.93
6/4/2022 2:30:00 AM 12.57 54.626 0.083 7.28 10.56 9.94
6/4/2022 2:45:00 AM 12.51 54.518 0.083 7.27 10.26 9.96
6/4/2022 3:00:00 AM 12.44 54.392 0.083 7.25 10.79 9.98
6/4/2022 3:15:00 AM 12.39 54.302 0.083 7.18 10.76 10
6/4/2022 3:30:00 AM 12.32 54.176 0.083 7.21 10.6 10.01
6/4/2022 3:45:00 AM 12.27 54.086 0.083 7.19 10.4 10.03
6/4/2022 4:00:00 AM 12.2 53.96 0.083 7.23 9.89 10.05
6/4/2022 4:15:00 AM 12.14 53.852 0.083 7.23 10.46 10.07
6/4/2022 4:30:00 AM 12.07 53.726 0.083 7.24 10.55 10.07
6/4/2022 4:45:00 AM 12 53.6 0.083 7.24 10.27 10.09
6/4/2022 5:00:00 AM 11.95 53.51 0.083 7.2 9.58 10.1
6/4/2022 5:15:00 AM 11.89 53.402 0.083 7.23 10.54 10.12
6/4/2022 5:30:00 AM 11.82 53.276 0.083 7.23 10.15 10.14
6/4/2022 5:45:00 AM 11.76 53.168 0.083 7.21 10.76 10.15
6/4/2022 6:00:00 AM 11.71 53.078 0.083 7.24 10.58 10.18
6/4/2022 6:15:00 AM 11.67 53.006 0.083 7.25 10.06 10.21
6/4/2022 6:30:00 AM 11.63 52.934 0.083 7.24 10.27 10.23
6/4/2022 6:45:00 AM 11.6 52.88 0.083 7.25 10.37 10.25
6/4/2022 7:00:00 AM 11.57 52.826 0.083 7.25 10.4 10.26
6/4/2022 7:15:00 AM 11.56 52.808 0.083 7.26 10.28 10.28
6/4/2022 7:30:00 AM 11.56 52.808 0.083 7.26 9.48 10.29
6/4/2022 7:45:00 AM 11.58 52.844 0.083 7.28 9.73 10.3
6/4/2022 8:00:00 AM 11.63 52.934 0.083 7.28 10.35 10.3
6/4/2022 8:15:00 AM 11.69 53.042 0.083 7.29 10.87 10.3
6/4/2022 8:30:00 AM 11.78 53.204 0.083 7.3 10.49 10.28
6/4/2022 8:45:00 AM 11.88 53.384 0.083 7.31 10.94 10.28
6/4/2022 9:00:00 AM 12.01 53.618 0.083 7.32 10.54 10.26
6/4/2022 9:15:00 AM 12.15 53.87 0.083 7.31 10.77 10.25
6/4/2022 9:30:00 AM 12.3 54.14 0.083 7.33 10.08 10.23
6/4/2022 9:45:00 AM 12.47 54.446 0.083 7.34 10.6 10.2
6/4/2022 10:00:00 AM 12.64 54.752 0.082 7.35 10.52 10.17
6/4/2022 10:15:00 AM 12.81 55.058 0.082 7.35 11.01 10.15
6/4/2022 10:30:00 AM 12.98 55.364 0.082 7.36 11.35 10.12
6/4/2022 10:45:00 AM 13.17 55.706 0.082 7.33 10.79 10.07
6/4/2022 11:00:00 AM 13.39 56.102 0.082 7.37 11.34 10.03
6/4/2022 11:15:00 AM 13.59 56.462 0.082 7.37 11.62 9.99
6/4/2022 11:30:00 AM 13.75 56.75 0.082 7.39 10.59 9.96
6/4/2022 11:45:00 AM 13.9 57.02 0.082 7.35 11.56 9.92
6/4/2022 12:00:00 PM 13.99 57.182 0.082 7.47 11.04 9.89
6/4/2022 12:15:00 PM 14.08 57.344 0.082 7.37 11.03 9.87
6/4/2022 12:30:00 PM 14.17 57.506 0.082 7.36 11.84 9.85
6/4/2022 12:45:00 PM 14.24 57.632 0.082 7.39 11.75 9.82
6/4/2022 1:00:00 PM 14.29 57.722 0.082 7.36 11.44 9.8
6/4/2022 1:15:00 PM 14.3 57.74 0.082 7.36 11.95 9.78
6/4/2022 1:30:00 PM 14.32 57.776 0.082 7.35 10.94 9.78
6/4/2022 1:45:00 PM 14.34 57.812 0.082 7.46 11.65 9.76
6/4/2022 2:00:00 PM 14.35 57.83 0.082 7.34 10.89 9.75
6/4/2022 2:15:00 PM 14.36 57.848 0.082 7.36 11.94 9.74
6/4/2022 2:30:00 PM 14.37 57.866 0.082 7.35 11.24 9.72
6/4/2022 2:45:00 PM 14.37 57.866 0.082 7.32 10.97 9.73
6/4/2022 3:00:00 PM 14.37 57.866 0.082 7.29 10.53 9.72
6/4/2022 3:15:00 PM 14.36 57.848 0.082 7.35 11.17 9.71
6/4/2022 3:30:00 PM 14.34 57.812 0.082 7.32 12.12 9.71
6/4/2022 3:45:00 PM 14.33 57.794 0.082 7.33 11.93 9.71
6/4/2022 4:00:00 PM 14.33 57.794 0.082 7.34 10.82 9.7
6/4/2022 4:15:00 PM 14.3 57.74 0.082 7.37 11.27 9.7
6/4/2022 4:30:00 PM 14.25 57.65 0.082 7.34 11.81 9.71
6/4/2022 4:45:00 PM 14.19 57.542 0.082 7.33 11.28 9.71
6/4/2022 5:00:00 PM 14.14 57.452 0.083 7.28 11.6 9.71
6/4/2022 5:15:00 PM 14.09 57.362 0.083 7.44 10.59 9.71
6/4/2022 5:30:00 PM 14.04 57.272 0.083 7.31 10.97 9.71
6/4/2022 5:45:00 PM 13.98 57.164 0.083 7.31 10.87 9.7
6/4/2022 6:00:00 PM 13.92 57.056 0.083 7.3 11.31 9.7
6/4/2022 6:15:00 PM 13.87 56.966 0.083 7.27 10.63 9.7
6/4/2022 6:30:00 PM 13.82 56.876 0.083 7.28 11.17 9.71
6/4/2022 6:45:00 PM 13.76 56.768 0.083 7.27 11.81 9.71
6/4/2022 7:00:00 PM 13.71 56.678 0.083 7.25 11.09 9.72
6/4/2022 7:15:00 PM 13.65 56.57 0.083 7.27 10.77 9.72
6/4/2022 7:30:00 PM 13.59 56.462 0.083 7.23 12.82 9.74
6/4/2022 7:45:00 PM 13.52 56.336 0.083 7.21 10.51 9.75
6/4/2022 8:00:00 PM 13.45 56.21 0.083 7.38 10.77 9.76
6/4/2022 8:15:00 PM 13.35 56.03 0.083 7.33 11.87 9.78
6/4/2022 8:30:00 PM 13.26 55.868 0.083 7.32 11.59 9.79
6/4/2022 8:45:00 PM 13.16 55.688 0.083 7.21 11.09 9.8
6/4/2022 9:00:00 PM 13.07 55.526 0.083 7.31 11.24 9.83
6/4/2022 9:15:00 PM 12.98 55.364 0.083 7.28 11.92 9.85
6/4/2022 9:30:00 PM 12.89 55.202 0.083 7.35 10.75 9.87
6/4/2022 9:45:00 PM 12.81 55.058 0.084 7.37 11.26 9.89
6/4/2022 10:00:00 PM 12.73 54.914 0.084 7.22 11.06 9.92
6/4/2022 10:15:00 PM 12.64 54.752 0.084 7.2 11.43 9.93
6/4/2022 10:30:00 PM 12.56 54.608 0.084 7.24 11.2 9.95
6/4/2022 10:45:00 PM 12.48 54.464 0.084 7.25 12.22 9.98
6/4/2022 11:00:00 PM 12.4 54.32 0.084 7.27 10.79 10
6/4/2022 11:15:00 PM 12.32 54.176 0.084 7.27 10.72 10.03
6/4/2022 11:30:00 PM 12.24 54.032 0.084 7.28 10.27 10.05
6/4/2022 11:45:00 PM 12.16 53.888 0.084 7.24 11.29 10.07
6/5/2022 12:00:00 AM 12.07 53.726 0.084 7.26 10.37 10.09
6/5/2022 12:15:00 AM 11.99 53.582 0.084 7.23 10.99 10.11
6/5/2022 12:30:00 AM 11.92 53.456 0.084 7.35 10.74 10.12
6/5/2022 12:45:00 AM 11.85 53.33 0.084 7.38 10.05 10.15
6/5/2022 1:00:00 AM 11.77 53.186 0.084 7.31 30.75 10.16
6/5/2022 1:15:00 AM 11.69 53.042 0.084 7.27 9.79 10.19
6/5/2022 1:30:00 AM 11.61 52.898 0.084 7.29 9.78 10.21
6/5/2022 1:45:00 AM 11.53 52.754 0.084 7.3 9.57 10.23
6/5/2022 2:00:00 AM 11.45 52.61 0.084 7.3 10.57 10.25
6/5/2022 2:15:00 AM 11.39 52.502 0.084 7.27 10.1 10.27
6/5/2022 2:30:00 AM 11.32 52.376 0.084 7.28 10.46 10.28
6/5/2022 2:45:00 AM 11.25 52.25 0.084 7.28 9.71 10.3
6/5/2022 3:00:00 AM 11.17 52.106 0.084 7.28 9.62 10.32
6/5/2022 3:15:00 AM 11.1 51.98 0.084 7.28 9.57 10.34
6/5/2022 3:30:00 AM 11.04 51.872 0.084 7.33 10.8 10.36
6/5/2022 3:45:00 AM 10.97 51.746 0.084 7.17 9.59 10.38
6/5/2022 4:00:00 AM 10.91 51.638 0.084 7.18 9.91 10.4
6/5/2022 4:15:00 AM 10.85 51.53 0.084 7.19 9.13 10.42
6/5/2022 4:30:00 AM 10.79 51.422 0.084 7.21 9.47 10.43
6/5/2022 4:45:00 AM 10.73 51.314 0.084 7.18 9.53 10.44
6/5/2022 5:00:00 AM 10.66 51.188 0.084 7.23 9.65 10.45
6/5/2022 5:15:00 AM 10.59 51.062 0.084 7.21 9.61 10.47
6/5/2022 5:30:00 AM 10.53 50.954 0.084 7.22 9.76 10.49
6/5/2022 5:45:00 AM 10.48 50.864 0.084 7.24 9.98 10.51
6/5/2022 6:00:00 AM 10.42 50.756 0.084 7.25 9.75 10.53
6/5/2022 6:15:00 AM 10.37 50.666 0.084 7.26 10.06 10.55
6/5/2022 6:30:00 AM 10.32 50.576 0.084 7.27 9.61 10.58
6/5/2022 6:45:00 AM 10.3 50.54 0.083 7.28 9.58 10.6
6/5/2022 7:00:00 AM 10.29 50.522 0.083 7.29 9.83 10.62
6/5/2022 7:15:00 AM 10.28 50.504 0.083 7.29 8.92 10.64
6/5/2022 7:30:00 AM 10.29 50.522 0.083 7.3 9.04 10.64
6/5/2022 7:45:00 AM 10.32 50.576 0.083 7.31 9.38 10.66
6/5/2022 8:00:00 AM 10.36 50.648 0.083 7.32 9.51 10.66
6/5/2022 8:15:00 AM 10.41 50.738 0.083 7.33 9.38 10.65
6/5/2022 8:30:00 AM 10.49 50.882 0.083 7.34 9.56 10.65
6/5/2022 8:45:00 AM 10.58 51.044 0.083 7.34 9.5 10.65
6/5/2022 9:00:00 AM 10.72 51.296 0.083 7.32 9.97 10.65
6/5/2022 9:15:00 AM 10.8 51.44 0.083 7.37 9.32 10.66
6/5/2022 9:30:00 AM 10.92 51.656 0.083 7.35 8.96 10.65
6/5/2022 9:45:00 AM 11.03 51.854 0.083 7.38 9.2 10.63
6/5/2022 10:00:00 AM 11.1 51.98 0.083 7.39 9.69 10.59
6/5/2022 10:15:00 AM 11.19 52.142 0.083 7.39 9.7 10.58
6/5/2022 10:30:00 AM 11.41 52.538 0.083 7.4 10.5 10.55
6/5/2022 10:45:00 AM 11.64 52.952 0.083 7.39 9.55 10.51
6/5/2022 11:00:00 AM 11.85 53.33 0.083 7.41 9.85 10.45
6/5/2022 11:15:00 AM 12.08 53.744 0.082 7.43 10.35 10.41
6/5/2022 11:30:00 AM 12.26 54.068 0.082 7.42 9.98 10.38
6/5/2022 11:45:00 AM 12.41 54.338 0.082 7.43 10.31 10.32
6/5/2022 12:00:00 PM 12.54 54.572 0.082 7.42 10.25 10.29
6/5/2022 12:15:00 PM 12.69 54.842 0.082 7.41 10.63 10.25
6/5/2022 12:30:00 PM 12.86 55.148 0.082 7.42 11.17 10.21
6/5/2022 12:45:00 PM 12.98 55.364 0.082 7.41 11.5 10.17
6/5/2022 1:00:00 PM 13.05 55.49 0.082 7.4 11.19 10.14
6/5/2022 1:15:00 PM 13.14 55.652 0.082 7.4 10.66 10.11
6/5/2022 1:30:00 PM 13.24 55.832 0.082 7.4 11.23 10.06
6/5/2022 1:45:00 PM 13.31 55.958 0.082 7.38 10.35 10.04
6/5/2022 2:00:00 PM 13.38 56.084 0.083 7.37 10.39 10.02
6/5/2022 2:15:00 PM 13.43 56.174 0.083 7.42 10.9 10
6/5/2022 2:30:00 PM 13.47 56.246 0.083 7.36 10.76 9.98
6/5/2022 2:45:00 PM 13.51 56.318 0.083 7.47 11.25 9.96
6/5/2022 3:00:00 PM 13.55 56.39 0.083 7.45 11.32 9.95
6/5/2022 3:15:00 PM 13.57 56.426 0.083 7.48 11.02 9.93
6/5/2022 3:30:00 PM 13.59 56.462 0.083 7.34 10.82 9.92
6/5/2022 3:45:00 PM 13.61 56.498 0.083 7.31 11.1 9.9
6/5/2022 4:00:00 PM 13.62 56.516 0.083 7.33 10.69 9.89
6/5/2022 4:15:00 PM 13.62 56.516 0.083 7.34 10.62 9.89
6/5/2022 4:30:00 PM 13.6 56.48 0.083 7.3 10.6 9.89
6/5/2022 4:45:00 PM 13.57 56.426 0.083 7.32 10.36 9.88
6/5/2022 5:00:00 PM 13.48 56.264 0.083 7.37 11.92 9.89
6/5/2022 5:15:00 PM 13.52 56.336 0.083 7.32 10.68 9.91
6/5/2022 5:30:00 PM 13.48 56.264 0.083 7.32 10.98 9.88
6/5/2022 5:45:00 PM 13.43 56.174 0.083 7.27 11.01 9.87
6/5/2022 6:00:00 PM 13.39 56.102 0.083 7.35 10.61 9.85
6/5/2022 6:15:00 PM 13.37 56.066 0.083 7.3 11.09 9.85
6/5/2022 6:30:00 PM 13.34 56.012 0.083 7.28 10.83 9.84
6/5/2022 6:45:00 PM 13.3 55.94 0.084 7.29 10.26 9.85
6/5/2022 7:00:00 PM 13.27 55.886 0.084 7.27 10.99 9.84
6/5/2022 7:15:00 PM 13.23 55.814 0.084 7.3 11.64 9.84
6/5/2022 7:30:00 PM 13.2 55.76 0.084 7.33 10.29 9.84
6/5/2022 7:45:00 PM 13.15 55.67 0.084 7.19 11.15 9.85
6/5/2022 8:00:00 PM 13.1 55.58 0.084 7.25 10.4 9.85
6/5/2022 8:15:00 PM 13.05 55.49 0.084 7.33 10.42 9.86
6/5/2022 8:30:00 PM 13.01 55.418 0.084 7.3 11.02 9.87
6/5/2022 8:45:00 PM 12.98 55.364 0.084 7.26 11.18 9.88
6/5/2022 9:00:00 PM 12.93 55.274 0.084 7.24 10.73 9.88
6/5/2022 9:15:00 PM 12.89 55.202 0.084 7.39 11.2 9.9
6/5/2022 9:30:00 PM 12.85 55.13 0.084 7.37 11.3 9.9
6/5/2022 9:45:00 PM 12.8 55.04 0.084 7.29 11.13 9.91
6/5/2022 10:00:00 PM 12.75 54.95 0.084 7.34 12.12 9.93
6/5/2022 10:15:00 PM 12.71 54.878 0.084 7.34 11.18 9.94
6/5/2022 10:30:00 PM 12.68 54.824 0.084 7.2 10.87 9.94
6/5/2022 10:45:00 PM 12.64 54.752 0.084 7.25 10.79 9.95
6/5/2022 11:00:00 PM 12.6 54.68 0.084 7.26 11.11 9.96
6/5/2022 11:15:00 PM 12.56 54.608 0.084 7.25 11.54 9.97
6/5/2022 11:30:00 PM 12.53 54.554 0.084 7.26 11.16 9.98
6/5/2022 11:45:00 PM 12.5 54.5 0.084 7.26 10.73 9.99
6/6/2022 12:00:00 AM 12.47 54.446 0.084 7.26 10.71 10
6/6/2022 12:15:00 AM 12.44 54.392 0.084 7.26 10.1 10.01
6/6/2022 12:30:00 AM 12.41 54.338 0.084 7.26 10.71 10.01
6/6/2022 12:45:00 AM 12.39 54.302 0.085 7.25 13.56 10.02
6/6/2022 1:00:00 AM 12.35 54.23 0.084 7.25 10.78 10.03
6/6/2022 1:15:00 AM 12.31 54.158 0.085 7.25 11.12 10.04
6/6/2022 1:30:00 AM 12.28 54.104 0.085 7.26 10.63 10.06
6/6/2022 1:45:00 AM 12.25 54.05 0.085 7.25 10.23 10.06
6/6/2022 2:00:00 AM 12.21 53.978 0.085 7.26 10.35 10.07
6/6/2022 2:15:00 AM 12.16 53.888 0.085 7.25 11.1 10.08
6/6/2022 2:30:00 AM 12.11 53.798 0.085 7.26 10.01 10.09
6/6/2022 2:45:00 AM 12.05 53.69 0.085 7.26 10.93 10.1
6/6/2022 3:00:00 AM 12 53.6 0.085 7.26 10.32 10.11
6/6/2022 3:15:00 AM 11.94 53.492 0.085 7.25 10.74 10.12
6/6/2022 3:30:00 AM 11.88 53.384 0.085 7.25 10.76 10.14
6/6/2022 3:45:00 AM 11.82 53.276 0.084 7.26 10.05 10.15
6/6/2022 4:00:00 AM 11.76 53.168 0.085 7.27 10.18 10.17
6/6/2022 4:15:00 AM 11.71 53.078 0.084 7.26 9.78 10.19
6/6/2022 4:30:00 AM 11.67 53.006 0.085 7.26 10.04 10.2
6/6/2022 4:45:00 AM 11.63 52.934 0.084 7.26 10.15 10.21
6/6/2022 5:00:00 AM 11.58 52.844 0.084 7.25 10.29 10.23
6/6/2022 5:15:00 AM 11.53 52.754 0.084 7.27 10.46 10.24
6/6/2022 5:30:00 AM 11.48 52.664 0.084 7.25 9.61 10.26
6/6/2022 5:45:00 AM 11.44 52.592 0.084 7.24 11.59 10.27
6/6/2022 6:00:00 AM 11.39 52.502 0.084 7.27 9.72 10.29
6/6/2022 6:15:00 AM 11.36 52.448 0.084 7.27 10.73 10.3
6/6/2022 6:30:00 AM 11.34 52.412 0.084 7.27 11.19 10.32
6/6/2022 6:45:00 AM 11.31 52.358 0.084 7.28 10.66 10.34
6/6/2022 7:00:00 AM 11.31 52.358 0.084 7.28 10.66 10.35
6/6/2022 7:15:00 AM 11.31 52.358 0.084 7.28 11.21 10.36
6/6/2022 7:30:00 AM 11.33 52.394 0.084 7.28 10.16 10.36
6/6/2022 7:45:00 AM 11.37 52.466 0.084 7.29 10.19 10.37
6/6/2022 8:00:00 AM 11.43 52.574 0.084 7.29 10.36 10.38
6/6/2022 8:15:00 AM 11.51 52.718 0.084 7.29 9.91 10.37
6/6/2022 8:30:00 AM 11.6 52.88 0.084 7.29 10.74 10.37
6/6/2022 8:45:00 AM 11.7 53.06 0.084 7.3 10.54 10.36
6/6/2022 9:00:00 AM 11.83 53.294 0.084 7.3 9.81 10.34
6/6/2022 9:15:00 AM 11.96 53.528 0.084 7.3 10.93 10.32
6/6/2022 9:30:00 AM 12.1 53.78 0.084 7.32 10.29 10.31
6/6/2022 9:45:00 AM 12.28 54.104 0.084 7.32 11.3 10.29
6/6/2022 10:00:00 AM 12.46 54.428 0.084 7.34 10.83 10.24
6/6/2022 10:15:00 AM 12.67 54.806 0.084 7.34 11.54 10.2
6/6/2022 10:30:00 AM 12.89 55.202 0.084 7.34 11.23 10.16
6/6/2022 10:45:00 AM 13.11 55.598 0.084 7.35 11.55 10.12
6/6/2022 11:00:00 AM 13.34 56.012 0.084 7.36 11.33 10.07
6/6/2022 11:15:00 AM 13.61 56.498 0.084 7.37 11.8 10.03
6/6/2022 11:30:00 AM 13.83 56.894 0.084 7.37 11.3 9.97
6/6/2022 11:45:00 AM 14.03 57.254 0.084 7.37 11.12 9.93
6/6/2022 12:00:00 PM 14.21 57.578 0.084 7.37 11.9 9.88
6/6/2022 12:15:00 PM 14.35 57.83 0.084 7.36 11.25 9.84
6/6/2022 12:30:00 PM 14.49 58.082 0.084 7.36 12.2 9.8
6/6/2022 12:45:00 PM 14.63 58.334 0.084 7.36 11.43 9.76
6/6/2022 1:00:00 PM 14.73 58.514 0.084 7.37 11.5 9.74
6/6/2022 1:15:00 PM 14.88 58.784 0.084 7.37 11.76 9.73
6/6/2022 1:30:00 PM 14.95 58.91 0.084 7.37 11.66 9.7
6/6/2022 1:45:00 PM 15.01 59.018 0.084 7.49 11.77 9.69
6/6/2022 2:00:00 PM 14.94 58.892 0.084 7.37 12.41 9.67
6/6/2022 2:15:00 PM 14.94 58.892 0.084 7.36 11.46 9.68
6/6/2022 2:30:00 PM 14.96 58.928 0.084 7.37 11.51 9.68
6/6/2022 2:45:00 PM 14.97 58.946 0.084 7.37 11.87 9.66
6/6/2022 3:00:00 PM 14.97 58.946 0.084 7.37 11.99 9.64
6/6/2022 3:15:00 PM 15 59 0.084 7.37 11.92 9.63
6/6/2022 3:30:00 PM 15 59 0.084 7.37 12.42 9.63
6/6/2022 3:45:00 PM 15.01 59.018 0.084 7.34 12.29 9.62
6/6/2022 4:00:00 PM 14.95 58.91 0.084 7.36 11.73 9.59
6/6/2022 4:15:00 PM 14.92 58.856 0.084 7.34 12.6 9.58
6/6/2022 4:30:00 PM 14.93 58.874 0.084 7.34 12 9.6
6/6/2022 4:45:00 PM 14.92 58.856 0.084 7.35 11.83 9.6
6/6/2022 5:00:00 PM 14.93 58.874 0.084 7.33 12 9.59
6/6/2022 5:15:00 PM 14.93 58.874 0.084 7.32 11.79 9.57
6/6/2022 5:30:00 PM 14.93 58.874 0.084 7.33 12.19 9.56
6/6/2022 5:45:00 PM 14.89 58.802 0.084 7.33 11.49 9.53
6/6/2022 6:00:00 PM 14.84 58.712 0.084 7.32 11.35 9.51
6/6/2022 6:15:00 PM 14.82 58.676 0.085 7.31 11.72 9.52
6/6/2022 6:30:00 PM 14.79 58.622 0.085 7.3 11.58 9.51
6/6/2022 6:45:00 PM 14.77 58.586 0.085 7.3 11.79 9.51
6/6/2022 7:00:00 PM 14.76 58.568 0.085 7.29 11.55 9.51
6/6/2022 7:15:00 PM 14.73 58.514 0.085 7.29 10.5 9.49
6/6/2022 7:30:00 PM 14.69 58.442 0.085 7.28 10.43 9.47
6/6/2022 7:45:00 PM 14.66 58.388 0.085 7.4 10.98 9.47
6/6/2022 8:00:00 PM 14.63 58.334 0.085 7.22 11.1 9.46
6/6/2022 8:15:00 PM 14.6 58.28 0.085 7.22 10.56 9.45
6/6/2022 8:30:00 PM 14.55 58.19 0.085 7.23 10.96 9.45
6/6/2022 8:45:00 PM 14.51 58.118 0.085 7.23 11.34 9.46
6/6/2022 9:00:00 PM 14.48 58.064 0.086 7.21 12.59 9.46
6/6/2022 9:15:00 PM 14.44 57.992 0.086 7.2 12.82 9.47
6/6/2022 9:30:00 PM 14.41 57.938 0.086 7.22 11.85 9.48
6/6/2022 9:45:00 PM 14.38 57.884 0.086 7.22 11.26 9.49
6/6/2022 10:00:00 PM 14.35 57.83 0.086 7.21 11.66 9.5
6/6/2022 10:15:00 PM 14.32 57.776 0.086 7.22 11.17 9.5
6/6/2022 10:30:00 PM 14.29 57.722 0.086 7.22 11.13 9.52
6/6/2022 10:45:00 PM 14.27 57.686 0.086 7.22 11.38 9.52
6/6/2022 11:00:00 PM 14.25 57.65 0.086 7.22 12.31 9.53
6/6/2022 11:15:00 PM 14.22 57.596 0.086 7.21 11.61 9.53
6/6/2022 11:30:00 PM 14.2 57.56 0.086 7.19 11.94 9.53
6/6/2022 11:45:00 PM 14.17 57.506 0.086 7.21 11.78 9.54
6/7/2022 12:00:00 AM 14.14 57.452 0.086 7.21 11.98 9.54
6/7/2022 12:15:00 AM 14.11 57.398 0.086 7.21 12.27 9.56
6/7/2022 12:30:00 AM 14.08 57.344 0.086 7.22 11.8 9.57
6/7/2022 12:45:00 AM 14.05 57.29 0.086 7.22 11.77 9.56
6/7/2022 1:00:00 AM 14.04 57.272 0.086 7.22 12.17 9.58
6/7/2022 1:15:00 AM 14.02 57.236 0.086 7.23 12.06 9.58
6/7/2022 1:30:00 AM 14 57.2 0.086 7.19 11.89 9.58
6/7/2022 1:45:00 AM 13.98 57.164 0.086 7.21 12.51 9.58
6/7/2022 2:00:00 AM 13.96 57.128 0.086 7.2 12.22 9.58
6/7/2022 2:15:00 AM 13.94 57.092 0.086 7.23 11.67 9.59
6/7/2022 2:30:00 AM 13.91 57.038 0.086 7.22 11.9 9.59
6/7/2022 2:45:00 AM 13.89 57.002 0.086 7.23 11.71 9.6
6/7/2022 3:00:00 AM 13.87 56.966 0.086 7.31 12.38 9.6
6/7/2022 3:15:00 AM 13.84 56.912 0.086 7.23 12.03 9.62
6/7/2022 3:30:00 AM 13.81 56.858 0.086 7.23 11.72 9.62
6/7/2022 3:45:00 AM 13.79 56.822 0.086 7.24 12.11 9.63
6/7/2022 4:00:00 AM 13.76 56.768 0.086 7.22 11.93 9.62
6/7/2022 4:15:00 AM 13.74 56.732 0.086 7.24 11.89 9.64
6/7/2022 4:30:00 AM 13.73 56.714 0.086 7.23 12.13 9.64
6/7/2022 4:45:00 AM 13.72 56.696 0.086 7.23 12.26 9.65
6/7/2022 5:00:00 AM 13.7 56.66 0.086 7.2 12.55 9.65
6/7/2022 5:15:00 AM 13.68 56.624 0.086 7.22 13.74 9.65
6/7/2022 5:30:00 AM 13.67 56.606 0.086 7.23 13.59 9.66
6/7/2022 5:45:00 AM 13.66 56.588 0.086 7.22 13.09 9.68
6/7/2022 6:00:00 AM 13.65 56.57 0.086 7.23 13.43 9.69
6/7/2022 6:15:00 AM 13.66 56.588 0.086 7.21 13.7 9.71
6/7/2022 6:30:00 AM 13.67 56.606 0.086 7.25 13.56 9.71
6/7/2022 6:45:00 AM 13.67 56.606 0.086 7.24 12.39 9.72
6/7/2022 7:00:00 AM 13.68 56.624 0.086 7.25 13.12 9.73
6/7/2022 7:15:00 AM 13.69 56.642 0.086 7.27 13.79 9.75
6/7/2022 7:30:00 AM 13.7 56.66 0.086 7.27 13.42 9.75
6/7/2022 7:45:00 AM 13.71 56.678 0.086 7.28 13.61 9.76
6/7/2022 8:00:00 AM 13.73 56.714 0.086 7.28 14.18 9.76
6/7/2022 8:15:00 AM 13.74 56.732 0.086 7.29 13.57 9.76
6/7/2022 8:30:00 AM 13.75 56.75 0.086 7.29 12.75 9.76
6/7/2022 8:45:00 AM 13.76 56.768 0.086 7.29 13.39 9.76
6/7/2022 9:00:00 AM 13.78 56.804 0.086 7.31 12.78 9.75
6/7/2022 9:15:00 AM 13.78 56.804 0.086 7.32 14.01 9.75
6/7/2022 9:30:00 AM 13.79 56.822 0.086 7.32 13.58 9.75
6/7/2022 9:45:00 AM 13.83 56.894 0.086 7.32 13.58 9.78
6/7/2022 10:00:00 AM 13.86 56.948 0.086 7.32 13.06 9.76
6/7/2022 10:15:00 AM 13.85 56.93 0.086 7.33 12.77 9.73
6/7/2022 10:30:00 AM 13.88 56.984 0.086 7.32 14.27 9.76
6/7/2022 10:45:00 AM 13.89 57.002 0.086 7.31 12.85 9.73
6/7/2022 11:00:00 AM 13.92 57.056 0.086 7.33 13.03 9.75
6/7/2022 11:15:00 AM 13.98 57.164 0.085 7.33 13.28 9.77
6/7/2022 11:30:00 AM 14.02 57.236 0.085 7.33 12.94 9.74
6/7/2022 11:45:00 AM 14.04 57.272 0.085 7.34 13.16 9.74
6/7/2022 12:00:00 PM 14.1 57.38 0.085 7.34 12.98 9.76
6/7/2022 12:15:00 PM 14.13 57.434 0.085 7.34 13.77 9.74
6/7/2022 12:30:00 PM 14.14 57.452 0.085 7.34 13.48 9.7
6/7/2022 12:45:00 PM 14.16 57.488 0.085 7.34 14.29 9.69
6/7/2022 1:00:00 PM 14.15 57.47 0.085 7.32 13.68 9.66
6/7/2022 1:15:00 PM 14.16 57.488 0.085 7.29 17.05 9.61
6/7/2022 1:30:00 PM 14.18 57.524 0.085 7.3 15.82 9.61
6/7/2022 1:45:00 PM 14.23 57.614 0.085 7.27 15.77 9.63
6/7/2022 2:00:00 PM 14.25 57.65 0.085 7.27 15.19 9.58
6/7/2022 2:15:00 PM 14.28 57.704 0.085 7.3 15.5 9.6
6/7/2022 2:30:00 PM 14.29 57.722 0.085 7.27 15.51 9.59
6/7/2022 2:45:00 PM 14.3 57.74 0.086 7.3 14.53 9.58
6/7/2022 3:00:00 PM 14.26 57.668 0.086 7.27 14.93 9.53
6/7/2022 3:15:00 PM 14.25 57.65 0.086 7.29 14.6 9.55
6/7/2022 3:30:00 PM 14.25 57.65 0.086 7.27 15.24 9.58
6/7/2022 3:45:00 PM 14.25 57.65 0.087 7.28 14.78 9.56
6/7/2022 4:00:00 PM 14.23 57.614 0.087 7.26 15.18 9.55
6/7/2022 4:15:00 PM 14.22 57.596 0.087 7.28 14.24 9.55
6/7/2022 4:30:00 PM 14.21 57.578 0.087 7.29 14.34 9.55
6/7/2022 4:45:00 PM 14.21 57.578 0.087 7.29 13.67 9.55
6/7/2022 5:00:00 PM 14.21 57.578 0.087 7.28 15.39 9.56
6/7/2022 5:15:00 PM 14.22 57.596 0.087 7.31 15.04 9.57
6/7/2022 5:30:00 PM 14.22 57.596 0.087 7.28 14.76 9.56
6/7/2022 5:45:00 PM 14.22 57.596 0.087 7.29 14.68 9.57
6/7/2022 6:00:00 PM 14.24 57.632 0.087 7.3 15.72 9.58
6/7/2022 6:15:00 PM 14.24 57.632 0.087 7.36 15.3 9.57
6/7/2022 6:30:00 PM 14.24 57.632 0.087 7.23 15.85 9.57
6/7/2022 6:45:00 PM 14.23 57.614 0.087 7.26 15.38 9.55
6/7/2022 7:00:00 PM 14.22 57.596 0.086 7.26 15.68 9.56
6/7/2022 7:15:00 PM 14.21 57.578 0.086 7.25 15.84 9.54
6/7/2022 7:30:00 PM 14.2 57.56 0.086 7.25 15.29 9.54
6/7/2022 7:45:00 PM 14.19 57.542 0.086 7.23 15.46 9.55
6/7/2022 8:00:00 PM 14.17 57.506 0.086 7.22 15.46 9.55
6/7/2022 8:15:00 PM 14.16 57.488 0.086 7.22 14.71 9.54
6/7/2022 8:30:00 PM 14.14 57.452 0.086 7.2 15.26 9.54
6/7/2022 8:45:00 PM 14.13 57.434 0.086 7.19 16.17 9.54
6/7/2022 9:00:00 PM 14.11 57.398 0.086 7.18 16.07 9.54
6/7/2022 9:15:00 PM 14.1 57.38 0.086 7.18 15.98 9.55
6/7/2022 9:30:00 PM 14.09 57.362 0.086 7.18 16.23 9.54
6/7/2022 9:45:00 PM 14.09 57.362 0.086 7.18 15.65 9.55
6/7/2022 10:00:00 PM 14.08 57.344 0.086 7.16 15.67 9.55
6/7/2022 10:15:00 PM 14.07 57.326 0.086 7.17 16.81 9.55
6/7/2022 10:30:00 PM 14.07 57.326 0.086 7.22 15.81 9.55
6/7/2022 10:45:00 PM 14.06 57.308 0.086 7.12 15.8 9.56
6/7/2022 11:00:00 PM 14.05 57.29 0.086 7.12 15.98 9.56
6/7/2022 11:15:00 PM 14.04 57.272 0.086 7.14 15.97 9.55
6/7/2022 11:30:00 PM 14.03 57.254 0.086 7.14 15.64 9.56
6/7/2022 11:45:00 PM 14.02 57.236 0.086 7.14 16.94 9.56
6/8/2022 12:00:00 AM 14.02 57.236 0.086 7.14 15.85 9.56
6/8/2022 12:15:00 AM 14.01 57.218 0.087 7.15 16.2 9.56
6/8/2022 12:30:00 AM 14 57.2 0.087 7.15 16.07 9.57
6/8/2022 12:45:00 AM 13.99 57.182 0.087 7.15 16.45 9.56
6/8/2022 1:00:00 AM 13.99 57.182 0.087 7.14 16.41 9.57
6/8/2022 1:15:00 AM 13.99 57.182 0.087 7.16 17.21 9.57
6/8/2022 1:30:00 AM 13.98 57.164 0.087 7.17 16.39 9.57
6/8/2022 1:45:00 AM 13.95 57.11 0.088 7.17 15.46 9.58
6/8/2022 2:00:00 AM 13.93 57.074 0.088 7.18 16.22 9.59
6/8/2022 2:15:00 AM 13.91 57.038 0.088 7.22 16.34 9.59
6/8/2022 2:30:00 AM 13.89 57.002 0.088 7.23 16.54 9.6
6/8/2022 2:45:00 AM 13.86 56.948 0.088 7.23 16.23 9.61
6/8/2022 3:00:00 AM 13.82 56.876 0.088 7.22 16.24 9.63
6/8/2022 3:15:00 AM 13.77 56.786 0.088 7.25 16.8 9.64
6/8/2022 3:30:00 AM 13.71 56.678 0.088 7.25 16.63 9.65
6/8/2022 3:45:00 AM 13.64 56.552 0.088 7.26 16.93 9.67
6/8/2022 4:00:00 AM 13.57 56.426 0.088 7.25 15.83 9.69
6/8/2022 4:15:00 AM 13.5 56.3 0.088 7.26 16.84 9.71
6/8/2022 4:30:00 AM 13.42 56.156 0.088 7.24 16.02 9.73
6/8/2022 4:45:00 AM 13.35 56.03 0.088 7.27 16.56 9.74
6/8/2022 5:00:00 AM 13.28 55.904 0.088 7.27 16.06 9.75
6/8/2022 5:15:00 AM 13.21 55.778 0.088 7.26 16.6 9.77
6/8/2022 5:30:00 AM 13.14 55.652 0.088 7.27 15.83 9.8
6/8/2022 5:45:00 AM 13.08 55.544 0.088 7.27 16.05 9.82
6/8/2022 6:00:00 AM 13.01 55.418 0.088 7.27 16.81 9.84
6/8/2022 6:15:00 AM 12.97 55.346 0.088 7.26 16.18 9.87
6/8/2022 6:30:00 AM 12.92 55.256 0.088 7.27 16.71 9.89
6/8/2022 6:45:00 AM 12.88 55.184 0.088 7.27 17.12 9.91
6/8/2022 7:00:00 AM 12.85 55.13 0.088 7.27 16.63 9.93
6/8/2022 7:15:00 AM 12.83 55.094 0.088 7.29 17.51 9.95
6/8/2022 7:30:00 AM 12.82 55.076 0.088 7.28 16.88 9.95
6/8/2022 7:45:00 AM 12.84 55.112 0.088 7.29 17.45 9.97
6/8/2022 8:00:00 AM 12.88 55.184 0.088 7.3 17.05 9.98
6/8/2022 8:15:00 AM 12.95 55.31 0.087 7.31 17.59 9.99
6/8/2022 8:30:00 AM 13.03 55.454 0.087 7.31 17.1 9.98
6/8/2022 8:45:00 AM 13.1 55.58 0.087 7.32 16.7 9.97
6/8/2022 9:00:00 AM 13.15 55.67 0.087 7.32 17.79 9.95
6/8/2022 9:15:00 AM 13.21 55.778 0.087 7.3 17.79 9.96
6/8/2022 9:30:00 AM 13.22 55.796 0.087 7.33 18.19 9.98
6/8/2022 9:45:00 AM 13.21 55.778 0.087 7.34 18.17 9.97
6/8/2022 10:00:00 AM 13.26 55.868 0.087 7.35 17.46 9.99
6/8/2022 10:15:00 AM 13.31 55.958 0.087 7.35 18.03 9.99
6/8/2022 10:30:00 AM 13.5 56.3 0.087 7.32 17.38 9.99
6/8/2022 10:45:00 AM 13.6 56.48 0.087 7.35 18.04 9.96
6/8/2022 11:00:00 AM 13.9 57.02 0.087 7.37 18.41 9.91
6/8/2022 11:15:00 AM 14.02 57.236 0.087 7.37 18.13 9.85
6/8/2022 11:30:00 AM 14.2 57.56 0.087 7.35 18.52 9.85
6/8/2022 11:45:00 AM 14.27 57.686 0.087 7.35 18.97 9.84
6/8/2022 12:00:00 PM 14.19 57.542 0.087 7.34 18.65 9.8
6/8/2022 12:15:00 PM 14.26 57.668 0.087 7.35 18.93 9.83
6/8/2022 12:30:00 PM 14.29 57.722 0.086 7.36 19.59 9.82
6/8/2022 12:45:00 PM 14.38 57.884 0.086 7.36 19 9.81
6/8/2022 1:00:00 PM 14.47 58.046 0.086 7.35 19.48 9.69
6/8/2022 1:15:00 PM 14.61 58.298 0.086 7.37 18.8 9.75
6/8/2022 1:30:00 PM 14.71 58.478 0.086 7.36 19.2 9.72
6/8/2022 1:45:00 PM 14.82 58.676 0.086 7.37 18.82 9.7
6/8/2022 2:00:00 PM 14.82 58.676 0.086 7.37 18.44 9.66
6/8/2022 2:15:00 PM 14.88 58.784 0.086 7.37 19.05 9.66
6/8/2022 2:30:00 PM 14.85 58.73 0.086 7.36 19.36 9.63
6/8/2022 2:45:00 PM 14.95 58.91 0.086 7.36 19.23 9.63
6/8/2022 3:00:00 PM 15.03 59.054 0.086 7.36 19.35 9.6
6/8/2022 3:15:00 PM 15.01 59.018 0.086 7.35 19.24 9.56
6/8/2022 3:30:00 PM 15.03 59.054 0.086 7.35 17.89 9.51
6/8/2022 3:45:00 PM 15.03 59.054 0.086 7.35 18.44 9.53
6/8/2022 4:00:00 PM 15.03 59.054 0.087 7.34 19.36 9.52
6/8/2022 4:15:00 PM 15.01 59.018 0.087 7.33 18.98 9.53
6/8/2022 4:30:00 PM 15.01 59.018 0.087 7.33 19.04 9.53
6/8/2022 4:45:00 PM 14.98 58.964 0.087 7.32 18.95 9.51
6/8/2022 5:00:00 PM 14.92 58.856 0.087 7.31 17.86 9.51
6/8/2022 5:15:00 PM 14.86 58.748 0.087 7.31 19.63 9.52
6/8/2022 5:30:00 PM 14.83 58.694 0.087 7.3 19.26 9.53
6/8/2022 5:45:00 PM 14.77 58.586 0.087 7.28 19.25 9.51
6/8/2022 6:00:00 PM 14.71 58.478 0.087 7.29 19.68 9.5
6/8/2022 6:15:00 PM 14.67 58.406 0.087 7.28 19.42 9.5
6/8/2022 6:30:00 PM 14.63 58.334 0.087 7.28 19.65 9.51
6/8/2022 6:45:00 PM 14.61 58.298 0.087 7.27 19.97 9.51
6/8/2022 7:00:00 PM 14.59 58.262 0.087 7.26 19.65 9.46
6/8/2022 7:15:00 PM 14.57 58.226 0.087 7.26 20.62 9.5
6/8/2022 7:30:00 PM 14.54 58.172 0.087 7.26 20.12 9.48
6/8/2022 7:45:00 PM 14.51 58.118 0.087 7.26 19.55 9.48
6/8/2022 8:00:00 PM 14.47 58.046 0.087 7.38 20.07 9.48
6/8/2022 8:15:00 PM 14.43 57.974 0.087 7.25 19.85 9.46
6/8/2022 8:30:00 PM 14.4 57.92 0.087 7.25 20.25 9.46
6/8/2022 8:45:00 PM 14.35 57.83 0.087 7.25 19.99 9.46
6/8/2022 9:00:00 PM 14.31 57.758 0.088 7.22 17.79 9.47
6/8/2022 9:15:00 PM 14.28 57.704 0.088 7.24 41.26 9.47
6/8/2022 9:30:00 PM 14.24 57.632 0.088 7.24 17.77 9.48
6/8/2022 9:45:00 PM 14.2 57.56 0.088 7.25 18.17 9.5
6/8/2022 10:00:00 PM 14.17 57.506 0.088 7.25 17.67 9.5
6/8/2022 10:15:00 PM 14.14 57.452 0.088 7.24 17.4 9.51
6/8/2022 10:30:00 PM 14.12 57.416 0.088 7.24 17.27 9.52
6/8/2022 10:45:00 PM 14.09 57.362 0.088 7.25 16.92 9.52
6/8/2022 11:00:00 PM 14.07 57.326 0.088 7.22 17.55 9.52
6/8/2022 11:15:00 PM 14.05 57.29 0.088 7.24 17.28 9.53
6/8/2022 11:30:00 PM 14.03 57.254 0.088 7.23 17.62 9.52
6/8/2022 11:45:00 PM 14.02 57.236 0.088 7.23 17.13 9.52
6/9/2022 12:00:00 AM 14 57.2 0.088 7.23 17.14 9.52
6/9/2022 12:15:00 AM 13.99 57.182 0.088 7.23 17.11 9.52
6/9/2022 12:30:00 AM 13.97 57.146 0.088 7.2 18.58 9.5
6/9/2022 12:45:00 AM 13.97 57.146 0.086 7.19 20.63 9.45
6/9/2022 1:00:00 AM 13.96 57.128 0.085 7.17 23.95 9.4
6/9/2022 1:15:00 AM 13.95 57.11 0.083 7.18 36.79 9.39
6/9/2022 1:30:00 AM 13.97 57.146 0.082 7.16 81.89 9.39
6/9/2022 1:45:00 AM 14.01 57.218 0.087 7.13 140.08 9.41
6/9/2022 2:00:00 AM 14.03 57.254 0.092 7.15 190.42 9.44
6/9/2022 2:15:00 AM 14.05 57.29 0.095 7.15 153.99 9.46
6/9/2022 2:30:00 AM 14 57.2 0.092 7.15 134.72 9.49
6/9/2022 2:45:00 AM 13.98 57.164 0.088 7.14 127.47 9.51
6/9/2022 3:00:00 AM 13.95 57.11 0.086 7.13 118.83 9.53
6/9/2022 3:15:00 AM 13.88 56.984 0.08 7.11 130.56 9.58
6/9/2022 3:30:00 AM 13.8 56.84 0.075 7.05 109.39 9.63
6/9/2022 3:45:00 AM 13.75 56.75 0.077 7.06 105.01 9.65
6/9/2022 4:00:00 AM 13.72 56.696 0.075 7.09 150.11 9.65
6/9/2022 4:15:00 AM 13.7 56.66 0.075 7.07 150.76 9.66
6/9/2022 4:30:00 AM 13.68 56.624 0.075 7.05 115.54 9.66
6/9/2022 4:45:00 AM 13.66 56.588 0.077 7.06 97.78 9.66
6/9/2022 5:00:00 AM 13.64 56.552 0.079 7.07 91.59 9.66
6/9/2022 5:15:00 AM 13.62 56.516 0.082 7.07 82.94 9.66
6/9/2022 5:30:00 AM 13.6 56.48 0.084 7.07 73.83 9.67
6/9/2022 5:45:00 AM 13.58 56.444 0.086 7.07 73.2 9.67
6/9/2022 6:00:00 AM 13.56 56.408 0.088 7.11 179.78 9.67
6/9/2022 6:15:00 AM 13.55 56.39 0.09 7.12 52.27 9.67
6/9/2022 6:30:00 AM 13.53 56.354 0.091 7.14 48.97 9.68
6/9/2022 6:45:00 AM 13.52 56.336 0.091 7.15 46.17 9.68
6/9/2022 7:00:00 AM 13.51 56.318 0.091 7.13 191.84 9.7
6/9/2022 7:15:00 AM 13.51 56.318 0.091 7.16 32.96 9.71
6/9/2022 7:30:00 AM 13.51 56.318 0.091 7.16 29.71 9.7
6/9/2022 7:45:00 AM 13.51 56.318 0.091 7.15 26.97 9.71
6/9/2022 8:00:00 AM 13.52 56.336 0.09 7.13 24.61 9.73
6/9/2022 8:15:00 AM 13.54 56.372 0.09 7.17 21.85 9.73
6/9/2022 8:30:00 AM 13.57 56.426 0.09 7.16 21.36 9.75
6/9/2022 8:45:00 AM 13.61 56.498 0.09 7.17 20.95 9.76
6/9/2022 9:00:00 AM 13.63 56.534 0.09 7.16 18.74 9.75
6/9/2022 9:15:00 AM 13.65 56.57 0.09 7.15 18.05 9.74
6/9/2022 9:30:00 AM 13.69 56.642 0.09 7.1 18.16 9.75
6/9/2022 9:45:00 AM 13.7 56.66 0.09 7.11 16.82 9.74
6/9/2022 10:00:00 AM 13.69 56.642 0.09 7.1 15.89 9.73
6/9/2022 10:15:00 AM 13.79 56.822 0.089 7.09 16.5 9.74
6/9/2022 10:30:00 AM 13.81 56.858 0.089 7.11 15.49 9.76
6/9/2022 10:45:00 AM 13.92 57.056 0.089 7.09 15.05 9.77
6/9/2022 11:00:00 AM 14.04 57.272 0.089 7.08 14.72 9.76
6/9/2022 11:15:00 AM 14.05 57.29 0.089 7.1 14.56 9.72
6/9/2022 11:30:00 AM 14 57.2 0.089 7.11 14.6 9.7
6/9/2022 11:45:00 AM 14.06 57.308 0.089 7.15 14.07 9.71
6/9/2022 12:00:00 PM 14.13 57.434 0.088 7.16 13.82 9.74
6/9/2022 12:15:00 PM 14.22 57.596 0.088 7.17 13.71 9.73
6/9/2022 12:30:00 PM 14.37 57.866 0.089 7.18 14.13 9.71
6/9/2022 12:45:00 PM 14.42 57.956 0.089 7.18 13.63 9.69
6/9/2022 1:00:00 PM 14.68 58.424 0.089 7.19 14.85 9.65
6/9/2022 1:15:00 PM 14.68 58.424 0.089 7.15 12.82 9.57
6/9/2022 1:30:00 PM 14.59 58.262 0.089 7.28 14.68 9.61
6/9/2022 1:45:00 PM 14.65 58.37 0.089 7.17 13.62 9.61
6/9/2022 2:00:00 PM 14.67 58.406 0.089 7.26 11.86 9.62
6/9/2022 2:15:00 PM 14.71 58.478 0.088 7.19 13.02 9.62
6/9/2022 2:30:00 PM 14.7 58.46 0.088 7.15 11.69 9.58
6/9/2022 2:45:00 PM 14.68 58.424 0.088 7.19 11.45 9.59
6/9/2022 3:00:00 PM 14.67 58.406 0.088 7.2 11.61 9.61
6/9/2022 3:15:00 PM 14.71 58.478 0.088 7.21 11.51 9.61
6/9/2022 3:30:00 PM 14.71 58.478 0.088 7.22 11.92 9.57
6/9/2022 3:45:00 PM 14.66 58.388 0.088 7.22 13.53 9.58
6/9/2022 4:00:00 PM 14.67 58.406 0.088 7.19 11.77 9.6
6/9/2022 4:15:00 PM 14.63 58.334 0.088 7.23 12.08 9.57
6/9/2022 4:30:00 PM 14.59 58.262 0.088 7.24 11.92 9.58
6/9/2022 4:45:00 PM 14.63 58.334 0.088 7.21 12.66 9.6
6/9/2022 5:00:00 PM 14.61 58.298 0.088 7.22 12.25 9.57
6/9/2022 5:15:00 PM 14.55 58.19 0.088 7.23 12.3 9.55
6/9/2022 5:30:00 PM 14.53 58.154 0.088 7.23 12.23 9.58
6/9/2022 5:45:00 PM 14.47 58.046 0.088 7.24 12.17 9.54
6/9/2022 6:00:00 PM 14.42 57.956 0.089 7.22 12.15 9.55
6/9/2022 6:15:00 PM 14.37 57.866 0.089 7.18 12.18 9.55
6/9/2022 6:30:00 PM 14.33 57.794 0.089 7.23 12.33 9.56
6/9/2022 6:45:00 PM 14.27 57.686 0.089 7.24 11.41 9.54
6/9/2022 7:00:00 PM 14.21 57.578 0.089 7.24 10.91 9.56
6/9/2022 7:15:00 PM 14.16 57.488 0.089 7.21 12.45 9.56
6/9/2022 7:30:00 PM 14.11 57.398 0.089 7.2 11.49 9.57
6/9/2022 7:45:00 PM 14.05 57.29 0.089 7.23 11.13 9.57
6/9/2022 8:00:00 PM 14 57.2 0.089 7.23 11.05 9.57
6/9/2022 8:15:00 PM 13.96 57.128 0.089 7.22 11.21 9.57
6/9/2022 8:30:00 PM 13.92 57.056 0.089 7.23 11.68 9.58
6/9/2022 8:45:00 PM 13.88 56.984 0.089 7.22 10.95 9.58
6/9/2022 9:00:00 PM 13.82 56.876 0.089 7.2 11.78 9.6
6/9/2022 9:15:00 PM 13.76 56.768 0.089 7.19 12.59 9.6
6/9/2022 9:30:00 PM 13.7 56.66 0.089 7.2 12.36 9.62
6/9/2022 9:45:00 PM 13.64 56.552 0.089 7.2 11.93 9.64
6/9/2022 10:00:00 PM 13.58 56.444 0.088 7.21 12.07 9.66
6/9/2022 10:15:00 PM 13.51 56.318 0.089 7.21 12.46 9.68
6/9/2022 10:30:00 PM 13.45 56.21 0.089 7.2 11.44 9.69
6/9/2022 10:45:00 PM 13.38 56.084 0.089 7.19 11.83 9.71
6/9/2022 11:00:00 PM 13.32 55.976 0.089 7.2 12.04 9.72
6/9/2022 11:15:00 PM 13.26 55.868 0.089 7.22 12.26 9.73
6/9/2022 11:30:00 PM 13.2 55.76 0.089 7.22 11.18 9.74
6/9/2022 11:45:00 PM 13.14 55.652 0.089 7.22 11.67 9.76
6/10/2022 12:00:00 AM 13.07 55.526 0.089 7.19 11.78 9.78
6/10/2022 12:15:00 AM 13.01 55.418 0.089 7.19 11.34 9.8
6/10/2022 12:30:00 AM 12.94 55.292 0.089 7.22 11.6 9.82
6/10/2022 12:45:00 AM 12.88 55.184 0.089 7.22 11.68 9.84
6/10/2022 1:00:00 AM 12.82 55.076 0.089 7.22 11.72 9.85
6/10/2022 1:15:00 AM 12.76 54.968 0.089 7.23 10.89 9.87
6/10/2022 1:30:00 AM 12.7 54.86 0.089 7.21 10.86 9.87
6/10/2022 1:45:00 AM 12.64 54.752 0.089 7.2 12.29 9.88
6/10/2022 2:00:00 AM 12.59 54.662 0.089 7.2 11.49 9.89
6/10/2022 2:15:00 AM 12.53 54.554 0.089 7.18 10.76 9.91
6/10/2022 2:30:00 AM 12.47 54.446 0.089 7.21 11.26 9.92
6/10/2022 2:45:00 AM 12.43 54.374 0.089 7.22 11.61 9.93
6/10/2022 3:00:00 AM 12.38 54.284 0.089 7.22 11.58 9.95
6/10/2022 3:15:00 AM 12.33 54.194 0.089 7.23 11.34 9.97
6/10/2022 3:30:00 AM 12.26 54.068 0.089 7.23 11.19 9.98
6/10/2022 3:45:00 AM 12.2 53.96 0.089 7.22 11.49 10
6/10/2022 4:00:00 AM 12.15 53.87 0.089 7.22 10.78 10.01
6/10/2022 4:15:00 AM 12.12 53.816 0.089 7.23 11.2 10.02
6/10/2022 4:30:00 AM 12.11 53.798 0.089 7.24 11.32 10.02
6/10/2022 4:45:00 AM 12.1 53.78 0.089 7.24 11.43 10.03
6/10/2022 5:00:00 AM 12.09 53.762 0.089 7.25 12.21 10.03
6/10/2022 5:15:00 AM 12.07 53.726 0.089 7.25 11.88 10.04
6/10/2022 5:30:00 AM 12.04 53.672 0.089 7.26 11.46 10.04
6/10/2022 5:45:00 AM 12.01 53.618 0.089 7.21 11.91 10.05
6/10/2022 6:00:00 AM 11.98 53.564 0.089 7.25 11.45 10.06
6/10/2022 6:15:00 AM 11.96 53.528 0.089 7.25 12.02 10.07
6/10/2022 6:30:00 AM 11.95 53.51 0.088 7.25 14 10.09
6/10/2022 6:45:00 AM 11.94 53.492 0.088 7.26 11.26 10.1
6/10/2022 7:00:00 AM 11.94 53.492 0.088 7.24 12.4 10.11
6/10/2022 7:15:00 AM 11.95 53.51 0.088 7.27 11.8 10.11
6/10/2022 7:30:00 AM 11.98 53.564 0.088 7.28 11.91 10.11
6/10/2022 7:45:00 AM 12.02 53.636 0.088 7.27 12.13 10.12
6/10/2022 8:00:00 AM 12.08 53.744 0.088 7.27 11.38 10.12
6/10/2022 8:15:00 AM 12.16 53.888 0.088 7.25 11.8 10.12
6/10/2022 8:30:00 AM 12.24 54.032 0.088 7.27 11.59 10.11
6/10/2022 8:45:00 AM 12.34 54.212 0.088 7.27 11.71 10.09
6/10/2022 9:00:00 AM 12.45 54.41 0.088 7.28 11.83